Darstellungsparameter: Aktuell verwendete Einstellungen:
Skalierung der Graphiken ... ?
xyx+y,   Skalierungsfaktor:      Skalierung: Modus: x, Faktor: 1
Darstellungszeitraum ... ?
Vom - - bis: - -   Zeitraum: 27.02.2009 - 29.08.2009
Min/Max/Avg-Anzeige ... ?
Zeige MMA aktuell
Zeige MMA Monat
Zeige MMA alles
Zeige --A aktuell
Zeige --A Monat
Zeige --A alles
Keine MMA-Anzeige
MMA:
Keine MMA-Graphiken
MMA-Basis: 27.02.2009 - 29.08.2009
Quicknavigation für Darstellung... ?
Tage:      1T, 2T, 3T, 5T -1T -2T -3T -5T +1T +2T +3T +5T
Wochen: 1W, 2W, 3W -1W -2W -3W +1W +2W +3W
Monate: 1M, 3M, 6M -1M -3M -6M +1M +3M +6M
Jahre:    1J, 3J, 5J, 10J -1J -3J -5J -10J +1J +3J +5J +10J
Nutze für die Darstellung ... ?
Originaldaten oder Mittelwerte auf ...
Stundenbasis Tagesbasis Wochenbasis
Monatsbasis Jahresbasis      Datenbasis: Original-Daten
Darstellen als:
Statistik (Auto) Statistik J:M      Darstellung:
Zur Graphik,    zurück zur Übersicht aller Sensoren.
 
Tabellarische Datenbersicht: ?
 
Sensor: Nr:Datum:Temp:Feuchte:Taupunkt:
Aussen-T/F 1 27-02-2009 00:01:01 7.2 C 52 % -1.98 C
2 27-02-2009 00:13:01 7.2 C 53 % -1.72 C
3 27-02-2009 00:25:01 7.2 C 52 % -1.98 C
4 27-02-2009 00:37:01 7.2 C 53 % -1.72 C
5 27-02-2009 00:49:01 7.2 C 53 % -1.72 C
6 27-02-2009 01:01:01 7.2 C 54 % -1.47 C
7 27-02-2009 01:13:01 7.2 C 54 % -1.47 C
8 27-02-2009 01:25:01 7.3 C 54 % -1.38 C
9 27-02-2009 01:37:01 7.2 C 55 % -1.22 C
10 27-02-2009 01:49:01 7.2 C 55 % -1.22 C
11 27-02-2009 02:01:01 7.2 C 55 % -1.22 C
12 27-02-2009 02:13:01 7.1 C 58 % -0.59 C
13 27-02-2009 02:25:01 7 C 59 % -0.45 C
14 27-02-2009 02:37:01 7 C 60 % -0.22 C
15 27-02-2009 02:49:01 7 C 60 % -0.22 C
16 27-02-2009 03:01:01 7 C 60 % -0.22 C
17 27-02-2009 03:13:02 7 C 60 % -0.22 C
18 27-02-2009 03:25:02 6.9 C 63 % 0.36 C
19 27-02-2009 03:37:02 6.4 C 70 % 1.34 C
20 27-02-2009 03:49:02 6 C 74 % 1.73 C
21 27-02-2009 04:01:02 5.9 C 78 % 2.37 C
22 27-02-2009 04:13:02 6.1 C 77 % 2.38 C
23 27-02-2009 04:25:02 5.9 C 79 % 2.54 C
24 27-02-2009 04:37:02 5.9 C 80 % 2.72 C
25 27-02-2009 04:49:02 5.9 C 81 % 2.9 C
Sensor: Nr:Datum:Temp:Feuchte:Taupunkt:
Aussen-T/F 26 27-02-2009 05:01:02 5.7 C 82 % 2.87 C
27 27-02-2009 05:13:02 5.6 C 84 % 3.12 C
28 27-02-2009 05:25:02 5.6 C 85 % 3.28 C
29 27-02-2009 05:37:02 5.6 C 86 % 3.45 C
30 27-02-2009 05:49:02 5.6 C 86 % 3.45 C
31 27-02-2009 06:01:02 5.6 C 86 % 3.45 C
32 27-02-2009 06:13:02 5.6 C 85 % 3.28 C
33 27-02-2009 06:25:02 5.6 C 85 % 3.28 C
34 27-02-2009 06:37:02 5.6 C 84 % 3.12 C
35 27-02-2009 06:49:02 5.6 C 84 % 3.12 C
36 27-02-2009 07:01:00 5.6 C 83 % 2.95 C
37 27-02-2009 07:13:00 5.7 C 82 % 2.87 C
38 27-02-2009 07:25:00 5.9 C 80 % 2.72 C
39 27-02-2009 07:37:00 6.1 C 77 % 2.38 C
40 27-02-2009 07:49:00 6.1 C 75 % 2.01 C
41 27-02-2009 08:01:59 6.2 C 73 % 1.73 C
42 27-02-2009 08:13:59 6.4 C 71 % 1.54 C
43 27-02-2009 08:25:00 6.5 C 69 % 1.23 C
44 27-02-2009 08:37:00 6.6 C 68 % 1.13 C
45 27-02-2009 08:49:59 6.7 C 67 % 1.02 C
46 27-02-2009 09:00:59 6.8 C 66 % 0.9 C
47 27-02-2009 09:12:59 6.9 C 66 % 1 C
48 27-02-2009 09:25:59 7 C 64 % 0.67 C
49 27-02-2009 09:37:59 7.2 C 63 % 0.64 C
50 27-02-2009 09:49:58 7.7 C 61 % 0.67 C
Sensor: Nr:Datum:Temp:Feuchte:Taupunkt:
Aussen-T/F 51 27-02-2009 10:01:59 7.9 C 59 % 0.4 C
52 27-02-2009 10:13:59 8 C 57 % 0.01 C
53 27-02-2009 10:25:58 8.1 C 56 % -0.13 C
54 27-02-2009 10:37:58 8.6 C 56 % 0.33 C
55 27-02-2009 10:49:58 8.6 C 53 % -0.42 C
56 27-02-2009 11:01:58 8.7 C 53 % -0.33 C
57 27-02-2009 11:13:58 8.7 C 52 % -0.59 C
58 27-02-2009 11:25:57 8.7 C 54 % -0.07 C
59 27-02-2009 11:37:58 8.5 C 55 % -0.01 C
60 27-02-2009 11:49:58 8.3 C 59 % 0.77 C
61 27-02-2009 12:01:57 8 C 62 % 1.18 C
62 27-02-2009 12:13:57 7.7 C 67 % 1.97 C
63 27-02-2009 12:25:58 7.4 C 70 % 2.3 C
64 27-02-2009 12:37:57 7.2 C 73 % 2.69 C
65 27-02-2009 12:49:57 7 C 77 % 3.25 C
66 27-02-2009 13:01:56 6.8 C 80 % 3.6 C
67 27-02-2009 13:13:56 6.8 C 82 % 3.95 C
68 27-02-2009 13:25:57 7 C 82 % 4.14 C
69 27-02-2009 13:37:56 7.1 C 82 % 4.24 C
70 27-02-2009 13:49:56 7.1 C 80 % 3.89 C
71 27-02-2009 14:01:57 7.1 C 79 % 3.71 C
72 27-02-2009 14:13:57 7.3 C 78 % 3.73 C
73 27-02-2009 14:25:56 7.5 C 78 % 3.92 C
74 27-02-2009 14:37:56 7.5 C 78 % 3.92 C
75 27-02-2009 14:49:56 7.7 C 77 % 3.93 C
Sensor: Nr:Datum:Temp:Feuchte:Taupunkt:
Aussen-T/F 76 27-02-2009 15:01:56 7.5 C 74 % 3.17 C
77 27-02-2009 15:13:56 7.6 C 73 % 3.08 C
78 27-02-2009 15:25:56 7.5 C 72 % 2.79 C
79 27-02-2009 15:37:55 7.7 C 71 % 2.78 C
80 27-02-2009 15:49:56 7.9 C 70 % 2.78 C
81 27-02-2009 16:01:55 8 C 67 % 2.26 C
82 27-02-2009 16:13:55 8 C 66 % 2.05 C
83 27-02-2009 16:25:55 8 C 66 % 2.05 C
84 27-02-2009 16:37:55 8 C 64 % 1.62 C
85 27-02-2009 16:49:54 7.9 C 66 % 1.95 C
86 27-02-2009 17:01:54 7.9 C 66 % 1.95 C
87 27-02-2009 17:13:54 7.9 C 66 % 1.95 C
88 27-02-2009 17:25:55 7.8 C 68 % 2.27 C
89 27-02-2009 17:37:54 7.6 C 70 % 2.49 C
90 27-02-2009 17:49:54 7.5 C 71 % 2.59 C
91 27-02-2009 18:01:54 7.5 C 71 % 2.59 C
92 27-02-2009 18:13:54 7.6 C 71 % 2.69 C
93 27-02-2009 18:25:54 7.6 C 70 % 2.49 C
94 27-02-2009 18:37:53 7.6 C 70 % 2.49 C
95 27-02-2009 18:49:54 7.6 C 70 % 2.49 C
96 27-02-2009 19:01:53 7.6 C 69 % 2.29 C
97 27-02-2009 19:13:53 7.7 C 69 % 2.38 C
98 27-02-2009 19:25:53 7.8 C 69 % 2.48 C
99 27-02-2009 19:37:54 7.8 C 68 % 2.27 C
100 27-02-2009 19:49:53 7.9 C 68 % 2.37 C
Sensor: Nr:Datum:Temp:Feuchte:Taupunkt:
Aussen-T/F 101 27-02-2009 20:01:53 7.8 C 68 % 2.27 C
102 27-02-2009 20:13:53 7.8 C 68 % 2.27 C
103 27-02-2009 20:25:53 7.7 C 70 % 2.58 C
104 27-02-2009 20:37:53 7.7 C 70 % 2.58 C
105 27-02-2009 20:49:52 7.5 C 72 % 2.79 C
106 27-02-2009 21:01:53 7.2 C 75 % 3.07 C
107 27-02-2009 21:13:54 7 C 78 % 3.43 C
108 27-02-2009 21:25:52 7 C 80 % 3.79 C
109 27-02-2009 21:37:52 6.9 C 82 % 4.05 C
110 27-02-2009 21:49:52 6.8 C 84 % 4.29 C
111 27-02-2009 22:01:52 6.7 C 84 % 4.19 C
112 27-02-2009 22:13:52 6.7 C 85 % 4.36 C
113 27-02-2009 22:25:52 6.8 C 84 % 4.29 C
114 27-02-2009 22:37:51 6.9 C 84 % 4.39 C
115 27-02-2009 22:49:52 6.9 C 83 % 4.22 C
116 27-02-2009 23:01:51 6.9 C 82 % 4.05 C
117 27-02-2009 23:13:51 6.9 C 81 % 3.87 C
118 27-02-2009 23:25:51 6.9 C 82 % 4.05 C
119 27-02-2009 23:37:51 6.8 C 82 % 3.95 C
120 27-02-2009 23:50:52 6.9 C 82 % 4.05 C
121 28-02-2009 00:02:52 6.9 C 82 % 4.05 C
122 28-02-2009 00:14:52 6.9 C 81 % 3.87 C
123 28-02-2009 00:26:53 6.9 C 81 % 3.87 C
124 28-02-2009 00:38:53 6.9 C 80 % 3.7 C
125 28-02-2009 00:50:53 6.9 C 80 % 3.7 C
Sensor: Nr:Datum:Temp:Feuchte:Taupunkt:
Aussen-T/F 126 28-02-2009 01:02:53 6.9 C 79 % 3.52 C
127 28-02-2009 01:14:53 6.9 C 79 % 3.52 C
128 28-02-2009 01:26:53 6.9 C 79 % 3.52 C
129 28-02-2009 01:38:53 7 C 77 % 3.25 C
130 28-02-2009 01:50:53 7 C 77 % 3.25 C
131 28-02-2009 02:02:53 7.1 C 76 % 3.16 C
132 28-02-2009 02:14:53 7.1 C 76 % 3.16 C
133 28-02-2009 02:26:53 7.3 C 75 % 3.17 C
134 28-02-2009 02:38:53 7.4 C 74 % 3.08 C
135 28-02-2009 02:50:53 7.5 C 73 % 2.98 C
136 28-02-2009 03:02:53 7.5 C 73 % 2.98 C
137 28-02-2009 03:14:53 7.5 C 73 % 2.98 C
138 28-02-2009 03:26:53 7.5 C 73 % 2.98 C
139 28-02-2009 03:38:53 7.5 C 73 % 2.98 C
140 28-02-2009 03:50:53 7.5 C 73 % 2.98 C
141 28-02-2009 04:02:54 7.6 C 73 % 3.08 C
142 28-02-2009 04:14:54 7.6 C 73 % 3.08 C
143 28-02-2009 04:26:54 7.6 C 72 % 2.88 C
144 28-02-2009 04:38:54 7.6 C 72 % 2.88 C
145 28-02-2009 04:50:54 7.7 C 72 % 2.98 C
146 28-02-2009 05:02:54 7.7 C 72 % 2.98 C
147 28-02-2009 05:14:54 7.8 C 71 % 2.88 C
148 28-02-2009 05:26:54 7.8 C 71 % 2.88 C
149 28-02-2009 05:38:54 7.8 C 71 % 2.88 C
150 28-02-2009 05:50:54 7.7 C 71 % 2.78 C
Sensor: Nr:Datum:Temp:Feuchte:Taupunkt:
Aussen-T/F 151 28-02-2009 06:02:54 7.6 C 72 % 2.88 C
152 28-02-2009 06:14:54 7.6 C 72 % 2.88 C
153 28-02-2009 06:26:54 7.5 C 72 % 2.79 C
154 28-02-2009 06:38:54 7.5 C 73 % 2.98 C
155 28-02-2009 06:50:54 7.4 C 73 % 2.89 C
156 28-02-2009 07:02:54 7.4 C 73 % 2.89 C
157 28-02-2009 07:14:54 7.4 C 74 % 3.08 C
158 28-02-2009 07:26:54 7.3 C 74 % 2.98 C
159 28-02-2009 07:38:54 7.3 C 75 % 3.17 C
160 28-02-2009 07:50:55 7.4 C 75 % 3.27 C
161 28-02-2009 08:02:51 7.5 C 74 % 3.17 C
162 28-02-2009 08:14:51 7.6 C 74 % 3.27 C
163 28-02-2009 08:26:51 7.6 C 73 % 3.08 C
164 28-02-2009 08:38:51 7.9 C 73 % 3.37 C
165 28-02-2009 08:50:51 8 C 72 % 3.27 C
166 28-02-2009 09:02:51 8.1 C 71 % 3.17 C
167 28-02-2009 09:14:51 8.2 C 71 % 3.26 C
168 28-02-2009 09:26:51 9 C 67 % 3.21 C
169 28-02-2009 09:38:51 9.5 C 64 % 3.04 C
170 28-02-2009 09:50:51 9.3 C 64 % 2.85 C
171 28-02-2009 10:02:51 9.3 C 64 % 2.85 C
172 28-02-2009 10:14:50 9.7 C 63 % 3.01 C
173 28-02-2009 10:26:50 9.8 C 62 % 2.88 C
174 28-02-2009 10:38:50 9.7 C 63 % 3.01 C
175 28-02-2009 10:50:50 9.8 C 62 % 2.88 C
Sensor: Nr:Datum:Temp:Feuchte:Taupunkt:
Aussen-T/F 176 28-02-2009 11:02:50 9.9 C 62 % 2.97 C
177 28-02-2009 11:14:49 10.1 C 61 % 2.93 C
178 28-02-2009 11:26:49 10.8 C 59 % 3.12 C
179 28-02-2009 11:38:50 11.2 C 57 % 3.01 C
180 28-02-2009 11:50:49 10.7 C 59 % 3.03 C
181 28-02-2009 12:02:49 10.3 C 60 % 2.89 C
182 28-02-2009 12:14:50 10.3 C 61 % 3.12 C
183 28-02-2009 12:26:50 11 C 58 % 3.07 C
184 28-02-2009 12:38:49 11.4 C 56 % 2.95 C
185 28-02-2009 12:50:49 12 C 54 % 2.99 C
186 28-02-2009 13:02:49 12.2 C 52 % 2.65 C
187 28-02-2009 13:14:49 12.4 C 50 % 2.28 C
188 28-02-2009 13:26:49 12.7 C 50 % 2.56 C
189 28-02-2009 13:38:49 13.5 C 47 % 2.42 C
190 28-02-2009 13:50:49 13.9 C 45 % 2.18 C
191 28-02-2009 14:02:48 14.2 C 42 % 1.49 C
192 28-02-2009 14:14:48 14.3 C 42 % 1.58 C
193 28-02-2009 14:26:49 14 C 43 % 1.63 C
194 28-02-2009 14:38:47 14.2 C 41 % 1.15 C
195 28-02-2009 14:50:48 14.9 C 38 % 0.73 C
196 28-02-2009 15:02:47 15.3 C 36 % 0.34 C
197 28-02-2009 15:14:47 16.1 C 35 % 0.65 C
198 28-02-2009 15:26:47 16.8 C 34 % 0.87 C
199 28-02-2009 15:38:48 18 C 31 % 0.64 C
200 28-02-2009 15:50:47 18.1 C 31 % 0.73 C
Sensor: Nr:Datum:Temp:Feuchte:Taupunkt:
Aussen-T/F 201 28-02-2009 16:02:47 17.6 C 33 % 1.16 C
202 28-02-2009 16:14:47 16.8 C 36 % 1.66 C
203 28-02-2009 16:26:47 16.6 C 37 % 1.87 C
204 28-02-2009 16:38:47 16.1 C 38 % 1.79 C
205 28-02-2009 16:50:47 15.6 C 40 % 2.06 C
206 28-02-2009 17:02:48 15.2 C 41 % 2.05 C
207 28-02-2009 17:14:46 15 C 42 % 2.21 C
208 28-02-2009 17:26:46 14.7 C 46 % 3.22 C
209 28-02-2009 17:38:47 14.3 C 47 % 3.15 C
210 28-02-2009 17:50:46 13.8 C 49 % 3.28 C
211 28-02-2009 18:02:46 13.4 C 50 % 3.2 C
212 28-02-2009 18:14:46 12.9 C 52 % 3.29 C
213 28-02-2009 18:26:46 12.2 C 54 % 3.18 C
214 28-02-2009 18:38:46 12 C 55 % 3.25 C
215 28-02-2009 18:50:45 11.7 C 56 % 3.23 C
216 28-02-2009 19:02:45 11.6 C 56 % 3.13 C
217 28-02-2009 19:14:46 11.4 C 56 % 2.95 C
218 28-02-2009 19:26:46 11.2 C 57 % 3.01 C
219 28-02-2009 19:38:45 11.1 C 57 % 2.92 C
220 28-02-2009 19:50:44 11 C 57 % 2.82 C
221 28-02-2009 20:02:45 10.7 C 59 % 3.03 C
222 28-02-2009 20:14:45 10.2 C 60 % 2.79 C
223 28-02-2009 20:26:45 10 C 61 % 2.84 C
224 28-02-2009 20:38:44 9.7 C 63 % 3.01 C
225 28-02-2009 20:50:45 9.6 C 63 % 2.91 C
Sensor: Nr:Datum:Temp:Feuchte:Taupunkt:
Aussen-T/F 226 28-02-2009 21:02:44 9.5 C 64 % 3.04 C
227 28-02-2009 21:14:45 9.4 C 65 % 3.16 C
228 28-02-2009 21:26:45 9.2 C 65 % 2.97 C
229 28-02-2009 21:38:44 9.1 C 66 % 3.09 C
230 28-02-2009 21:50:44 8.8 C 67 % 3.02 C
231 28-02-2009 22:02:44 8.7 C 68 % 3.13 C
232 28-02-2009 22:14:44 8.7 C 69 % 3.34 C
233 28-02-2009 22:26:44 8.7 C 69 % 3.34 C
234 28-02-2009 22:38:43 8.4 C 69 % 3.05 C
235 28-02-2009 22:51:44 8.2 C 70 % 3.06 C
236 28-02-2009 23:03:44 7.9 C 72 % 3.17 C
237 28-02-2009 23:15:44 7.7 C 72 % 2.98 C
238 28-02-2009 23:27:44 7.5 C 73 % 2.98 C
239 28-02-2009 23:39:44 7.4 C 74 % 3.08 C
240 28-02-2009 23:51:45 7.2 C 74 % 2.89 C
241 01-03-2009 00:03:45 7.1 C 75 % 2.98 C
242 01-03-2009 00:15:45 7 C 75 % 2.88 C
243 01-03-2009 00:27:45 7.4 C 77 % 3.64 C
244 01-03-2009 00:39:45 7.7 C 76 % 3.75 C
245 01-03-2009 00:51:45 7.7 C 75 % 3.56 C
246 01-03-2009 01:03:45 7.5 C 74 % 3.17 C
247 01-03-2009 01:15:45 7.6 C 74 % 3.27 C
248 01-03-2009 01:27:45 7.7 C 74 % 3.37 C
249 01-03-2009 01:39:45 7.8 C 74 % 3.46 C
250 01-03-2009 01:51:45 7.9 C 74 % 3.56 C
Sensor: Nr:Datum:Temp:Feuchte:Taupunkt:
Aussen-T/F 251 01-03-2009 02:03:45 7.8 C 73 % 3.27 C
252 01-03-2009 02:15:45 7.8 C 73 % 3.27 C
253 01-03-2009 02:27:45 7.9 C 73 % 3.37 C
254 01-03-2009 02:39:45 7.7 C 73 % 3.18 C
255 01-03-2009 02:51:45 7.6 C 73 % 3.08 C
256 01-03-2009 03:03:45 7.5 C 73 % 2.98 C
257 01-03-2009 03:15:45 7.2 C 74 % 2.89 C
258 01-03-2009 03:27:45 6.8 C 75 % 2.69 C
259 01-03-2009 03:39:46 6.7 C 77 % 2.96 C
260 01-03-2009 03:51:46 6.5 C 78 % 2.95 C
261 01-03-2009 04:03:46 6.5 C 78 % 2.95 C
262 01-03-2009 04:15:46 6.3 C 78 % 2.75 C
263 01-03-2009 04:27:46 6.2 C 78 % 2.66 C
264 01-03-2009 04:39:46 6.2 C 79 % 2.84 C
265 01-03-2009 04:51:46 6 C 78 % 2.46 C
266 01-03-2009 05:03:46 6 C 79 % 2.64 C
267 01-03-2009 05:15:46 6.4 C 80 % 3.21 C
268 01-03-2009 05:27:46 6.4 C 80 % 3.21 C
269 01-03-2009 05:39:46 6.4 C 79 % 3.03 C
270 01-03-2009 05:51:46 6.3 C 78 % 2.75 C
271 01-03-2009 06:03:46 6.3 C 79 % 2.93 C
272 01-03-2009 06:15:46 6.5 C 79 % 3.13 C
273 01-03-2009 06:27:46 6.6 C 79 % 3.23 C
274 01-03-2009 06:39:46 6.7 C 79 % 3.32 C
275 01-03-2009 06:51:46 6.8 C 79 % 3.42 C
Sensor: Nr:Datum:Temp:Feuchte:Taupunkt:
Aussen-T/F 276 01-03-2009 07:03:46 6.8 C 79 % 3.42 C
277 01-03-2009 07:15:46 6.9 C 78 % 3.34 C
278 01-03-2009 07:27:47 6.8 C 78 % 3.24 C
279 01-03-2009 07:39:47 6.9 C 78 % 3.34 C
280 01-03-2009 07:51:47 7 C 77 % 3.25 C
281 01-03-2009 08:03:47 7.2 C 77 % 3.45 C
282 01-03-2009 08:15:47 7.4 C 76 % 3.45 C
283 01-03-2009 08:27:47 7.6 C 75 % 3.46 C
284 01-03-2009 08:39:47 7.8 C 75 % 3.65 C
285 01-03-2009 08:51:47 7.9 C 73 % 3.37 C
286 01-03-2009 09:03:43 8 C 71 % 3.07 C
287 01-03-2009 09:15:44 8.1 C 69 % 2.77 C
288 01-03-2009 09:27:44 8.4 C 69 % 3.05 C
289 01-03-2009 09:39:44 8.6 C 67 % 2.83 C
290 01-03-2009 09:51:43 8.7 C 65 % 2.5 C
291 01-03-2009 10:03:43 9.1 C 64 % 2.66 C
292 01-03-2009 10:15:43 9.3 C 63 % 2.63 C
293 01-03-2009 10:27:43 9.6 C 61 % 2.46 C
294 01-03-2009 10:39:43 10 C 58 % 2.13 C
295 01-03-2009 10:51:43 10.1 C 58 % 2.22 C
296 01-03-2009 11:03:43 10.7 C 55 % 2.04 C
297 01-03-2009 11:15:42 10.5 C 56 % 2.11 C
298 01-03-2009 11:27:42 10.6 C 55 % 1.95 C
299 01-03-2009 11:39:42 10.9 C 54 % 1.97 C
300 01-03-2009 11:51:42 11.5 C 53 % 2.27 C
Sensor: Nr:Datum:Temp:Feuchte:Taupunkt:
Aussen-T/F 301 01-03-2009 12:03:42 11.7 C 51 % 1.91 C
302 01-03-2009 12:15:42 11.8 C 50 % 1.73 C
303 01-03-2009 12:27:42 11.6 C 50 % 1.54 C
304 01-03-2009 12:39:42 12.1 C 48 % 1.44 C
305 01-03-2009 12:51:42 12.8 C 46 % 1.48 C
306 01-03-2009 13:03:41 13.3 C 44 % 1.32 C
307 01-03-2009 13:15:42 13.5 C 43 % 1.18 C
308 01-03-2009 13:27:42 13.8 C 43 % 1.45 C
309 01-03-2009 13:39:41 13.3 C 43 % 1 C
310 01-03-2009 13:51:41 13.6 C 43 % 1.27 C
311 01-03-2009 14:03:41 13.9 C 43 % 1.54 C
312 01-03-2009 14:15:41 13.9 C 42 % 1.22 C
313 01-03-2009 14:27:41 13.9 C 42 % 1.22 C
314 01-03-2009 14:39:41 13.9 C 42 % 1.22 C
315 01-03-2009 14:51:41 14.2 C 41 % 1.15 C
316 01-03-2009 15:03:41 14.5 C 41 % 1.42 C
317 01-03-2009 15:15:40 14.4 C 41 % 1.33 C
318 01-03-2009 15:27:40 15.1 C 39 % 1.26 C
319 01-03-2009 15:39:40 15.2 C 39 % 1.35 C
320 01-03-2009 15:51:40 14.8 C 40 % 1.35 C
321 01-03-2009 16:03:40 14.5 C 40 % 1.08 C
322 01-03-2009 16:15:39 14.1 C 40 % 0.72 C
323 01-03-2009 16:27:39 13.7 C 41 % 0.7 C
324 01-03-2009 16:39:40 13.5 C 42 % 0.86 C
325 01-03-2009 16:51:39 13.3 C 43 % 1 C
Sensor: Nr:Datum:Temp:Feuchte:Taupunkt:
Aussen-T/F 326 01-03-2009 17:03:39 13.2 C 44 % 1.23 C
327 01-03-2009 17:15:40 13 C 44 % 1.05 C
328 01-03-2009 17:27:40 12.8 C 46 % 1.48 C
329 01-03-2009 17:39:39 12.5 C 46 % 1.21 C
330 01-03-2009 17:51:39 12.4 C 48 % 1.71 C
331 01-03-2009 18:03:38 11.8 C 53 % 2.54 C
332 01-03-2009 18:15:39 11.4 C 55 % 2.69 C
333 01-03-2009 18:27:39 11.2 C 56 % 2.76 C
334 01-03-2009 18:39:38 11.1 C 55 % 2.41 C
335 01-03-2009 18:51:38 10.9 C 57 % 2.73 C
336 01-03-2009 19:03:38 10.9 C 58 % 2.97 C
337 01-03-2009 19:15:38 11 C 56 % 2.57 C
338 01-03-2009 19:27:38 11 C 56 % 2.57 C
339 01-03-2009 19:39:38 11.2 C 55 % 2.51 C
340 01-03-2009 19:51:38 11.5 C 52 % 2 C
341 01-03-2009 20:03:38 11.9 C 50 % 1.82 C
342 01-03-2009 20:15:37 12 C 48 % 1.34 C
343 01-03-2009 20:27:37 12 C 48 % 1.34 C
344 01-03-2009 20:39:37 11.8 C 49 % 1.45 C
345 01-03-2009 20:51:37 11.8 C 49 % 1.45 C
346 01-03-2009 21:03:37 11.7 C 49 % 1.36 C
347 01-03-2009 21:15:37 11.8 C 49 % 1.45 C
348 01-03-2009 21:27:37 11.6 C 50 % 1.54 C
349 01-03-2009 21:39:37 11.4 C 51 % 1.64 C
350 01-03-2009 21:51:36 11.4 C 51 % 1.64 C
Sensor: Nr:Datum:Temp:Feuchte:Taupunkt:
Aussen-T/F 351 01-03-2009 22:03:36 11.1 C 55 % 2.41 C
352 01-03-2009 22:15:37 10.5 C 62 % 3.54 C
353 01-03-2009 22:27:37 10.1 C 67 % 4.26 C
354 01-03-2009 22:40:37 9.8 C 70 % 4.6 C
355 01-03-2009 22:52:37 9.7 C 70 % 4.5 C
356 01-03-2009 23:04:37 9.5 C 72 % 4.71 C
357 01-03-2009 23:16:37 9.5 C 73 % 4.91 C
358 01-03-2009 23:28:37 9.6 C 71 % 4.61 C
359 01-03-2009 23:40:37 9.8 C 68 % 4.18 C
360 01-03-2009 23:52:37 9.8 C 68 % 4.18 C
361 02-03-2009 00:04:37 9.8 C 67 % 3.97 C
362 02-03-2009 00:16:38 9.8 C 68 % 4.18 C
363 02-03-2009 00:28:38 9.5 C 71 % 4.51 C
364 02-03-2009 00:40:38 9.2 C 73 % 4.62 C
365 02-03-2009 00:52:38 9.1 C 74 % 4.72 C
366 02-03-2009 01:04:38 9.1 C 74 % 4.72 C
367 02-03-2009 01:16:38 9.1 C 74 % 4.72 C
368 02-03-2009 01:28:38 9.1 C 74 % 4.72 C
369 02-03-2009 01:40:38 9.1 C 73 % 4.52 C
370 02-03-2009 01:52:38 9 C 75 % 4.81 C
371 02-03-2009 02:04:38 8.9 C 76 % 4.91 C
372 02-03-2009 02:16:38 8.8 C 77 % 5 C
373 02-03-2009 02:28:38 8.7 C 78 % 5.08 C
374 02-03-2009 02:40:38 8.6 C 78 % 4.99 C
375 02-03-2009 02:52:38 8.6 C 79 % 5.17 C
Sensor: Nr:Datum:Temp:Feuchte:Taupunkt:
Aussen-T/F 376 02-03-2009 03:04:38 8.7 C 80 % 5.45 C
377 02-03-2009 03:16:38 8.5 C 82 % 5.61 C
378 02-03-2009 03:28:38 8.5 C 82 % 5.61 C
379 02-03-2009 03:40:38 8.5 C 83 % 5.78 C
380 02-03-2009 03:52:38 8.4 C 83 % 5.69 C
381 02-03-2009 04:04:39 8.4 C 84 % 5.86 C
382 02-03-2009 04:16:39 8.4 C 85 % 6.03 C
383 02-03-2009 04:28:39 8.3 C 86 % 6.1 C
384 02-03-2009 04:40:39 8.3 C 86 % 6.1 C
385 02-03-2009 04:52:39 8.3 C 87 % 6.27 C
386 02-03-2009 05:04:39 8.2 C 87 % 6.17 C
387 02-03-2009 05:16:39 8.2 C 87 % 6.17 C
388 02-03-2009 05:28:39 8.2 C 87 % 6.17 C
389 02-03-2009 05:40:39 8.1 C 87 % 6.07 C
390 02-03-2009 05:52:39 8.1 C 86 % 5.9 C
391 02-03-2009 06:04:39 8.2 C 86 % 6 C
392 02-03-2009 06:16:39 8.2 C 85 % 5.83 C
393 02-03-2009 06:28:39 8.2 C 85 % 5.83 C
394 02-03-2009 06:40:39 8.1 C 85 % 5.73 C
395 02-03-2009 06:52:39 8.2 C 85 % 5.83 C
396 02-03-2009 07:04:37 8.2 C 86 % 6 C
397 02-03-2009 07:16:37 8.4 C 85 % 6.03 C
398 02-03-2009 07:28:37 8.4 C 84 % 5.86 C
399 02-03-2009 07:40:37 8.4 C 83 % 5.69 C
400 02-03-2009 07:52:38 8.3 C 82 % 5.41 C
Sensor: Nr:Datum:Temp:Feuchte:Taupunkt:
Aussen-T/F 401 02-03-2009 08:04:37 8.3 C 83 % 5.59 C
402 02-03-2009 08:16:36 8.3 C 83 % 5.59 C
403 02-03-2009 08:28:37 8.2 C 84 % 5.66 C
404 02-03-2009 08:40:36 8.2 C 84 % 5.66 C
405 02-03-2009 08:52:36 8.1 C 84 % 5.56 C
406 02-03-2009 09:04:36 8.1 C 85 % 5.73 C
407 02-03-2009 09:16:35 8.1 C 85 % 5.73 C
408 02-03-2009 09:28:35 8.1 C 85 % 5.73 C
409 02-03-2009 09:40:36 8.1 C 86 % 5.9 C
410 02-03-2009 09:52:35 8.1 C 86 % 5.9 C
411 02-03-2009 10:04:35 8.1 C 87 % 6.07 C
412 02-03-2009 10:16:36 8.2 C 87 % 6.17 C
413 02-03-2009 10:28:36 8 C 87 % 5.97 C
414 02-03-2009 10:40:35 8.1 C 85 % 5.73 C
415 02-03-2009 10:52:35 8.2 C 84 % 5.66 C
416 02-03-2009 11:04:35 8.2 C 83 % 5.49 C
417 02-03-2009 11:16:35 8.1 C 82 % 5.22 C
418 02-03-2009 11:28:35 8 C 81 % 4.94 C
419 02-03-2009 11:40:34 8 C 81 % 4.94 C
420 02-03-2009 11:52:35 8.2 C 82 % 5.32 C
421 02-03-2009 12:04:34 8.6 C 81 % 5.53 C
422 02-03-2009 12:16:34 8.8 C 77 % 5 C
423 02-03-2009 12:28:34 8.9 C 72 % 4.14 C
424 02-03-2009 12:40:34 8.7 C 70 % 3.54 C
425 02-03-2009 12:52:34 9.5 C 67 % 3.69 C
Sensor: Nr:Datum:Temp:Feuchte:Taupunkt:
Aussen-T/F 426 02-03-2009 13:04:34 9.2 C 61 % 2.08 C
427 02-03-2009 13:16:33 9 C 59 % 1.43 C
428 02-03-2009 13:28:33 9.3 C 59 % 1.71 C
429 02-03-2009 13:40:34 9.8 C 58 % 1.94 C
430 02-03-2009 13:52:33 10.6 C 52 % 1.17 C
431 02-03-2009 14:04:33 10.1 C 48 % -0.4 C
432 02-03-2009 14:16:33 10.2 C 48 % -0.31 C
433 02-03-2009 14:28:33 10.7 C 47 % -0.14 C
434 02-03-2009 14:40:33 10.4 C 46 % -0.7 C
435 02-03-2009 14:52:32 10.4 C 47 % -0.41 C
436 02-03-2009 15:04:33 10.3 C 45 % -1.1 C
437 02-03-2009 15:16:33 10.3 C 45 % -1.1 C
438 02-03-2009 15:28:33 10.2 C 45 % -1.19 C
439 02-03-2009 15:40:32 10.8 C 45 % -0.64 C
440 02-03-2009 15:52:32 10.7 C 45 % -0.73 C
441 02-03-2009 16:04:32 10.5 C 44 % -1.22 C
442 02-03-2009 16:16:32 10.3 C 45 % -1.1 C
443 02-03-2009 16:28:33 10 C 46 % -1.07 C
444 02-03-2009 16:40:31 10 C 46 % -1.07 C
445 02-03-2009 16:52:32 9.8 C 47 % -0.96 C
446 02-03-2009 17:04:31 9.7 C 50 % -0.21 C
447 02-03-2009 17:16:31 9.5 C 50 % -0.39 C
448 02-03-2009 17:28:31 9.2 C 50 % -0.67 C
449 02-03-2009 17:40:32 8.9 C 52 % -0.41 C
450 02-03-2009 17:52:31 8.5 C 53 % -0.52 C
Sensor: Nr:Datum:Temp:Feuchte:Taupunkt:
Aussen-T/F 451 02-03-2009 18:04:31 8.3 C 54 % -0.45 C
452 02-03-2009 18:16:31 8.1 C 56 % -0.13 C
453 02-03-2009 18:28:31 7.8 C 57 % -0.17 C
454 02-03-2009 18:40:30 7.8 C 57 % -0.17 C
455 02-03-2009 18:52:31 7.5 C 58 % -0.21 C
456 02-03-2009 19:04:30 7.6 C 57 % -0.36 C
457 02-03-2009 19:16:30 7.5 C 56 % -0.7 C
458 02-03-2009 19:28:30 7.3 C 57 % -0.64 C
459 02-03-2009 19:40:30 7.1 C 58 % -0.59 C
460 02-03-2009 19:52:30 6.8 C 59 % -0.64 C
461 02-03-2009 20:04:29 6.4 C 60 % -0.78 C
462 02-03-2009 20:16:30 6 C 61 % -0.94 C
463 02-03-2009 20:28:30 5.8 C 63 % -0.69 C
464 02-03-2009 20:40:30 5.4 C 63 % -1.06 C
465 02-03-2009 20:52:29 5.1 C 65 % -0.92 C
466 02-03-2009 21:04:29 4.8 C 67 % -0.8 C
467 02-03-2009 21:16:29 4.6 C 68 % -0.78 C
468 02-03-2009 21:28:29 4.4 C 69 % -0.78 C
469 02-03-2009 21:40:29 4.1 C 70 % -0.87 C
470 02-03-2009 21:52:29 3.9 C 72 % -0.68 C
471 02-03-2009 22:04:29 3.7 C 73 % -0.68 C
472 02-03-2009 22:16:28 3.7 C 73 % -0.68 C
473 02-03-2009 22:28:28 3.5 C 74 % -0.69 C
474 02-03-2009 22:40:29 3.4 C 74 % -0.78 C
475 02-03-2009 22:53:29 3 C 76 % -0.81 C
Sensor: Nr:Datum:Temp:Feuchte:Taupunkt:
Aussen-T/F 476 02-03-2009 23:05:29 2.8 C 78 % -0.65 C
477 02-03-2009 23:17:29 2.7 C 78 % -0.74 C
478 02-03-2009 23:29:29 2.9 C 80 % -0.2 C
479 02-03-2009 23:41:29 3.1 C 79 % -0.18 C
480 02-03-2009 23:53:29 2.8 C 79 % -0.47 C
481 03-03-2009 00:05:29 2.6 C 79 % -0.67 C
482 03-03-2009 00:17:30 2.9 C 79 % -0.37 C
483 03-03-2009 00:29:30 3.1 C 77 % -0.53 C
484 03-03-2009 00:41:30 3 C 76 % -0.81 C
485 03-03-2009 00:53:30 2.9 C 77 % -0.72 C
486 03-03-2009 01:05:30 3 C 76 % -0.81 C
487 03-03-2009 01:17:30 3 C 75 % -0.99 C
488 03-03-2009 01:29:30 3.1 C 74 % -1.07 C
489 03-03-2009 01:41:30 3 C 74 % -1.17 C
490 03-03-2009 01:53:30 2.8 C 75 % -1.18 C
491 03-03-2009 02:05:30 2.6 C 75 % -1.37 C
492 03-03-2009 02:17:30 2.4 C 75 % -1.57 C
493 03-03-2009 02:29:30 2.3 C 76 % -1.48 C
494 03-03-2009 02:41:30 2.2 C 76 % -1.58 C
495 03-03-2009 02:53:30 2.1 C 78 % -1.33 C
496 03-03-2009 03:05:30 1.9 C 80 % -1.18 C
497 03-03-2009 03:17:30 1.6 C 79 % -1.64 C
498 03-03-2009 03:29:30 1.5 C 80 % -1.57 C
499 03-03-2009 03:41:30 1.5 C 81 % -1.4 C
500 03-03-2009 03:53:30 1.2 C 82 % -1.52 C
Sensor: Nr:Datum:Temp:Feuchte:Taupunkt:
Aussen-T/F 501 03-03-2009 04:05:31 1.2 C 82 % -1.52 C
502 03-03-2009 04:17:31 1.5 C 83 % -1.06 C
503 03-03-2009 04:29:31 1.4 C 83 % -1.16 C
504 03-03-2009 04:41:31 1.3 C 83 % -1.26 C
505 03-03-2009 04:53:31 1 C 82 % -1.72 C
506 03-03-2009 05:05:31 0.7 C 83 % -1.85 C
507 03-03-2009 05:17:31 0.5 C 83 % -2.04 C
508 03-03-2009 05:29:31 0.3 C 83 % -2.24 C
509 03-03-2009 05:41:31 0.3 C 83 % -2.24 C
510 03-03-2009 05:53:31 0.1 C 84 % -2.27 C
511 03-03-2009 06:05:31 0 C 84 % -2.37 C
512 03-03-2009 06:17:31 -0.1 C 84 % -2.47 C
513 03-03-2009 06:29:31 0 C 84 % -2.37 C
514 03-03-2009 06:41:31 -0.1 C 84 % -2.47 C
515 03-03-2009 06:53:31 -0.2 C 84 % -2.57 C
516 03-03-2009 07:05:29 -0.3 C 84 % -2.67 C
517 03-03-2009 07:17:28 -0.4 C 84 % -2.77 C
518 03-03-2009 07:29:28 -0.4 C 84 % -2.77 C
519 03-03-2009 07:41:29 -0.4 C 85 % -2.61 C
520 03-03-2009 07:53:28 -0.4 C 85 % -2.61 C
521 03-03-2009 08:05:28 -0.3 C 85 % -2.51 C
522 03-03-2009 08:17:28 -0.2 C 86 % -2.25 C
523 03-03-2009 08:29:28 -0.1 C 86 % -2.16 C
524 03-03-2009 08:41:28 0.1 C 87 % -1.8 C
525 03-03-2009 08:53:27 0.4 C 87 % -1.5 C
Sensor: Nr:Datum:Temp:Feuchte:Taupunkt:
Aussen-T/F 526 03-03-2009 09:05:28 0.9 C 87 % -1.01 C
527 03-03-2009 09:17:27 1.2 C 85 % -1.03 C
528 03-03-2009 09:29:27 1.2 C 84 % -1.2 C
529 03-03-2009 09:41:28 1.3 C 83 % -1.26 C
530 03-03-2009 09:53:27 1.7 C 83 % -0.87 C
531 03-03-2009 10:05:27 2.1 C 82 % -0.64 C
532 03-03-2009 10:17:27 2.6 C 81 % -0.32 C
533 03-03-2009 10:29:27 3.1 C 80 % -0.01 C
534 03-03-2009 10:41:27 3.7 C 77 % 0.05 C
535 03-03-2009 10:53:27 4.3 C 74 % 0.09 C
536 03-03-2009 11:05:26 5 C 68 % -0.4 C
537 03-03-2009 11:17:27 5.3 C 68 % -0.12 C
538 03-03-2009 11:29:27 6.4 C 59 % -1.01 C
539 03-03-2009 11:41:26 6.7 C 58 % -0.97 C
540 03-03-2009 11:53:26 7.2 C 55 % -1.22 C
541 03-03-2009 12:05:26 7.6 C 53 % -1.35 C
542 03-03-2009 12:17:27 8 C 50 % -1.77 C
543 03-03-2009 12:29:27 8.2 C 46 % -2.71 C
544 03-03-2009 12:41:26 8.7 C 45 % -2.55 C
545 03-03-2009 12:53:26 9 C 41 % -3.53 C
546 03-03-2009 13:05:26 9.3 C 39 % -3.92 C
547 03-03-2009 13:17:25 9.6 C 35 % -5.09 C
548 03-03-2009 13:29:25 9.8 C 33 % -5.68 C
549 03-03-2009 13:41:25 10.5 C 31 % -5.89 C
550 03-03-2009 13:53:25 10.8 C 30 % -6.06 C
Sensor: Nr:Datum:Temp:Feuchte:Taupunkt:
Aussen-T/F 551 03-03-2009 14:05:25 11.1 C 28 % -6.69 C
552 03-03-2009 14:17:24 11 C 27 % -7.25 C
553 03-03-2009 14:29:24 10.7 C 26 % -7.99 C
554 03-03-2009 14:41:25 11 C 25 % -8.24 C
555 03-03-2009 14:53:24 11.8 C 24 % -8.08 C
556 03-03-2009 15:05:24 11.3 C 22 % -9.61 C
557 03-03-2009 15:17:24 11 C 26 % -7.74 C
558 03-03-2009 15:29:24 11.5 C 27 % -6.82 C
559 03-03-2009 15:41:24 11.6 C 25 % -7.73 C
560 03-03-2009 15:53:24 11.2 C 23 % -9.13 C
561 03-03-2009 16:05:23 10.6 C 25 % -8.58 C
562 03-03-2009 16:17:24 10.4 C 26 % -8.25 C
563 03-03-2009 16:29:24 10.5 C 26 % -8.16 C
564 03-03-2009 16:41:23 10.6 C 26 % -8.08 C
565 03-03-2009 16:53:23 10.1 C 25 % -9.01 C
566 03-03-2009 17:05:24 9.9 C 28 % -7.73 C
567 03-03-2009 17:17:23 10.2 C 28 % -7.47 C
568 03-03-2009 17:29:23 10.5 C 27 % -7.68 C
569 03-03-2009 17:41:23 10.2 C 26 % -8.42 C
570 03-03-2009 17:53:23 9.7 C 28 % -7.9 C
571 03-03-2009 18:05:23 9.1 C 31 % -7.11 C
572 03-03-2009 18:17:22 8.2 C 35 % -6.33 C
573 03-03-2009 18:29:22 7.5 C 38 % -5.88 C
574 03-03-2009 18:41:23 6.9 C 41 % -5.42 C
575 03-03-2009 18:53:22 6.6 C 43 % -5.07 C
Sensor: Nr:Datum:Temp:Feuchte:Taupunkt:
Aussen-T/F 576 03-03-2009 19:05:22 6.4 C 43 % -5.25 C
577 03-03-2009 19:17:22 6.5 C 45 % -4.56 C
578 03-03-2009 19:29:22 6.8 C 42 % -5.19 C
579 03-03-2009 19:41:22 6.7 C 43 % -4.97 C
580 03-03-2009 19:53:22 6.5 C 44 % -4.85 C
581 03-03-2009 20:05:21 6.4 C 44 % -4.94 C
582 03-03-2009 20:17:22 6.4 C 43 % -5.25 C
583 03-03-2009 20:29:22 6.3 C 42 % -5.65 C
584 03-03-2009 20:41:21 6.1 C 43 % -5.52 C
585 03-03-2009 20:53:21 6.2 C 42 % -5.74 C
586 03-03-2009 21:05:21 6.4 C 41 % -5.87 C
587 03-03-2009 21:17:21 6 C 40 % -6.55 C
588 03-03-2009 21:29:21 5.9 C 41 % -6.32 C
589 03-03-2009 21:41:20 5.8 C 41 % -6.41 C
590 03-03-2009 21:53:21 5.8 C 40 % -6.73 C
591 03-03-2009 22:05:20 5.7 C 44 % -5.58 C
592 03-03-2009 22:17:20 5.8 C 42 % -6.1 C
593 03-03-2009 22:29:20 6 C 41 % -6.23 C
594 03-03-2009 22:41:20 5.9 C 42 % -6.01 C
595 03-03-2009 22:54:21 6 C 41 % -6.23 C
596 03-03-2009 23:06:22 6.2 C 40 % -6.37 C
597 03-03-2009 23:18:22 6.4 C 41 % -5.87 C
598 03-03-2009 23:30:22 6.2 C 42 % -5.74 C
599 03-03-2009 23:42:22 6.4 C 42 % -5.56 C
600 03-03-2009 23:54:22 5.9 C 45 % -5.1 C
Sensor: Nr:Datum:Temp:Feuchte:Taupunkt:
Aussen-T/F 601 04-03-2009 00:06:22 5.5 C 46 % -5.18 C
602 04-03-2009 00:18:22 5 C 48 % -5.08 C
603 04-03-2009 00:30:22 4.5 C 53 % -4.23 C
604 04-03-2009 00:42:22 4.4 C 54 % -4.08 C
605 04-03-2009 00:54:22 4.2 C 56 % -3.78 C
606 04-03-2009 01:06:22 4.3 C 56 % -3.69 C
607 04-03-2009 01:18:22 4.1 C 58 % -3.41 C
608 04-03-2009 01:30:22 3.9 C 60 % -3.14 C
609 04-03-2009 01:42:22 3.7 C 61 % -3.11 C
610 04-03-2009 01:54:22 3.6 C 61 % -3.2 C
611 04-03-2009 02:06:22 3.4 C 62 % -3.17 C
612 04-03-2009 02:18:22 3.3 C 64 % -2.84 C
613 04-03-2009 02:30:22 3.2 C 64 % -2.94 C
614 04-03-2009 02:42:22 3.2 C 65 % -2.73 C
615 04-03-2009 02:54:22 3.1 C 66 % -2.62 C
616 04-03-2009 03:06:23 2.9 C 66 % -2.81 C
617 04-03-2009 03:18:23 2.7 C 67 % -2.8 C
618 04-03-2009 03:30:23 2.7 C 68 % -2.6 C
619 04-03-2009 03:42:23 2.8 C 69 % -2.31 C
620 04-03-2009 03:54:23 2.8 C 69 % -2.31 C
621 04-03-2009 04:06:23 2.8 C 70 % -2.11 C
622 04-03-2009 04:18:23 2.6 C 70 % -2.31 C
623 04-03-2009 04:30:23 2.5 C 70 % -2.4 C
624 04-03-2009 04:42:23 2.5 C 71 % -2.21 C
625 04-03-2009 04:54:23 2.4 C 71 % -2.31 C
Sensor: Nr:Datum:Temp:Feuchte:Taupunkt:
Aussen-T/F 626 04-03-2009 05:06:23 2.5 C 72 % -2.02 C
627 04-03-2009 05:18:23 2.7 C 71 % -2.02 C
628 04-03-2009 05:30:23 3 C 69 % -2.12 C
629 04-03-2009 05:42:23 3.1 C 68 % -2.22 C
630 04-03-2009 05:54:23 3.2 C 67 % -2.32 C
631 04-03-2009 06:06:23 3.4 C 66 % -2.33 C
632 04-03-2009 06:18:23 3.5 C 66 % -2.24 C
633 04-03-2009 06:30:23 3.5 C 65 % -2.44 C
634 04-03-2009 06:42:23 3.4 C 66 % -2.33 C
635 04-03-2009 06:54:23 3.5 C 65 % -2.44 C
636 04-03-2009 07:06:20 3.6 C 65 % -2.35 C
637 04-03-2009 07:18:21 3.7 C 65 % -2.25 C
638 04-03-2009 07:30:21 3.8 C 64 % -2.37 C
639 04-03-2009 07:42:21 3.7 C 65 % -2.25 C
640 04-03-2009 07:54:20 3.8 C 65 % -2.16 C
641 04-03-2009 08:06:21 3.9 C 64 % -2.27 C
642 04-03-2009 08:18:20 4 C 64 % -2.18 C
643 04-03-2009 08:30:20 4.1 C 63 % -2.3 C
644 04-03-2009 08:42:20 4.2 C 63 % -2.2 C
645 04-03-2009 08:54:19 4.2 C 63 % -2.2 C
646 04-03-2009 09:06:20 4.2 C 63 % -2.2 C
647 04-03-2009 09:18:19 4 C 62 % -2.61 C
648 04-03-2009 09:30:20 4.1 C 62 % -2.51 C
649 04-03-2009 09:42:21 4.3 C 61 % -2.54 C
650 04-03-2009 09:54:19 4.9 C 59 % -2.42 C
Sensor: Nr:Datum:Temp:Feuchte:Taupunkt:
Aussen-T/F 651 04-03-2009 10:06:19 5.4 C 56 % -2.66 C
652 04-03-2009 10:18:18 5.9 C 54 % -2.68 C
653 04-03-2009 10:30:19 6.1 C 53 % -2.74 C
654 04-03-2009 10:42:19 6.8 C 50 % -2.88 C
655 04-03-2009 10:54:18 7.5 C 47 % -3.06 C
656 04-03-2009 11:06:18 8 C 44 % -3.49 C
657 04-03-2009 11:18:19 8.3 C 43 % -3.52 C
658 04-03-2009 11:30:18 8.6 C 42 % -3.57 C
659 04-03-2009 11:42:18 8.8 C 42 % -3.39 C
660 04-03-2009 11:54:18 9.1 C 42 % -3.12 C
661 04-03-2009 12:06:18 9.4 C 41 % -3.17 C
662 04-03-2009 12:18:18 9.9 C 40 % -3.05 C
663 04-03-2009 12:30:18 10.3 C 37 % -3.73 C
664 04-03-2009 12:42:18 10.7 C 37 % -3.38 C
665 04-03-2009 12:54:18 11.1 C 36 % -3.39 C
666 04-03-2009 13:06:18 11.8 C 32 % -4.34 C
667 04-03-2009 13:18:17 12.2 C 28 % -5.75 C
668 04-03-2009 13:30:17 12.2 C 30 % -4.84 C
669 04-03-2009 13:42:17 11.5 C 33 % -4.19 C
670 04-03-2009 13:54:17 11.7 C 33 % -4.01 C
671 04-03-2009 14:06:17 12 C 32 % -4.16 C
672 04-03-2009 14:18:16 12.4 C 31 % -4.23 C
673 04-03-2009 14:30:17 12.3 C 30 % -4.75 C
674 04-03-2009 14:42:17 12.7 C 30 % -4.41 C
675 04-03-2009 14:54:16 12.9 C 30 % -4.23 C
Sensor: Nr:Datum:Temp:Feuchte:Taupunkt:
Aussen-T/F 676 04-03-2009 15:06:16 13 C 28 % -5.06 C
677 04-03-2009 15:18:17 13.3 C 28 % -4.8 C
678 04-03-2009 15:30:16 12.9 C 28 % -5.14 C
679 04-03-2009 15:42:16 12.3 C 30 % -4.75 C
680 04-03-2009 15:54:16 11.9 C 32 % -4.25 C
681 04-03-2009 16:06:16 11.9 C 32 % -4.25 C
682 04-03-2009 16:18:16 12.7 C 29 % -4.85 C
683 04-03-2009 16:30:15 12.3 C 31 % -4.32 C
684 04-03-2009 16:42:15 12.2 C 30 % -4.84 C
685 04-03-2009 16:54:15 11.9 C 32 % -4.25 C
686 04-03-2009 17:06:15 11.7 C 31 % -4.84 C
687 04-03-2009 17:18:15 11.6 C 31 % -4.93 C
688 04-03-2009 17:30:15 11.4 C 31 % -5.1 C
689 04-03-2009 17:42:15 11.3 C 31 % -5.19 C
690 04-03-2009 17:54:15 11.1 C 31 % -5.37 C
691 04-03-2009 18:06:15 11 C 32 % -5.04 C
692 04-03-2009 18:18:14 10.8 C 33 % -4.81 C
693 04-03-2009 18:30:14 10.3 C 35 % -4.47 C
694 04-03-2009 18:42:15 9.7 C 39 % -3.57 C
695 04-03-2009 18:54:14 9 C 42 % -3.21 C
696 04-03-2009 19:06:14 8.9 C 43 % -2.98 C
697 04-03-2009 19:18:13 8.7 C 45 % -2.55 C
698 04-03-2009 19:30:14 8.8 C 43 % -3.07 C
699 04-03-2009 19:42:14 8.6 C 45 % -2.64 C
700 04-03-2009 19:54:13 8.9 C 44 % -2.67 C
Sensor: Nr:Datum:Temp:Feuchte:Taupunkt:
Aussen-T/F 701 04-03-2009 20:06:13 8.9 C 45 % -2.37 C
702 04-03-2009 20:18:14 9 C 45 % -2.28 C
703 04-03-2009 20:30:13 9 C 46 % -1.98 C
704 04-03-2009 20:42:13 8.9 C 48 % -1.5 C
705 04-03-2009 20:54:13 8.8 C 49 % -1.31 C
706 04-03-2009 21:06:13 8.6 C 51 % -0.95 C
707 04-03-2009 21:18:13 8.5 C 52 % -0.78 C
708 04-03-2009 21:30:13 8.4 C 52 % -0.87 C
709 04-03-2009 21:42:13 8.4 C 51 % -1.13 C
710 04-03-2009 21:54:13 8.5 C 51 % -1.04 C
711 04-03-2009 22:06:12 8.5 C 50 % -1.31 C
712 04-03-2009 22:19:15 8.6 C 50 % -1.22 C
713 04-03-2009 22:31:15 8.4 C 51 % -1.13 C
714 04-03-2009 22:43:15 8.7 C 48 % -1.68 C
715 04-03-2009 22:55:15 8.7 C 50 % -1.13 C
716 04-03-2009 23:07:15 8.6 C 50 % -1.22 C
717 04-03-2009 23:19:15 8.4 C 51 % -1.13 C
718 04-03-2009 23:31:15 8.3 C 52 % -0.96 C
719 04-03-2009 23:43:15 8.1 C 53 % -0.89 C
720 04-03-2009 23:55:15 8 C 55 % -0.47 C
721 05-03-2009 00:07:15 7.9 C 56 % -0.32 C
722 05-03-2009 00:19:15 7.9 C 57 % -0.08 C
723 05-03-2009 00:31:15 7.8 C 60 % 0.53 C
724 05-03-2009 00:43:15 7.6 C 62 % 0.8 C
725 05-03-2009 00:55:15 7.5 C 64 % 1.14 C
Sensor: Nr:Datum:Temp:Feuchte:Taupunkt:
Aussen-T/F 726 05-03-2009 01:07:15 7.6 C 63 % 1.02 C
727 05-03-2009 01:19:15 7.6 C 62 % 0.8 C
728 05-03-2009 01:31:16 7.6 C 61 % 0.57 C
729 05-03-2009 01:43:16 7.6 C 61 % 0.57 C
730 05-03-2009 01:55:16 7.6 C 61 % 0.57 C
731 05-03-2009 02:07:16 7.6 C 61 % 0.57 C
732 05-03-2009 02:19:16 7.6 C 61 % 0.57 C
733 05-03-2009 02:31:16 7.6 C 61 % 0.57 C
734 05-03-2009 02:43:16 7.6 C 61 % 0.57 C
735 05-03-2009 02:55:16 7.5 C 62 % 0.7 C
736 05-03-2009 03:07:16 7.5 C 61 % 0.48 C
737 05-03-2009 03:19:16 7.6 C 61 % 0.57 C
738 05-03-2009 03:31:16 7.6 C 61 % 0.57 C
739 05-03-2009 03:43:16 7.5 C 61 % 0.48 C
740 05-03-2009 03:55:16 7.4 C 62 % 0.61 C
741 05-03-2009 04:07:16 7.3 C 63 % 0.74 C
742 05-03-2009 04:19:16 7.1 C 65 % 0.98 C
743 05-03-2009 04:31:16 7.1 C 66 % 1.19 C
744 05-03-2009 04:43:16 7 C 66 % 1.09 C
745 05-03-2009 04:55:16 6.7 C 69 % 1.43 C
746 05-03-2009 05:07:16 6.4 C 71 % 1.54 C
747 05-03-2009 05:19:16 6.1 C 73 % 1.63 C
748 05-03-2009 05:31:17 6 C 74 % 1.73 C
749 05-03-2009 05:43:17 5.7 C 77 % 1.99 C
750 05-03-2009 05:55:17 5.5 C 80 % 2.33 C
Sensor: Nr:Datum:Temp:Feuchte:Taupunkt:
Aussen-T/F 751 05-03-2009 06:07:17 5.4 C 81 % 2.41 C
752 05-03-2009 06:19:17 5.2 C 81 % 2.21 C
753 05-03-2009 06:31:17 5.1 C 81 % 2.12 C
754 05-03-2009 06:43:17 5 C 82 % 2.19 C
755 05-03-2009 06:55:17 4.9 C 84 % 2.43 C
756 05-03-2009 07:07:14 4.9 C 85 % 2.6 C
757 05-03-2009 07:19:14 4.8 C 85 % 2.5 C
758 05-03-2009 07:31:14 4.7 C 86 % 2.56 C
759 05-03-2009 07:43:14 4.7 C 86 % 2.56 C
760 05-03-2009 07:55:14 4.6 C 86 % 2.47 C
761 05-03-2009 08:07:13 4.6 C 86 % 2.47 C
762 05-03-2009 08:19:14 4.4 C 86 % 2.27 C
763 05-03-2009 08:31:14 4.2 C 85 % 1.91 C
764 05-03-2009 08:43:14 3.9 C 85 % 1.61 C
765 05-03-2009 08:55:13 3.6 C 85 % 1.32 C
766 05-03-2009 09:07:14 3.4 C 85 % 1.12 C
767 05-03-2009 09:19:13 3.4 C 85 % 1.12 C
768 05-03-2009 09:31:13 3.5 C 86 % 1.38 C
769 05-03-2009 09:43:13 3.2 C 86 % 1.09 C
770 05-03-2009 09:55:13 3.2 C 86 % 1.09 C
771 05-03-2009 10:07:13 3.1 C 86 % 0.99 C
772 05-03-2009 10:19:12 3 C 86 % 0.89 C
773 05-03-2009 10:31:12 3.1 C 86 % 0.99 C
774 05-03-2009 10:43:12 3.1 C 87 % 1.15 C
775 05-03-2009 10:55:12 2.7 C 87 % 0.76 C
Sensor: Nr:Datum:Temp:Feuchte:Taupunkt:
Aussen-T/F 776 05-03-2009 11:07:12 2.7 C 87 % 0.76 C
777 05-03-2009 11:19:12 2.6 C 87 % 0.66 C
778 05-03-2009 11:31:12 2.6 C 87 % 0.66 C
779 05-03-2009 11:43:12 2.5 C 87 % 0.56 C
780 05-03-2009 11:55:12 2.6 C 87 % 0.66 C
781 05-03-2009 12:07:11 2.6 C 88 % 0.82 C
782 05-03-2009 12:19:12 2.8 C 88 % 1.02 C
783 05-03-2009 12:31:11 2.6 C 88 % 0.82 C
784 05-03-2009 12:43:11 2.8 C 88 % 1.02 C
785 05-03-2009 12:55:11 3.1 C 88 % 1.31 C
786 05-03-2009 13:07:11 2.9 C 88 % 1.11 C
787 05-03-2009 13:19:11 2.9 C 88 % 1.11 C
788 05-03-2009 13:31:11 2.9 C 88 % 1.11 C
789 05-03-2009 13:43:11 3 C 87 % 1.05 C
790 05-03-2009 13:55:10 3 C 87 % 1.05 C
791 05-03-2009 14:07:11 3 C 87 % 1.05 C
792 05-03-2009 14:19:10 2.9 C 88 % 1.11 C
793 05-03-2009 14:31:10 3 C 88 % 1.21 C
794 05-03-2009 14:43:10 3 C 88 % 1.21 C
795 05-03-2009 14:55:10 3.1 C 88 % 1.31 C
796 05-03-2009 15:07:10 3 C 88 % 1.21 C
797 05-03-2009 15:19:10 3.1 C 88 % 1.31 C
798 05-03-2009 15:31:09 3 C 88 % 1.21 C
799 05-03-2009 15:43:09 3.1 C 88 % 1.31 C
800 05-03-2009 15:55:09 3.2 C 89 % 1.57 C
Sensor: Nr:Datum:Temp:Feuchte:Taupunkt:
Aussen-T/F 801 05-03-2009 16:07:09 3.3 C 89 % 1.67 C
802 05-03-2009 16:19:10 3.2 C 89 % 1.57 C
803 05-03-2009 16:31:09 3.3 C 89 % 1.67 C
804 05-03-2009 16:43:09 3.4 C 89 % 1.76 C
805 05-03-2009 16:55:09 3.5 C 89 % 1.86 C
806 05-03-2009 17:07:08 3.6 C 89 % 1.96 C
807 05-03-2009 17:19:09 3.6 C 89 % 1.96 C
808 05-03-2009 17:31:09 3.6 C 89 % 1.96 C
809 05-03-2009 17:43:09 3.7 C 89 % 2.06 C
810 05-03-2009 17:55:08 3.7 C 89 % 2.06 C
811 05-03-2009 18:07:08 4 C 87 % 2.04 C
812 05-03-2009 18:19:09 4 C 87 % 2.04 C
813 05-03-2009 18:31:08 4 C 87 % 2.04 C
814 05-03-2009 18:43:08 3.9 C 88 % 2.1 C
815 05-03-2009 18:55:08 4 C 88 % 2.2 C
816 05-03-2009 19:07:08 4 C 88 % 2.2 C
817 05-03-2009 19:19:07 4 C 89 % 2.36 C
818 05-03-2009 19:31:08 4 C 89 % 2.36 C
819 05-03-2009 19:43:08 3.8 C 90 % 2.31 C
820 05-03-2009 19:55:07 3.8 C 90 % 2.31 C
821 05-03-2009 20:07:07 3.7 C 90 % 2.22 C
822 05-03-2009 20:19:07 3.7 C 89 % 2.06 C
823 05-03-2009 20:31:07 3.6 C 89 % 1.96 C
824 05-03-2009 20:43:07 3.6 C 90 % 2.12 C
825 05-03-2009 20:55:06 3.6 C 90 % 2.12 C
Sensor: Nr:Datum:Temp:Feuchte:Taupunkt:
Aussen-T/F 826 05-03-2009 21:07:07 3.5 C 90 % 2.02 C
827 05-03-2009 21:19:06 3.5 C 90 % 2.02 C
828 05-03-2009 21:31:06 3.5 C 90 % 2.02 C
829 05-03-2009 21:43:07 3.4 C 90 % 1.92 C
830 05-03-2009 21:55:06 3.4 C 91 % 2.07 C
831 05-03-2009 22:07:06 3.4 C 91 % 2.07 C
832 05-03-2009 22:19:05 3.4 C 91 % 2.07 C
833 05-03-2009 22:32:06 3.3 C 90 % 1.82 C
834 05-03-2009 22:44:06 3.2 C 90 % 1.72 C
835 05-03-2009 22:56:07 3.1 C 90 % 1.62 C
836 05-03-2009 23:08:07 3 C 90 % 1.52 C
837 05-03-2009 23:20:07 3 C 90 % 1.52 C
838 05-03-2009 23:32:07 2.8 C 90 % 1.33 C
839 05-03-2009 23:44:07 2.8 C 90 % 1.33 C
840 05-03-2009 23:56:07 2.8 C 90 % 1.33 C
841 06-03-2009 00:08:07 2.9 C 91 % 1.58 C
842 06-03-2009 00:20:07 3 C 90 % 1.52 C
843 06-03-2009 00:32:07 3 C 90 % 1.52 C
844 06-03-2009 00:44:07 3 C 90 % 1.52 C
845 06-03-2009 00:56:07 3 C 91 % 1.68 C
846 06-03-2009 01:08:07 3.1 C 91 % 1.78 C
847 06-03-2009 01:20:07 3.1 C 91 % 1.78 C
848 06-03-2009 01:32:07 3.2 C 91 % 1.88 C
849 06-03-2009 01:44:07 3.2 C 91 % 1.88 C
850 06-03-2009 01:56:07 3.2 C 91 % 1.88 C
Sensor: Nr:Datum:Temp:Feuchte:Taupunkt:
Aussen-T/F 851 06-03-2009 02:08:07 3.2 C 91 % 1.88 C
852 06-03-2009 02:20:07 3.3 C 91 % 1.98 C
853 06-03-2009 02:32:07 3.3 C 91 % 1.98 C
854 06-03-2009 02:44:07 3.3 C 91 % 1.98 C
855 06-03-2009 02:56:08 3.4 C 91 % 2.07 C
856 06-03-2009 03:08:08 3.4 C 91 % 2.07 C
857 06-03-2009 03:20:08 3.4 C 91 % 2.07 C
858 06-03-2009 03:32:08 3.4 C 91 % 2.07 C
859 06-03-2009 03:44:08 3.5 C 91 % 2.17 C
860 06-03-2009 03:56:08 3.5 C 91 % 2.17 C
861 06-03-2009 04:08:08 3.5 C 91 % 2.17 C
862 06-03-2009 04:20:08 3.4 C 91 % 2.07 C
863 06-03-2009 04:32:08 3.4 C 91 % 2.07 C
864 06-03-2009 04:44:08 3.3 C 90 % 1.82 C
865 06-03-2009 04:56:08 3.3 C 90 % 1.82 C
866 06-03-2009 05:08:08 3.3 C 90 % 1.82 C
867 06-03-2009 05:20:08 3.3 C 91 % 1.98 C
868 06-03-2009 05:32:08 3.3 C 91 % 1.98 C
869 06-03-2009 05:44:08 3.3 C 91 % 1.98 C
870 06-03-2009 05:56:08 3.4 C 92 % 2.23 C
871 06-03-2009 06:08:08 3.5 C 92 % 2.33 C
872 06-03-2009 06:20:08 3.6 C 92 % 2.42 C
873 06-03-2009 06:32:08 3.5 C 92 % 2.33 C
874 06-03-2009 06:44:08 3.6 C 92 % 2.42 C
875 06-03-2009 06:56:08 3.6 C 92 % 2.42 C
Sensor: Nr:Datum:Temp:Feuchte:Taupunkt:
Aussen-T/F 876 06-03-2009 07:08:06 3.5 C 92 % 2.33 C
877 06-03-2009 07:20:06 3.5 C 92 % 2.33 C
878 06-03-2009 07:32:06 3.3 C 91 % 1.98 C
879 06-03-2009 07:44:06 3.3 C 92 % 2.13 C
880 06-03-2009 07:56:06 3.3 C 92 % 2.13 C
881 06-03-2009 08:08:05 3.3 C 91 % 1.98 C
882 06-03-2009 08:20:05 3.3 C 91 % 1.98 C
883 06-03-2009 08:32:05 3.3 C 91 % 1.98 C
884 06-03-2009 08:44:05 3.2 C 90 % 1.72 C
885 06-03-2009 08:56:05 3.3 C 90 % 1.82 C
886 06-03-2009 09:08:05 3.3 C 90 % 1.82 C
887 06-03-2009 09:20:05 3.4 C 90 % 1.92 C
888 06-03-2009 09:32:05 3.4 C 89 % 1.76 C
889 06-03-2009 09:44:05 3.5 C 89 % 1.86 C
890 06-03-2009 09:56:05 3.6 C 89 % 1.96 C
891 06-03-2009 10:08:05 3.6 C 89 % 1.96 C
892 06-03-2009 10:20:04 3.7 C 88 % 1.9 C
893 06-03-2009 10:32:04 3.9 C 88 % 2.1 C
894 06-03-2009 10:44:04 3.8 C 88 % 2 C
895 06-03-2009 10:56:04 3.8 C 88 % 2 C
896 06-03-2009 11:08:04 3.9 C 89 % 2.26 C
897 06-03-2009 11:20:03 4 C 88 % 2.2 C
898 06-03-2009 11:32:04 4.1 C 88 % 2.3 C
899 06-03-2009 11:44:03 4.1 C 88 % 2.3 C
900 06-03-2009 11:56:03 4.2 C 88 % 2.39 C
Sensor: Nr:Datum:Temp:Feuchte:Taupunkt:
Aussen-T/F 901 06-03-2009 12:08:03 4.2 C 87 % 2.23 C
902 06-03-2009 12:20:04 4.3 C 88 % 2.49 C
903 06-03-2009 12:32:03 4.3 C 88 % 2.49 C
904 06-03-2009 12:44:03 4.4 C 87 % 2.43 C
905 06-03-2009 12:56:03 4.4 C 87 % 2.43 C
906 06-03-2009 13:08:03 4.5 C 86 % 2.37 C
907 06-03-2009 13:20:03 4.6 C 85 % 2.3 C
908 06-03-2009 13:32:02 5 C 82 % 2.19 C
909 06-03-2009 13:44:02 5 C 82 % 2.19 C
910 06-03-2009 13:56:03 4.8 C 83 % 2.16 C
911 06-03-2009 14:08:02 4.7 C 84 % 2.23 C
912 06-03-2009 14:20:02 4.7 C 84 % 2.23 C
913 06-03-2009 14:32:02 4.8 C 83 % 2.16 C
914 06-03-2009 14:44:02 4.9 C 82 % 2.09 C
915 06-03-2009 14:56:02 4.9 C 83 % 2.26 C
916 06-03-2009 15:08:02 4.8 C 82 % 1.99 C
917 06-03-2009 15:20:01 4.8 C 82 % 1.99 C
918 06-03-2009 15:32:01 4.9 C 82 % 2.09 C
919 06-03-2009 15:44:01 4.9 C 82 % 2.09 C
920 06-03-2009 15:56:01 4.7 C 82 % 1.9 C
921 06-03-2009 16:08:01 4.7 C 82 % 1.9 C
922 06-03-2009 16:20:00 4.6 C 82 % 1.8 C
923 06-03-2009 16:32:01 4.6 C 82 % 1.8 C
924 06-03-2009 16:44:00 4.5 C 83 % 1.87 C
925 06-03-2009 16:56:00 4.4 C 84 % 1.94 C
Sensor: Nr:Datum:Temp:Feuchte:Taupunkt:
Aussen-T/F 926 06-03-2009 17:08:00 4.4 C 84 % 1.94 C
927 06-03-2009 17:20:01 4.3 C 84 % 1.84 C
928 06-03-2009 17:32:00 4.2 C 83 % 1.58 C
929 06-03-2009 17:44:00 4.2 C 83 % 1.58 C
930 06-03-2009 17:56:00 4.2 C 84 % 1.74 C
931 06-03-2009 18:08:00 4.2 C 83 % 1.58 C
932 06-03-2009 18:20:00 4.1 C 82 % 1.31 C
933 06-03-2009 18:32:00 4 C 83 % 1.38 C
934 06-03-2009 18:44:00 4 C 84 % 1.55 C
935 06-03-2009 18:56:00 3.9 C 85 % 1.61 C
936 06-03-2009 19:08:00 3.9 C 84 % 1.45 C
937 06-03-2009 19:20:59 4 C 82 % 1.21 C
938 06-03-2009 19:32:59 4 C 82 % 1.21 C
939 06-03-2009 19:44:59 4 C 83 % 1.38 C
940 06-03-2009 19:56:59 3.9 C 84 % 1.45 C
941 06-03-2009 20:08:59 3.8 C 84 % 1.35 C
942 06-03-2009 20:20:58 3.8 C 84 % 1.35 C
943 06-03-2009 20:32:59 3.8 C 83 % 1.19 C
944 06-03-2009 20:44:58 4 C 80 % 0.87 C
945 06-03-2009 20:56:58 3.9 C 81 % 0.95 C
946 06-03-2009 21:08:59 3.8 C 80 % 0.68 C
947 06-03-2009 21:20:58 3.7 C 78 % 0.23 C
948 06-03-2009 21:32:58 3.7 C 76 % -0.13 C
949 06-03-2009 21:44:58 3.8 C 72 % -0.77 C
950 06-03-2009 21:56:58 3.8 C 70 % -1.16 C
Sensor: Nr:Datum:Temp:Feuchte:Taupunkt:
Aussen-T/F 951 06-03-2009 22:08:58 3.8 C 68 % -1.55 C
952 06-03-2009 22:21:57 3.7 C 68 % -1.64 C
953 06-03-2009 22:33:57 3.8 C 67 % -1.75 C
954 06-03-2009 22:45:57 3.8 C 68 % -1.55 C
955 06-03-2009 22:57:57 3.8 C 67 % -1.75 C
956 06-03-2009 23:09:57 3.8 C 66 % -1.95 C
957 06-03-2009 23:21:57 3.7 C 66 % -2.05 C
958 06-03-2009 23:33:57 3.8 C 65 % -2.16 C
959 06-03-2009 23:45:57 3.8 C 65 % -2.16 C
960 06-03-2009 23:57:57 3.8 C 64 % -2.37 C
961 07-03-2009 00:09:58 3.7 C 64 % -2.46 C
962 07-03-2009 00:21:58 3.8 C 62 % -2.8 C
963 07-03-2009 00:33:58 3.8 C 61 % -3.01 C
964 07-03-2009 00:45:58 3.8 C 60 % -3.23 C
965 07-03-2009 00:57:58 3.7 C 61 % -3.11 C
966 07-03-2009 01:09:58 3.6 C 63 % -2.77 C
967 07-03-2009 01:21:58 3.6 C 62 % -2.98 C
968 07-03-2009 01:33:58 3.6 C 62 % -2.98 C
969 07-03-2009 01:45:58 3.5 C 62 % -3.08 C
970 07-03-2009 01:57:58 3.4 C 63 % -2.96 C
971 07-03-2009 02:09:58 3.4 C 63 % -2.96 C
972 07-03-2009 02:21:58 3.4 C 63 % -2.96 C
973 07-03-2009 02:33:58 3.3 C 63 % -3.05 C
974 07-03-2009 02:45:58 3.3 C 64 % -2.84 C
975 07-03-2009 02:57:58 3.2 C 64 % -2.94 C
Sensor: Nr:Datum:Temp:Feuchte:Taupunkt:
Aussen-T/F 976 07-03-2009 03:09:58 3.1 C 65 % -2.83 C
977 07-03-2009 03:21:58 3.2 C 64 % -2.94 C
978 07-03-2009 03:33:58 3.2 C 64 % -2.94 C
979 07-03-2009 03:45:58 3.2 C 64 % -2.94 C
980 07-03-2009 03:57:58 3.2 C 64 % -2.94 C
981 07-03-2009 04:09:59 3.2 C 64 % -2.94 C
982 07-03-2009 04:21:59 3.2 C 64 % -2.94 C
983 07-03-2009 04:33:59 3.1 C 64 % -3.03 C
984 07-03-2009 04:45:59 3.1 C 64 % -3.03 C
985 07-03-2009 04:57:59 3.2 C 63 % -3.15 C
986 07-03-2009 05:09:59 3.2 C 63 % -3.15 C
987 07-03-2009 05:21:59 3.2 C 62 % -3.36 C
988 07-03-2009 05:33:59 3.1 C 63 % -3.24 C
989 07-03-2009 05:45:59 3 C 63 % -3.34 C
990 07-03-2009 05:57:59 3 C 62 % -3.55 C
991 07-03-2009 06:09:59 3 C 61 % -3.77 C
992 07-03-2009 06:21:58 3 C 60 % -3.99 C
993 07-03-2009 06:33:57 3 C 61 % -3.77 C
994 07-03-2009 06:45:57 3 C 61 % -3.77 C
995 07-03-2009 06:57:57 3 C 61 % -3.77 C
996 07-03-2009 07:09:57 2.9 C 62 % -3.65 C
997 07-03-2009 07:21:57 2.9 C 63 % -3.43 C
998 07-03-2009 07:33:57 2.7 C 64 % -3.41 C
999 07-03-2009 07:45:57 2.6 C 65 % -3.3 C
1000 07-03-2009 07:57:57 2.7 C 65 % -3.21 C
Sensor: Nr:Datum:Temp:Feuchte:Taupunkt:
Aussen-T/F 1001 07-03-2009 08:09:57 2.7 C 64 % -3.41 C
1002 07-03-2009 08:21:56 2.7 C 64 % -3.41 C
1003 07-03-2009 08:33:56 2.6 C 63 % -3.72 C
1004 07-03-2009 08:45:56 2.6 C 63 % -3.72 C
1005 07-03-2009 08:57:56 2.7 C 63 % -3.62 C
1006 07-03-2009 09:09:56 2.7 C 63 % -3.62 C
1007 07-03-2009 09:21:56 3 C 62 % -3.55 C
1008 07-03-2009 09:33:56 3.3 C 61 % -3.49 C
1009 07-03-2009 09:45:56 3.2 C 60 % -3.8 C
1010 07-03-2009 09:57:56 3.1 C 62 % -3.46 C
1011 07-03-2009 10:09:56 3.2 C 63 % -3.15 C
1012 07-03-2009 10:21:55 3.5 C 63 % -2.86 C
1013 07-03-2009 10:33:55 3.9 C 61 % -2.92 C
1014 07-03-2009 10:45:55 4.5 C 60 % -2.57 C
1015 07-03-2009 10:57:55 5 C 57 % -2.79 C
1016 07-03-2009 11:09:55 5.1 C 58 % -2.47 C
1017 07-03-2009 11:21:54 5.9 C 55 % -2.43 C
1018 07-03-2009 11:33:55 6.6 C 51 % -2.8 C
1019 07-03-2009 11:45:54 7.2 C 48 % -3.06 C
1020 07-03-2009 11:57:54 7.4 C 49 % -2.6 C
1021 07-03-2009 12:09:54 7.5 C 47 % -3.06 C
1022 07-03-2009 12:21:55 7.6 C 45 % -3.55 C
1023 07-03-2009 12:33:54 7.8 C 44 % -3.67 C
1024 07-03-2009 12:45:54 8.2 C 41 % -4.25 C
1025 07-03-2009 12:57:54 7.9 C 41 % -4.52 C
Sensor: Nr:Datum:Temp:Feuchte:Taupunkt:
Aussen-T/F 1026 07-03-2009 13:09:54 8.5 C 38 % -4.98 C
1027 07-03-2009 13:21:54 8.4 C 38 % -5.07 C
1028 07-03-2009 13:33:54 9 C 37 % -4.89 C
1029 07-03-2009 13:45:53 8.5 C 36 % -5.69 C
1030 07-03-2009 13:57:53 9.4 C 36 % -4.89 C
1031 07-03-2009 14:09:54 10 C 32 % -5.91 C
1032 07-03-2009 14:21:53 10.8 C 31 % -5.63 C
1033 07-03-2009 14:33:53 11.3 C 29 % -6.06 C
1034 07-03-2009 14:45:53 11.4 C 27 % -6.91 C
1035 07-03-2009 14:57:53 11.3 C 28 % -6.52 C
1036 07-03-2009 15:09:53 11.8 C 26 % -7.05 C
1037 07-03-2009 15:21:52 11.9 C 25 % -7.47 C
1038 07-03-2009 15:33:52 11 C 32 % -5.04 C
1039 07-03-2009 15:45:52 10.8 C 34 % -4.41 C
1040 07-03-2009 15:57:52 11 C 30 % -5.88 C
1041 07-03-2009 16:09:52 10.7 C 28 % -7.04 C
1042 07-03-2009 16:21:52 10.2 C 30 % -6.58 C
1043 07-03-2009 16:33:52 10.4 C 30 % -6.4 C
1044 07-03-2009 16:45:52 10.6 C 28 % -7.12 C
1045 07-03-2009 16:57:52 10.4 C 27 % -7.77 C
1046 07-03-2009 17:09:51 9.6 C 39 % -3.65 C
1047 07-03-2009 17:21:52 9.2 C 42 % -3.02 C
1048 07-03-2009 17:33:51 8.7 C 45 % -2.55 C
1049 07-03-2009 17:45:51 8.4 C 47 % -2.24 C
1050 07-03-2009 17:57:51 8 C 49 % -2.05 C
Sensor: Nr:Datum:Temp:Feuchte:Taupunkt:
Aussen-T/F 1051 07-03-2009 18:09:51 7.8 C 50 % -1.96 C
1052 07-03-2009 18:21:51 7.5 C 52 % -1.7 C
1053 07-03-2009 18:33:51 7.2 C 53 % -1.72 C
1054 07-03-2009 18:45:50 6.8 C 55 % -1.59 C
1055 07-03-2009 18:57:50 6.4 C 56 % -1.72 C
1056 07-03-2009 19:09:51 6.2 C 58 % -1.43 C
1057 07-03-2009 19:21:50 5.8 C 60 % -1.35 C
1058 07-03-2009 19:33:50 5.6 C 61 % -1.31 C
1059 07-03-2009 19:45:50 5.3 C 61 % -1.6 C
1060 07-03-2009 19:57:50 5.3 C 62 % -1.38 C
1061 07-03-2009 20:09:50 5.2 C 62 % -1.47 C
1062 07-03-2009 20:21:49 5.6 C 62 % -1.09 C
1063 07-03-2009 20:33:50 6 C 59 % -1.39 C
1064 07-03-2009 20:45:50 6 C 58 % -1.62 C
1065 07-03-2009 20:57:50 5.9 C 59 % -1.48 C
1066 07-03-2009 21:09:50 5.9 C 59 % -1.48 C
1067 07-03-2009 21:21:49 5.9 C 59 % -1.48 C
1068 07-03-2009 21:33:49 6 C 57 % -1.86 C
1069 07-03-2009 21:45:49 6.1 C 56 % -2 C
1070 07-03-2009 21:57:49 6.2 C 55 % -2.15 C
1071 07-03-2009 22:09:49 6.4 C 55 % -1.97 C
1072 07-03-2009 22:21:48 6.2 C 55 % -2.15 C
1073 07-03-2009 22:33:49 6.4 C 55 % -1.97 C
1074 07-03-2009 22:46:50 6.4 C 56 % -1.72 C
1075 07-03-2009 22:58:50 6.2 C 57 % -1.67 C
Sensor: Nr:Datum:Temp:Feuchte:Taupunkt:
Aussen-T/F 1076 07-03-2009 23:10:50 6.3 C 57 % -1.58 C
1077 07-03-2009 23:22:50 6.3 C 58 % -1.34 C
1078 07-03-2009 23:34:50 6.5 C 55 % -1.87 C
1079 07-03-2009 23:46:50 6.5 C 56 % -1.63 C
1080 07-03-2009 23:58:50 6.4 C 57 % -1.48 C
1081 08-03-2009 00:10:50 6.3 C 57 % -1.58 C
1082 08-03-2009 00:22:50 6.4 C 57 % -1.48 C
1083 08-03-2009 00:34:50 6.3 C 57 % -1.58 C
1084 08-03-2009 00:46:50 6.3 C 58 % -1.34 C
1085 08-03-2009 00:58:51 6.1 C 59 % -1.3 C
1086 08-03-2009 01:10:51 5.9 C 61 % -1.03 C
1087 08-03-2009 01:22:51 6.1 C 60 % -1.07 C
1088 08-03-2009 01:34:51 6.3 C 60 % -0.88 C
1089 08-03-2009 01:46:51 6.3 C 60 % -0.88 C
1090 08-03-2009 01:58:51 6.5 C 58 % -1.15 C
1091 08-03-2009 02:10:51 6.4 C 59 % -1.01 C
1092 08-03-2009 02:22:51 6.4 C 59 % -1.01 C
1093 08-03-2009 02:34:51 6.4 C 59 % -1.01 C
1094 08-03-2009 02:46:51 6.5 C 61 % -0.46 C
1095 08-03-2009 02:58:51 6.7 C 61 % -0.28 C
1096 08-03-2009 03:10:51 6.6 C 61 % -0.37 C
1097 08-03-2009 03:22:51 6.6 C 62 % -0.15 C
1098 08-03-2009 03:34:51 6.7 C 62 % -0.05 C
1099 08-03-2009 03:46:51 6.9 C 62 % 0.14 C
1100 08-03-2009 03:58:51 7 C 60 % -0.22 C
Sensor: Nr:Datum:Temp:Feuchte:Taupunkt:
Aussen-T/F 1101 08-03-2009 04:10:51 7.1 C 61 % 0.1 C
1102 08-03-2009 04:22:51 7.1 C 61 % 0.1 C
1103 08-03-2009 04:34:51 7.1 C 61 % 0.1 C
1104 08-03-2009 04:46:52 7.2 C 61 % 0.2 C
1105 08-03-2009 04:58:52 7.2 C 61 % 0.2 C
1106 08-03-2009 05:10:52 7.2 C 60 % -0.03 C
1107 08-03-2009 05:22:52 7.3 C 60 % 0.06 C
1108 08-03-2009 05:34:52 7.2 C 60 % -0.03 C
1109 08-03-2009 05:46:52 7.3 C 60 % 0.06 C
1110 08-03-2009 05:58:52 7.3 C 60 % 0.06 C
1111 08-03-2009 06:10:52 7.2 C 61 % 0.2 C
1112 08-03-2009 06:22:52 7.2 C 60 % -0.03 C
1113 08-03-2009 06:34:52 7.3 C 61 % 0.29 C
1114 08-03-2009 06:46:52 7.3 C 61 % 0.29 C
1115 08-03-2009 06:58:52 7.3 C 62 % 0.51 C
1116 08-03-2009 07:10:52 7.3 C 62 % 0.51 C
1117 08-03-2009 07:22:52 7.3 C 63 % 0.74 C
1118 08-03-2009 07:34:52 7.3 C 63 % 0.74 C
1119 08-03-2009 07:46:49 7.3 C 64 % 0.95 C
1120 08-03-2009 07:58:49 7.4 C 65 % 1.26 C
1121 08-03-2009 08:10:50 7.5 C 65 % 1.36 C
1122 08-03-2009 08:22:50 7.8 C 65 % 1.64 C
1123 08-03-2009 08:34:49 8 C 63 % 1.4 C
1124 08-03-2009 08:46:49 8.1 C 62 % 1.27 C
1125 08-03-2009 08:58:49 8 C 63 % 1.4 C
Sensor: Nr:Datum:Temp:Feuchte:Taupunkt:
Aussen-T/F 1126 08-03-2009 09:10:49 8 C 63 % 1.4 C
1127 08-03-2009 09:22:49 8.2 C 63 % 1.59 C
1128 08-03-2009 09:34:48 8.2 C 63 % 1.59 C
1129 08-03-2009 09:46:49 8.2 C 63 % 1.59 C
1130 08-03-2009 09:58:49 8.2 C 63 % 1.59 C
1131 08-03-2009 10:10:48 8.3 C 63 % 1.68 C
1132 08-03-2009 10:22:48 8.3 C 63 % 1.68 C
1133 08-03-2009 10:34:48 8.3 C 64 % 1.9 C
1134 08-03-2009 10:46:48 8.5 C 64 % 2.09 C
1135 08-03-2009 10:58:48 8.5 C 65 % 2.31 C
1136 08-03-2009 11:10:47 8.5 C 66 % 2.52 C
1137 08-03-2009 11:22:48 8.5 C 66 % 2.52 C
1138 08-03-2009 11:34:48 8.7 C 66 % 2.71 C
1139 08-03-2009 11:46:47 8.6 C 66 % 2.62 C
1140 08-03-2009 11:58:47 8.6 C 67 % 2.83 C
1141 08-03-2009 12:10:48 8.8 C 67 % 3.02 C
1142 08-03-2009 12:22:47 9.1 C 64 % 2.66 C
1143 08-03-2009 12:34:47 9.3 C 63 % 2.63 C
1144 08-03-2009 12:46:46 9.3 C 62 % 2.4 C
1145 08-03-2009 12:58:46 9.1 C 65 % 2.88 C
1146 08-03-2009 13:10:47 8.9 C 70 % 3.74 C
1147 08-03-2009 13:22:46 8.7 C 73 % 4.14 C
1148 08-03-2009 13:34:46 8.9 C 74 % 4.53 C
1149 08-03-2009 13:46:47 9.6 C 69 % 4.2 C
1150 08-03-2009 13:58:47 10.2 C 64 % 3.7 C
Sensor: Nr:Datum:Temp:Feuchte:Taupunkt:
Aussen-T/F 1151 08-03-2009 14:10:46 10.2 C 63 % 3.48 C
1152 08-03-2009 14:22:46 10.1 C 63 % 3.39 C
1153 08-03-2009 14:34:46 10.4 C 62 % 3.44 C
1154 08-03-2009 14:46:46 10.5 C 61 % 3.31 C
1155 08-03-2009 14:58:46 10.3 C 62 % 3.35 C
1156 08-03-2009 15:10:45 10.2 C 62 % 3.25 C
1157 08-03-2009 15:22:46 9.9 C 66 % 3.86 C
1158 08-03-2009 15:34:45 9.7 C 69 % 4.3 C
1159 08-03-2009 15:46:45 10.1 C 66 % 4.05 C
1160 08-03-2009 15:58:45 9.8 C 68 % 4.18 C
1161 08-03-2009 16:10:45 9.3 C 73 % 4.72 C
1162 08-03-2009 16:22:45 9 C 78 % 5.38 C
1163 08-03-2009 16:34:45 8.7 C 82 % 5.8 C
1164 08-03-2009 16:46:44 8.5 C 81 % 5.43 C
1165 08-03-2009 16:58:44 8.5 C 81 % 5.43 C
1166 08-03-2009 17:10:45 8.5 C 80 % 5.25 C
1167 08-03-2009 17:22:44 8.4 C 81 % 5.33 C
1168 08-03-2009 17:34:45 8.3 C 82 % 5.41 C
1169 08-03-2009 17:46:44 8.4 C 83 % 5.69 C
1170 08-03-2009 17:58:44 8.3 C 84 % 5.76 C
1171 08-03-2009 18:10:44 8.2 C 84 % 5.66 C
1172 08-03-2009 18:22:44 8.1 C 84 % 5.56 C
1173 08-03-2009 18:34:44 8.1 C 85 % 5.73 C
1174 08-03-2009 18:46:43 8.2 C 77 % 4.42 C
1175 08-03-2009 18:58:43 8.1 C 75 % 3.94 C
Sensor: Nr:Datum:Temp:Feuchte:Taupunkt:
Aussen-T/F 1176 08-03-2009 19:10:44 8.1 C 76 % 4.13 C
1177 08-03-2009 19:22:43 7.7 C 77 % 3.93 C
1178 08-03-2009 19:34:43 7.1 C 79 % 3.71 C
1179 08-03-2009 19:46:43 6.9 C 82 % 4.05 C
1180 08-03-2009 19:58:43 7 C 83 % 4.32 C
1181 08-03-2009 20:10:43 6.9 C 84 % 4.39 C
1182 08-03-2009 20:22:43 6.9 C 85 % 4.56 C
1183 08-03-2009 20:34:42 6.6 C 84 % 4.1 C
1184 08-03-2009 20:46:43 6.2 C 83 % 3.53 C
1185 08-03-2009 20:58:43 5.8 C 84 % 3.31 C
1186 08-03-2009 21:10:43 5.4 C 84 % 2.92 C
1187 08-03-2009 21:22:42 5.2 C 84 % 2.72 C
1188 08-03-2009 21:34:42 5.1 C 84 % 2.63 C
1189 08-03-2009 21:46:42 5.1 C 84 % 2.63 C
1190 08-03-2009 21:58:42 5 C 84 % 2.53 C
1191 08-03-2009 22:10:42 4.8 C 84 % 2.33 C
1192 08-03-2009 22:22:41 4.7 C 84 % 2.23 C
1193 08-03-2009 22:34:41 4.6 C 84 % 2.14 C
1194 08-03-2009 22:46:41 4.8 C 82 % 1.99 C
1195 08-03-2009 22:58:41 5.3 C 71 % 0.48 C
1196 08-03-2009 23:10:41 5.3 C 68 % -0.12 C
1197 08-03-2009 23:23:43 4.7 C 72 % 0.09 C
1198 08-03-2009 23:35:43 4.6 C 73 % 0.19 C
1199 08-03-2009 23:47:43 4.5 C 73 % 0.09 C
1200 08-03-2009 23:59:43 4.4 C 73 % 0 C
Sensor: Nr:Datum:Temp:Feuchte:Taupunkt:
Aussen-T/F 1201 09-03-2009 00:11:43 4.4 C 74 % 0.18 C
1202 09-03-2009 00:23:43 4.8 C 74 % 0.57 C
1203 09-03-2009 00:35:43 5.1 C 70 % 0.09 C
1204 09-03-2009 00:47:43 5 C 69 % -0.2 C
1205 09-03-2009 00:59:43 5 C 69 % -0.2 C
1206 09-03-2009 01:11:43 4.7 C 71 % -0.1 C
1207 09-03-2009 01:23:43 4.7 C 63 % -1.73 C
1208 09-03-2009 01:35:43 4.7 C 67 % -0.89 C
1209 09-03-2009 01:47:43 4.7 C 67 % -0.89 C
1210 09-03-2009 01:59:44 4.7 C 61 % -2.16 C
1211 09-03-2009 02:11:44 4.7 C 56 % -3.31 C
1212 09-03-2009 02:23:44 4.7 C 55 % -3.55 C
1213 09-03-2009 02:35:44 4.3 C 56 % -3.69 C
1214 09-03-2009 02:47:44 3.9 C 60 % -3.14 C
1215 09-03-2009 02:59:44 3.7 C 60 % -3.33 C
1216 09-03-2009 03:11:44 3.6 C 60 % -3.42 C
1217 09-03-2009 03:23:44 3.5 C 61 % -3.3 C
1218 09-03-2009 03:35:44 3.3 C 62 % -3.27 C
1219 09-03-2009 03:47:44 3.3 C 65 % -2.64 C
1220 09-03-2009 03:59:44 3.4 C 66 % -2.33 C
1221 09-03-2009 04:11:44 3.4 C 67 % -2.13 C
1222 09-03-2009 04:23:44 3.6 C 67 % -1.94 C
1223 09-03-2009 04:35:44 3.7 C 69 % -1.45 C
1224 09-03-2009 04:47:44 3.3 C 74 % -0.88 C
1225 09-03-2009 04:59:44 3.2 C 77 % -0.43 C
Sensor: Nr:Datum:Temp:Feuchte:Taupunkt:
Aussen-T/F 1226 09-03-2009 05:11:44 3.1 C 78 % -0.35 C
1227 09-03-2009 05:23:44 3.1 C 79 % -0.18 C
1228 09-03-2009 05:35:44 3 C 78 % -0.45 C
1229 09-03-2009 05:47:45 3.2 C 77 % -0.43 C
1230 09-03-2009 05:59:45 3.3 C 76 % -0.52 C
1231 09-03-2009 06:11:45 3.1 C 78 % -0.35 C
1232 09-03-2009 06:23:45 2.5 C 81 % -0.42 C
1233 09-03-2009 06:35:45 2.3 C 83 % -0.28 C
1234 09-03-2009 06:47:45 2.1 C 84 % -0.31 C
1235 09-03-2009 06:59:42 2.2 C 85 % -0.05 C
1236 09-03-2009 07:11:42 2.2 C 84 % -0.22 C
1237 09-03-2009 07:23:42 2.1 C 79 % -1.15 C
1238 09-03-2009 07:35:41 2.1 C 75 % -1.86 C
1239 09-03-2009 07:47:42 2 C 71 % -2.69 C
1240 09-03-2009 07:59:41 2.1 C 70 % -2.79 C
1241 09-03-2009 08:11:41 2.2 C 69 % -2.88 C
1242 09-03-2009 08:23:41 2.6 C 66 % -3.1 C
1243 09-03-2009 08:35:42 2.5 C 68 % -2.79 C
1244 09-03-2009 08:47:41 3 C 66 % -2.72 C
1245 09-03-2009 08:59:41 3.4 C 65 % -2.54 C
1246 09-03-2009 09:11:41 3.5 C 65 % -2.44 C
1247 09-03-2009 09:23:40 3.3 C 66 % -2.43 C
1248 09-03-2009 09:35:41 3.7 C 66 % -2.05 C
1249 09-03-2009 09:47:40 4.2 C 62 % -2.42 C
1250 09-03-2009 09:59:40 4.5 C 61 % -2.35 C
Sensor: Nr:Datum:Temp:Feuchte:Taupunkt:
Aussen-T/F 1251 09-03-2009 10:11:41 4.7 C 62 % -1.94 C
1252 09-03-2009 10:23:40 5.1 C 58 % -2.47 C
1253 09-03-2009 10:35:40 5.3 C 58 % -2.28 C
1254 09-03-2009 10:47:39 5.6 C 57 % -2.23 C
1255 09-03-2009 10:59:40 5.6 C 56 % -2.47 C
1256 09-03-2009 11:11:40 6 C 54 % -2.59 C
1257 09-03-2009 11:23:40 5.8 C 55 % -2.53 C
1258 09-03-2009 11:35:39 6.4 C 53 % -2.47 C
1259 09-03-2009 11:47:40 6.1 C 52 % -3 C
1260 09-03-2009 11:59:39 6.5 C 53 % -2.37 C
1261 09-03-2009 12:11:39 7.2 C 50 % -2.51 C
1262 09-03-2009 12:23:39 7 C 46 % -3.81 C
1263 09-03-2009 12:35:38 7 C 47 % -3.52 C
1264 09-03-2009 12:47:39 7.2 C 47 % -3.34 C
1265 09-03-2009 12:59:39 7.7 C 43 % -4.07 C
1266 09-03-2009 13:11:39 7.7 C 43 % -4.07 C
1267 09-03-2009 13:23:38 7.4 C 43 % -4.34 C
1268 09-03-2009 13:35:39 7.5 C 44 % -3.94 C
1269 09-03-2009 13:47:38 7.7 C 40 % -5.02 C
1270 09-03-2009 13:59:38 8 C 39 % -5.09 C
1271 09-03-2009 14:11:38 7.7 C 40 % -5.02 C
1272 09-03-2009 14:23:38 8.2 C 40 % -4.57 C
1273 09-03-2009 14:35:38 8.4 C 41 % -4.07 C
1274 09-03-2009 14:47:37 8.3 C 41 % -4.16 C
1275 09-03-2009 14:59:38 7.2 C 47 % -3.34 C
Sensor: Nr:Datum:Temp:Feuchte:Taupunkt:
Aussen-T/F 1276 09-03-2009 15:11:38 6.3 C 54 % -2.31 C
1277 09-03-2009 15:23:37 6.9 C 54 % -1.75 C
1278 09-03-2009 15:35:37 8.1 C 46 % -2.8 C
1279 09-03-2009 15:47:38 8.7 C 42 % -3.48 C
1280 09-03-2009 15:59:37 8.6 C 41 % -3.89 C
1281 09-03-2009 16:11:37 9.5 C 39 % -3.74 C
1282 09-03-2009 16:23:37 8.7 C 41 % -3.8 C
1283 09-03-2009 16:35:36 8.7 C 43 % -3.16 C
1284 09-03-2009 16:47:37 8.8 C 43 % -3.07 C
1285 09-03-2009 16:59:36 9.1 C 38 % -4.45 C
1286 09-03-2009 17:11:36 8.3 C 40 % -4.48 C
1287 09-03-2009 17:23:36 8 C 42 % -4.11 C
1288 09-03-2009 17:35:37 7.9 C 44 % -3.58 C
1289 09-03-2009 17:47:36 7.5 C 46 % -3.35 C
1290 09-03-2009 17:59:36 7.4 C 46 % -3.44 C
1291 09-03-2009 18:11:36 7.4 C 47 % -3.16 C
1292 09-03-2009 18:23:36 7.3 C 47 % -3.25 C
1293 09-03-2009 18:35:36 7 C 50 % -2.69 C
1294 09-03-2009 18:47:35 6.7 C 54 % -1.94 C
1295 09-03-2009 18:59:35 6.4 C 56 % -1.72 C
1296 09-03-2009 19:11:35 6.4 C 55 % -1.97 C
1297 09-03-2009 19:23:35 6.2 C 52 % -2.91 C
1298 09-03-2009 19:35:35 6 C 53 % -2.84 C
1299 09-03-2009 19:47:34 5.8 C 56 % -2.28 C
1300 09-03-2009 19:59:35 5.8 C 57 % -2.04 C
Sensor: Nr:Datum:Temp:Feuchte:Taupunkt:
Aussen-T/F 1301 09-03-2009 20:11:35 5.8 C 59 % -1.58 C
1302 09-03-2009 20:23:35 5.5 C 61 % -1.41 C
1303 09-03-2009 20:35:34 5.2 C 63 % -1.25 C
1304 09-03-2009 20:47:35 4.9 C 66 % -0.91 C
1305 09-03-2009 20:59:34 4.8 C 68 % -0.59 C
1306 09-03-2009 21:11:34 4.6 C 69 % -0.58 C
1307 09-03-2009 21:23:34 4.4 C 71 % -0.39 C
1308 09-03-2009 21:35:34 4 C 75 % -0.02 C
1309 09-03-2009 21:48:35 3.8 C 78 % 0.33 C
1310 09-03-2009 22:00:35 3.8 C 78 % 0.33 C
1311 09-03-2009 22:12:35 4.1 C 76 % 0.26 C
1312 09-03-2009 22:24:35 3.7 C 77 % 0.05 C
1313 09-03-2009 22:36:35 4 C 72 % -0.58 C
1314 09-03-2009 22:48:35 3.9 C 73 % -0.49 C
1315 09-03-2009 23:00:35 3.7 C 74 % -0.49 C
1316 09-03-2009 23:12:35 3.5 C 75 % -0.5 C
1317 09-03-2009 23:24:35 3.3 C 77 % -0.34 C
1318 09-03-2009 23:36:35 3.2 C 78 % -0.26 C
1319 09-03-2009 23:48:35 3.4 C 79 % 0.11 C
1320 10-03-2009 00:00:35 3.4 C 79 % 0.11 C
1321 10-03-2009 00:12:35 3.3 C 79 % 0.02 C
1322 10-03-2009 00:24:35 3.4 C 80 % 0.29 C
1323 10-03-2009 00:36:35 3.7 C 79 % 0.4 C
1324 10-03-2009 00:48:35 3.9 C 77 % 0.25 C
1325 10-03-2009 01:00:35 4.1 C 75 % 0.08 C
Sensor: Nr:Datum:Temp:Feuchte:Taupunkt:
Aussen-T/F 1326 10-03-2009 01:12:35 4.2 C 74 % -0.01 C
1327 10-03-2009 01:24:36 4.3 C 72 % -0.29 C
1328 10-03-2009 01:36:36 4.3 C 72 % -0.29 C
1329 10-03-2009 01:48:36 4.4 C 71 % -0.39 C
1330 10-03-2009 02:00:36 4.5 C 70 % -0.48 C
1331 10-03-2009 02:12:36 4.4 C 71 % -0.39 C
1332 10-03-2009 02:24:36 4.6 C 69 % -0.58 C
1333 10-03-2009 02:36:36 4.7 C 67 % -0.89 C
1334 10-03-2009 02:48:36 4.7 C 66 % -1.1 C
1335 10-03-2009 03:00:36 4.7 C 66 % -1.1 C
1336 10-03-2009 03:12:36 4.5 C 67 % -1.08 C
1337 10-03-2009 03:24:36 4.5 C 67 % -1.08 C
1338 10-03-2009 03:36:36 4.5 C 67 % -1.08 C
1339 10-03-2009 03:48:36 4.5 C 68 % -0.88 C
1340 10-03-2009 04:00:36 4.6 C 67 % -0.99 C
1341 10-03-2009 04:12:36 4.5 C 67 % -1.08 C
1342 10-03-2009 04:24:36 4.6 C 67 % -0.99 C
1343 10-03-2009 04:36:36 4.5 C 67 % -1.08 C
1344 10-03-2009 04:48:36 4.4 C 68 % -0.98 C
1345 10-03-2009 05:00:36 4.4 C 67 % -1.18 C
1346 10-03-2009 05:12:37 4.4 C 68 % -0.98 C
1347 10-03-2009 05:24:37 4.4 C 68 % -0.98 C
1348 10-03-2009 05:36:37 4.3 C 69 % -0.87 C
1349 10-03-2009 05:48:37 4.3 C 70 % -0.68 C
1350 10-03-2009 06:00:37 4.3 C 71 % -0.48 C
Sensor: Nr:Datum:Temp:Feuchte:Taupunkt:
Aussen-T/F 1351 10-03-2009 06:12:37 4.1 C 72 % -0.48 C
1352 10-03-2009 06:24:37 4.2 C 72 % -0.39 C
1353 10-03-2009 06:36:37 4.2 C 72 % -0.39 C
1354 10-03-2009 06:48:37 4.3 C 72 % -0.29 C
1355 10-03-2009 07:00:35 4.3 C 71 % -0.48 C
1356 10-03-2009 07:12:35 4.3 C 71 % -0.48 C
1357 10-03-2009 07:24:34 4.2 C 72 % -0.39 C
1358 10-03-2009 07:36:35 4.2 C 72 % -0.39 C
1359 10-03-2009 07:48:34 4.3 C 73 % -0.1 C
1360 10-03-2009 08:00:34 4.5 C 72 % -0.1 C
1361 10-03-2009 08:12:34 4.7 C 71 % -0.1 C
1362 10-03-2009 08:24:35 4.8 C 71 % 0 C
1363 10-03-2009 08:36:34 4.9 C 70 % -0.1 C
1364 10-03-2009 08:48:34 5 C 69 % -0.2 C
1365 10-03-2009 09:00:33 5 C 69 % -0.2 C
1366 10-03-2009 09:12:33 5.2 C 69 % -0.01 C
1367 10-03-2009 09:24:34 5.2 C 68 % -0.21 C
1368 10-03-2009 09:36:34 5.3 C 67 % -0.32 C
1369 10-03-2009 09:48:33 5.3 C 67 % -0.32 C
1370 10-03-2009 10:00:34 5.4 C 66 % -0.43 C
1371 10-03-2009 10:12:34 5.5 C 66 % -0.33 C
1372 10-03-2009 10:24:33 5.6 C 66 % -0.24 C
1373 10-03-2009 10:36:33 5.7 C 65 % -0.35 C
1374 10-03-2009 10:48:33 5.9 C 65 % -0.16 C
1375 10-03-2009 11:00:33 6.1 C 63 % -0.4 C
Sensor: Nr:Datum:Temp:Feuchte:Taupunkt:
Aussen-T/F 1376 10-03-2009 11:12:33 6.3 C 62 % -0.43 C
1377 10-03-2009 11:24:32 6.4 C 62 % -0.34 C
1378 10-03-2009 11:36:33 6.3 C 63 % -0.21 C
1379 10-03-2009 11:48:32 6.3 C 63 % -0.21 C
1380 10-03-2009 12:00:32 6.4 C 63 % -0.12 C
1381 10-03-2009 12:12:32 6.5 C 62 % -0.24 C
1382 10-03-2009 12:24:32 6.6 C 61 % -0.37 C
1383 10-03-2009 12:36:32 6.5 C 61 % -0.46 C
1384 10-03-2009 12:48:32 6.5 C 61 % -0.46 C
1385 10-03-2009 13:00:31 6.6 C 61 % -0.37 C
1386 10-03-2009 13:12:31 6.7 C 61 % -0.28 C
1387 10-03-2009 13:24:32 6.8 C 61 % -0.18 C
1388 10-03-2009 13:36:31 6.8 C 61 % -0.18 C
1389 10-03-2009 13:48:31 7 C 60 % -0.22 C
1390 10-03-2009 14:00:31 7.1 C 59 % -0.36 C
1391 10-03-2009 14:12:31 7.1 C 58 % -0.59 C
1392 10-03-2009 14:24:31 7.1 C 59 % -0.36 C
1393 10-03-2009 14:36:31 6.9 C 61 % -0.09 C
1394 10-03-2009 14:48:31 6.8 C 62 % 0.04 C
1395 10-03-2009 15:00:31 6.8 C 61 % -0.18 C
1396 10-03-2009 15:12:31 6.8 C 61 % -0.18 C
1397 10-03-2009 15:24:30 6.6 C 61 % -0.37 C
1398 10-03-2009 15:36:30 6.4 C 62 % -0.34 C
1399 10-03-2009 15:48:30 6.4 C 61 % -0.56 C
1400 10-03-2009 16:00:30 6.4 C 58 % -1.25 C
Sensor: Nr:Datum:Temp:Feuchte:Taupunkt:
Aussen-T/F 1401 10-03-2009 16:12:30 6.4 C 60 % -0.78 C
1402 10-03-2009 16:24:29 5.9 C 62 % -0.81 C
1403 10-03-2009 16:36:30 5.7 C 66 % -0.14 C
1404 10-03-2009 16:48:30 5.4 C 68 % -0.02 C
1405 10-03-2009 17:00:29 5.6 C 69 % 0.37 C
1406 10-03-2009 17:12:29 5.6 C 68 % 0.17 C
1407 10-03-2009 17:24:30 5.8 C 68 % 0.36 C
1408 10-03-2009 17:36:29 5.7 C 69 % 0.47 C
1409 10-03-2009 17:48:29 5.7 C 69 % 0.47 C
1410 10-03-2009 18:00:28 5.8 C 70 % 0.76 C
1411 10-03-2009 18:12:28 5.7 C 71 % 0.86 C
1412 10-03-2009 18:24:29 5.8 C 71 % 0.96 C
1413 10-03-2009 18:36:29 5.8 C 71 % 0.96 C
1414 10-03-2009 18:48:28 5.9 C 72 % 1.25 C
1415 10-03-2009 19:00:29 6 C 71 % 1.15 C
1416 10-03-2009 19:12:29 6 C 72 % 1.35 C
1417 10-03-2009 19:24:28 6 C 73 % 1.54 C
1418 10-03-2009 19:36:28 6 C 74 % 1.73 C
1419 10-03-2009 19:48:28 5.8 C 80 % 2.62 C
1420 10-03-2009 20:00:28 5.8 C 82 % 2.97 C
1421 10-03-2009 20:12:28 5.8 C 83 % 3.14 C
1422 10-03-2009 20:24:27 5.9 C 83 % 3.24 C
1423 10-03-2009 20:36:27 6.5 C 79 % 3.13 C
1424 10-03-2009 20:48:27 6.9 C 73 % 2.4 C
1425 10-03-2009 21:00:27 7.2 C 68 % 1.7 C
Sensor: Nr:Datum:Temp:Feuchte:Taupunkt:
Aussen-T/F 1426 10-03-2009 21:12:27 7.3 C 66 % 1.38 C
1427 10-03-2009 21:24:27 7.3 C 66 % 1.38 C
1428 10-03-2009 21:36:27 6.8 C 72 % 2.12 C
1429 10-03-2009 21:49:28 6.2 C 74 % 1.92 C
1430 10-03-2009 22:01:28 5.7 C 75 % 1.62 C
1431 10-03-2009 22:13:28 5.6 C 75 % 1.53 C
1432 10-03-2009 22:25:28 5.4 C 77 % 1.7 C
1433 10-03-2009 22:37:28 5.3 C 77 % 1.6 C
1434 10-03-2009 22:49:28 5.2 C 80 % 2.04 C
1435 10-03-2009 23:01:28 5.1 C 80 % 1.94 C
1436 10-03-2009 23:13:28 5.1 C 80 % 1.94 C
1437 10-03-2009 23:25:28 5.2 C 78 % 1.69 C
1438 10-03-2009 23:37:28 5.4 C 72 % 0.77 C
1439 10-03-2009 23:49:28 5.4 C 69 % 0.18 C
1440 11-03-2009 00:01:28 5.5 C 66 % -0.33 C
1441 11-03-2009 00:13:28 5.5 C 68 % 0.08 C
1442 11-03-2009 00:25:28 5.3 C 69 % 0.09 C
1443 11-03-2009 00:37:28 5.1 C 69 % -0.11 C
1444 11-03-2009 00:49:28 5 C 69 % -0.2 C
1445 11-03-2009 01:01:28 4.8 C 70 % -0.2 C
1446 11-03-2009 01:13:29 4.8 C 70 % -0.2 C
1447 11-03-2009 01:25:29 4.9 C 69 % -0.3 C
1448 11-03-2009 01:37:29 4.9 C 69 % -0.3 C
1449 11-03-2009 01:49:29 4.8 C 69 % -0.39 C
1450 11-03-2009 02:01:29 4.9 C 68 % -0.5 C
Sensor: Nr:Datum:Temp:Feuchte:Taupunkt:
Aussen-T/F 1451 11-03-2009 02:13:29 5 C 66 % -0.81 C
1452 11-03-2009 02:25:29 4.9 C 67 % -0.7 C
1453 11-03-2009 02:37:29 4.9 C 68 % -0.5 C
1454 11-03-2009 02:49:29 4.8 C 68 % -0.59 C
1455 11-03-2009 03:01:29 4.6 C 68 % -0.78 C
1456 11-03-2009 03:13:29 4.5 C 69 % -0.68 C
1457 11-03-2009 03:25:29 4.5 C 69 % -0.68 C
1458 11-03-2009 03:37:29 4.6 C 69 % -0.58 C
1459 11-03-2009 03:49:29 4.7 C 67 % -0.89 C
1460 11-03-2009 04:01:29 4.7 C 67 % -0.89 C
1461 11-03-2009 04:13:29 4.7 C 66 % -1.1 C
1462 11-03-2009 04:25:29 4.7 C 65 % -1.3 C
1463 11-03-2009 04:37:29 4.7 C 65 % -1.3 C
1464 11-03-2009 04:49:29 4.7 C 65 % -1.3 C
1465 11-03-2009 05:01:30 4.7 C 64 % -1.51 C
1466 11-03-2009 05:13:30 4.6 C 64 % -1.61 C
1467 11-03-2009 05:25:30 4.6 C 64 % -1.61 C
1468 11-03-2009 05:37:30 4.6 C 63 % -1.82 C
1469 11-03-2009 05:49:30 4.6 C 63 % -1.82 C
1470 11-03-2009 06:01:30 4.6 C 62 % -2.04 C
1471 11-03-2009 06:13:30 4.1 C 66 % -1.67 C
1472 11-03-2009 06:25:30 3.9 C 72 % -0.68 C
1473 11-03-2009 06:37:30 3.6 C 76 % -0.22 C
1474 11-03-2009 06:49:30 3.6 C 78 % 0.13 C
1475 11-03-2009 07:01:27 3.7 C 78 % 0.23 C
Sensor: Nr:Datum:Temp:Feuchte:Taupunkt:
Aussen-T/F 1476 11-03-2009 07:13:28 3.9 C 77 % 0.25 C
1477 11-03-2009 07:25:28 3.9 C 77 % 0.25 C
1478 11-03-2009 07:37:27 3.8 C 78 % 0.33 C
1479 11-03-2009 07:49:27 4 C 76 % 0.16 C
1480 11-03-2009 08:01:27 4.3 C 73 % -0.1 C
1481 11-03-2009 08:13:27 4.5 C 70 % -0.48 C
1482 11-03-2009 08:25:27 4.5 C 70 % -0.48 C
1483 11-03-2009 08:37:26 4.7 C 69 % -0.49 C
1484 11-03-2009 08:49:27 4.9 C 68 % -0.5 C
1485 11-03-2009 09:01:26 4.8 C 70 % -0.2 C
1486 11-03-2009 09:13:26 4.6 C 73 % 0.19 C
1487 11-03-2009 09:25:26 4.6 C 73 % 0.19 C
1488 11-03-2009 09:37:26 4.8 C 73 % 0.38 C
1489 11-03-2009 09:49:26 4.9 C 73 % 0.48 C
1490 11-03-2009 10:01:25 4.9 C 71 % 0.09 C
1491 11-03-2009 10:13:26 5 C 69 % -0.2 C
1492 11-03-2009 10:25:26 4.8 C 70 % -0.2 C
1493 11-03-2009 10:37:25 4.8 C 70 % -0.2 C
1494 11-03-2009 10:49:25 4.8 C 69 % -0.39 C
1495 11-03-2009 11:01:26 5.2 C 66 % -0.62 C
1496 11-03-2009 11:13:25 5.2 C 66 % -0.62 C
1497 11-03-2009 11:25:25 5.2 C 65 % -0.83 C
1498 11-03-2009 11:37:25 5.4 C 64 % -0.85 C
1499 11-03-2009 11:49:25 5.9 C 63 % -0.59 C
1500 11-03-2009 12:01:25 6.7 C 57 % -1.2 C
Sensor: Nr:Datum:Temp:Feuchte:Taupunkt:
Aussen-T/F 1501 11-03-2009 12:13:24 7.1 C 54 % -1.56 C
1502 11-03-2009 12:25:24 7.4 C 54 % -1.28 C
1503 11-03-2009 12:37:24 7.3 C 50 % -2.42 C
1504 11-03-2009 12:49:24 7.4 C 51 % -2.06 C
1505 11-03-2009 13:01:24 7.1 C 52 % -2.07 C
1506 11-03-2009 13:13:24 6.2 C 63 % -0.31 C
1507 11-03-2009 13:25:24 6.5 C 65 % 0.41 C
1508 11-03-2009 13:37:24 7.3 C 61 % 0.29 C
1509 11-03-2009 13:49:24 7.9 C 51 % -1.6 C
1510 11-03-2009 14:01:23 8 C 45 % -3.19 C
1511 11-03-2009 14:13:24 8.1 C 47 % -2.52 C
1512 11-03-2009 14:25:24 7.6 C 47 % -2.97 C
1513 11-03-2009 14:37:23 8.5 C 41 % -3.98 C
1514 11-03-2009 14:49:23 8.5 C 40 % -4.31 C
1515 11-03-2009 15:01:23 8.6 C 41 % -3.89 C
1516 11-03-2009 15:13:23 9.3 C 39 % -3.92 C
1517 11-03-2009 15:25:23 9.4 C 40 % -3.5 C
1518 11-03-2009 15:37:23 9.7 C 40 % -3.23 C
1519 11-03-2009 15:49:22 9.1 C 41 % -3.44 C
1520 11-03-2009 16:01:23 8.5 C 42 % -3.66 C
1521 11-03-2009 16:13:22 8.4 C 44 % -3.13 C
1522 11-03-2009 16:25:22 8.5 C 45 % -2.73 C
1523 11-03-2009 16:37:22 8.6 C 46 % -2.35 C
1524 11-03-2009 16:49:22 8.3 C 46 % -2.62 C
1525 11-03-2009 17:01:22 9.1 C 46 % -1.89 C
Sensor: Nr:Datum:Temp:Feuchte:Taupunkt:
Aussen-T/F 1526 11-03-2009 17:13:21 8.5 C 43 % -3.34 C
1527 11-03-2009 17:25:21 8.4 C 45 % -2.83 C
1528 11-03-2009 17:37:22 8.3 C 44 % -3.22 C
1529 11-03-2009 17:49:21 8.3 C 44 % -3.22 C
1530 11-03-2009 18:01:21 8.1 C 44 % -3.4 C
1531 11-03-2009 18:13:22 7.6 C 47 % -2.97 C
1532 11-03-2009 18:25:22 7.1 C 50 % -2.6 C
1533 11-03-2009 18:37:21 6.8 C 54 % -1.84 C
1534 11-03-2009 18:49:21 6.5 C 55 % -1.87 C
1535 11-03-2009 19:01:20 6.4 C 56 % -1.72 C
1536 11-03-2009 19:13:21 6.3 C 57 % -1.58 C
1537 11-03-2009 19:25:21 6.1 C 55 % -2.25 C
1538 11-03-2009 19:37:20 5.8 C 56 % -2.28 C
1539 11-03-2009 19:49:20 5.6 C 57 % -2.23 C
1540 11-03-2009 20:01:20 5.7 C 57 % -2.14 C
1541 11-03-2009 20:13:20 5.8 C 56 % -2.28 C
1542 11-03-2009 20:25:20 5.5 C 57 % -2.33 C
1543 11-03-2009 20:37:20 5.3 C 58 % -2.28 C
1544 11-03-2009 20:49:20 5.1 C 59 % -2.24 C
1545 11-03-2009 21:01:20 4.8 C 61 % -2.07 C
1546 11-03-2009 21:13:20 4.6 C 62 % -2.04 C
1547 11-03-2009 21:25:20 4.3 C 64 % -1.89 C
1548 11-03-2009 21:37:19 4.2 C 65 % -1.78 C
1549 11-03-2009 21:49:20 4 C 65 % -1.97 C
1550 11-03-2009 22:02:20 4.1 C 65 % -1.87 C
Sensor: Nr:Datum:Temp:Feuchte:Taupunkt:
Aussen-T/F 1551 11-03-2009 22:14:20 3.7 C 67 % -1.85 C
1552 11-03-2009 22:26:20 3.5 C 68 % -1.84 C
1553 11-03-2009 22:38:20 3.4 C 68 % -1.93 C
1554 11-03-2009 22:50:21 3.1 C 69 % -2.02 C
1555 11-03-2009 23:02:21 3.3 C 69 % -1.83 C
1556 11-03-2009 23:14:21 3 C 70 % -1.92 C
1557 11-03-2009 23:26:21 2.8 C 72 % -1.73 C
1558 11-03-2009 23:38:21 2.8 C 73 % -1.55 C
1559 11-03-2009 23:50:21 3.1 C 71 % -1.63 C
1560 12-03-2009 00:02:21 3.4 C 70 % -1.54 C
1561 12-03-2009 00:14:21 3.5 C 69 % -1.64 C
1562 12-03-2009 00:26:21 3.5 C 68 % -1.84 C
1563 12-03-2009 00:38:21 3.5 C 68 % -1.84 C
1564 12-03-2009 00:50:21 3.5 C 68 % -1.84 C
1565 12-03-2009 01:02:21 3.5 C 68 % -1.84 C
1566 12-03-2009 01:14:21 3.4 C 68 % -1.93 C
1567 12-03-2009 01:26:21 3.4 C 68 % -1.93 C
1568 12-03-2009 01:38:21 3.4 C 69 % -1.73 C
1569 12-03-2009 01:50:21 3.4 C 68 % -1.93 C
1570 12-03-2009 02:02:21 3.5 C 68 % -1.84 C
1571 12-03-2009 02:14:21 3.4 C 68 % -1.93 C
1572 12-03-2009 02:26:21 3.5 C 68 % -1.84 C
1573 12-03-2009 02:38:22 3.6 C 67 % -1.94 C
1574 12-03-2009 02:50:22 3.6 C 67 % -1.94 C
1575 12-03-2009 03:02:22 3.8 C 65 % -2.16 C
Sensor: Nr:Datum:Temp:Feuchte:Taupunkt:
Aussen-T/F 1576 12-03-2009 03:14:22 3.8 C 64 % -2.37 C
1577 12-03-2009 03:26:22 3.8 C 64 % -2.37 C
1578 12-03-2009 03:38:22 3.9 C 64 % -2.27 C
1579 12-03-2009 03:50:22 4.1 C 61 % -2.73 C
1580 12-03-2009 04:02:22 4 C 62 % -2.61 C
1581 12-03-2009 04:14:22 4 C 62 % -2.61 C
1582 12-03-2009 04:26:22 4.1 C 62 % -2.51 C
1583 12-03-2009 04:38:22 4.2 C 61 % -2.64 C
1584 12-03-2009 04:50:22 4.2 C 61 % -2.64 C
1585 12-03-2009 05:02:22 4.4 C 60 % -2.67 C
1586 12-03-2009 05:14:22 4.3 C 60 % -2.76 C
1587 12-03-2009 05:26:22 4.5 C 58 % -3.03 C
1588 12-03-2009 05:38:22 4.6 C 59 % -2.71 C
1589 12-03-2009 05:50:22 4.4 C 60 % -2.67 C
1590 12-03-2009 06:02:22 4.4 C 61 % -2.45 C
1591 12-03-2009 06:14:22 4.5 C 61 % -2.35 C
1592 12-03-2009 06:26:23 4.7 C 60 % -2.39 C
1593 12-03-2009 06:38:23 4.8 C 59 % -2.52 C
1594 12-03-2009 06:50:23 4.8 C 59 % -2.52 C
1595 12-03-2009 07:02:20 4.7 C 59 % -2.61 C
1596 12-03-2009 07:14:20 4.7 C 60 % -2.39 C
1597 12-03-2009 07:26:20 4.7 C 60 % -2.39 C
1598 12-03-2009 07:38:20 4.8 C 60 % -2.29 C
1599 12-03-2009 07:50:19 4.9 C 59 % -2.42 C
1600 12-03-2009 08:02:19 5 C 59 % -2.33 C
Sensor: Nr:Datum:Temp:Feuchte:Taupunkt:
Aussen-T/F 1601 12-03-2009 08:14:20 5.1 C 58 % -2.47 C
1602 12-03-2009 08:26:20 5.1 C 58 % -2.47 C
1603 12-03-2009 08:38:19 5.2 C 58 % -2.37 C
1604 12-03-2009 08:50:19 5.1 C 62 % -1.57 C
1605 12-03-2009 09:02:19 5 C 65 % -1.02 C
1606 12-03-2009 09:14:19 4.9 C 69 % -0.3 C
1607 12-03-2009 09:26:19 4.8 C 71 % 0 C
1608 12-03-2009 09:38:18 4.7 C 73 % 0.28 C
1609 12-03-2009 09:50:19 4.8 C 72 % 0.19 C
1610 12-03-2009 10:02:18 4.6 C 73 % 0.19 C
1611 12-03-2009 10:14:18 4.6 C 74 % 0.38 C
1612 12-03-2009 10:26:18 4.5 C 75 % 0.46 C
1613 12-03-2009 10:38:18 4.7 C 74 % 0.47 C
1614 12-03-2009 10:50:18 5.1 C 70 % 0.09 C
1615 12-03-2009 11:02:18 5.4 C 68 % -0.02 C
1616 12-03-2009 11:14:17 5.5 C 66 % -0.33 C
1617 12-03-2009 11:26:17 5.5 C 66 % -0.33 C
1618 12-03-2009 11:38:18 5.5 C 68 % 0.08 C
1619 12-03-2009 11:50:17 5.7 C 66 % -0.14 C
1620 12-03-2009 12:02:17 6.1 C 64 % -0.19 C
1621 12-03-2009 12:14:18 6.5 C 63 % -0.02 C
1622 12-03-2009 12:26:18 6.5 C 63 % -0.02 C
1623 12-03-2009 12:38:17 6.5 C 64 % 0.19 C
1624 12-03-2009 12:50:17 6.6 C 64 % 0.29 C
1625 12-03-2009 13:02:16 6.7 C 64 % 0.38 C
Sensor: Nr:Datum:Temp:Feuchte:Taupunkt:
Aussen-T/F 1626 12-03-2009 13:14:17 6.8 C 64 % 0.48 C
1627 12-03-2009 13:26:17 6.8 C 64 % 0.48 C
1628 12-03-2009 13:38:16 6.8 C 64 % 0.48 C
1629 12-03-2009 13:50:17 6.9 C 64 % 0.57 C
1630 12-03-2009 14:02:16 6.9 C 65 % 0.79 C
1631 12-03-2009 14:14:16 6.8 C 66 % 0.9 C
1632 12-03-2009 14:26:16 6.9 C 67 % 1.21 C
1633 12-03-2009 14:38:16 6.9 C 67 % 1.21 C
1634 12-03-2009 14:50:16 7 C 69 % 1.71 C
1635 12-03-2009 15:02:16 6.8 C 72 % 2.12 C
1636 12-03-2009 15:14:15 6.5 C 74 % 2.21 C
1637 12-03-2009 15:26:15 6.4 C 77 % 2.67 C
1638 12-03-2009 15:38:16 6.8 C 79 % 3.42 C
1639 12-03-2009 15:50:15 6.9 C 78 % 3.34 C
1640 12-03-2009 16:02:15 7 C 75 % 2.88 C
1641 12-03-2009 16:14:14 7.1 C 75 % 2.98 C
1642 12-03-2009 16:26:14 7.1 C 75 % 2.98 C
1643 12-03-2009 16:38:15 7.2 C 75 % 3.07 C
1644 12-03-2009 16:50:14 7.1 C 75 % 2.98 C
1645 12-03-2009 17:02:14 7.1 C 75 % 2.98 C
1646 12-03-2009 17:14:15 6.9 C 78 % 3.34 C
1647 12-03-2009 17:26:15 6.9 C 80 % 3.7 C
1648 12-03-2009 17:38:14 6.9 C 80 % 3.7 C
1649 12-03-2009 17:50:14 6.9 C 80 % 3.7 C
1650 12-03-2009 18:02:14 6.8 C 81 % 3.77 C
Sensor: Nr:Datum:Temp:Feuchte:Taupunkt:
Aussen-T/F 1651 12-03-2009 18:14:14 6.7 C 83 % 4.02 C
1652 12-03-2009 18:26:14 6.7 C 84 % 4.19 C
1653 12-03-2009 18:38:14 6.7 C 86 % 4.53 C
1654 12-03-2009 18:50:13 6.7 C 87 % 4.69 C
1655 12-03-2009 19:02:13 6.7 C 88 % 4.86 C
1656 12-03-2009 19:14:13 6.7 C 89 % 5.02 C
1657 12-03-2009 19:26:13 6.9 C 90 % 5.38 C
1658 12-03-2009 19:38:13 6.9 C 91 % 5.54 C
1659 12-03-2009 19:50:13 7.1 C 90 % 5.57 C
1660 12-03-2009 20:02:13 7.2 C 91 % 5.83 C
1661 12-03-2009 20:14:13 7.1 C 91 % 5.73 C
1662 12-03-2009 20:26:13 7.2 C 91 % 5.83 C
1663 12-03-2009 20:38:12 7.1 C 91 % 5.73 C
1664 12-03-2009 20:50:13 7.2 C 91 % 5.83 C
1665 12-03-2009 21:02:13 7.1 C 91 % 5.73 C
1666 12-03-2009 21:14:12 7.1 C 91 % 5.73 C
1667 12-03-2009 21:26:12 7.1 C 91 % 5.73 C
1668 12-03-2009 21:38:12 7.2 C 91 % 5.83 C
1669 12-03-2009 21:50:12 7.2 C 91 % 5.83 C
1670 12-03-2009 22:03:12 7.2 C 90 % 5.67 C
1671 12-03-2009 22:15:12 7.2 C 90 % 5.67 C
1672 12-03-2009 22:27:12 7.3 C 90 % 5.77 C
1673 12-03-2009 22:39:12 7.4 C 89 % 5.71 C
1674 12-03-2009 22:51:12 7.4 C 88 % 5.55 C
1675 12-03-2009 23:03:12 7.5 C 88 % 5.64 C
Sensor: Nr:Datum:Temp:Feuchte:Taupunkt:
Aussen-T/F 1676 12-03-2009 23:15:12 7.6 C 87 % 5.58 C
1677 12-03-2009 23:27:12 7.7 C 86 % 5.51 C
1678 12-03-2009 23:39:12 7.7 C 86 % 5.51 C
1679 12-03-2009 23:51:12 7.8 C 86 % 5.61 C
1680 13-03-2009 00:03:12 7.8 C 85 % 5.44 C
1681 13-03-2009 00:15:12 7.8 C 86 % 5.61 C
1682 13-03-2009 00:27:12 7.8 C 86 % 5.61 C
1683 13-03-2009 00:39:12 7.8 C 86 % 5.61 C
1684 13-03-2009 00:51:12 7.7 C 87 % 5.68 C
1685 13-03-2009 01:03:12 7.7 C 87 % 5.68 C
1686 13-03-2009 01:15:12 7.7 C 88 % 5.84 C
1687 13-03-2009 01:27:12 7.6 C 88 % 5.74 C
1688 13-03-2009 01:39:12 7.6 C 88 % 5.74 C
1689 13-03-2009 01:51:12 7.5 C 89 % 5.81 C
1690 13-03-2009 02:03:13 7.5 C 89 % 5.81 C
1691 13-03-2009 02:15:13 7.5 C 90 % 5.97 C
1692 13-03-2009 02:27:13 7.5 C 90 % 5.97 C
1693 13-03-2009 02:39:13 7.4 C 90 % 5.87 C
1694 13-03-2009 02:51:13 7.4 C 91 % 6.03 C
1695 13-03-2009 03:03:13 7.3 C 91 % 5.93 C
1696 13-03-2009 03:15:13 7.5 C 91 % 6.13 C
1697 13-03-2009 03:27:13 7.5 C 89 % 5.81 C
1698 13-03-2009 03:39:13 7.4 C 88 % 5.55 C
1699 13-03-2009 03:51:13 7.3 C 87 % 5.28 C
1700 13-03-2009 04:03:13 7.3 C 86 % 5.12 C
Sensor: Nr:Datum:Temp:Feuchte:Taupunkt:
Aussen-T/F 1701 13-03-2009 04:15:13 7.3 C 87 % 5.28 C
1702 13-03-2009 04:27:13 7.3 C 87 % 5.28 C
1703 13-03-2009 04:39:13 7.1 C 87 % 5.09 C
1704 13-03-2009 04:51:13 7.2 C 86 % 5.02 C
1705 13-03-2009 05:03:13 7.3 C 85 % 4.95 C
1706 13-03-2009 05:15:13 6.9 C 84 % 4.39 C
1707 13-03-2009 05:27:13 6.6 C 85 % 4.26 C
1708 13-03-2009 05:39:13 6.3 C 85 % 3.97 C
1709 13-03-2009 05:51:14 6.1 C 86 % 3.94 C
1710 13-03-2009 06:03:14 5.9 C 87 % 3.91 C
1711 13-03-2009 06:15:14 5.7 C 87 % 3.71 C
1712 13-03-2009 06:27:14 5.6 C 88 % 3.77 C
1713 13-03-2009 06:39:14 5.5 C 88 % 3.67 C
1714 13-03-2009 06:51:14 5.4 C 88 % 3.58 C
1715 13-03-2009 07:03:12 5.4 C 88 % 3.58 C
1716 13-03-2009 07:15:12 5.4 C 89 % 3.74 C
1717 13-03-2009 07:27:12 5.4 C 89 % 3.74 C
1718 13-03-2009 07:39:12 5.4 C 89 % 3.74 C
1719 13-03-2009 07:51:12 5.5 C 89 % 3.84 C
1720 13-03-2009 08:03:11 5.7 C 89 % 4.03 C
1721 13-03-2009 08:15:12 5.9 C 90 % 4.39 C
1722 13-03-2009 08:27:12 5.9 C 90 % 4.39 C
1723 13-03-2009 08:39:11 5.9 C 90 % 4.39 C
1724 13-03-2009 08:51:11 5.9 C 89 % 4.23 C
1725 13-03-2009 09:03:11 5.9 C 89 % 4.23 C
Sensor: Nr:Datum:Temp:Feuchte:Taupunkt:
Aussen-T/F 1726 13-03-2009 09:15:11 6.4 C 89 % 4.72 C
1727 13-03-2009 09:27:11 7.3 C 90 % 5.77 C
1728 13-03-2009 09:39:11 7.4 C 86 % 5.22 C
1729 13-03-2009 09:51:10 8 C 82 % 5.12 C
1730 13-03-2009 10:03:11 8.6 C 78 % 4.99 C
1731 13-03-2009 10:15:10 8.8 C 73 % 4.24 C
1732 13-03-2009 10:27:10 9.3 C 65 % 3.07 C
1733 13-03-2009 10:39:10 9.5 C 63 % 2.82 C
1734 13-03-2009 10:51:10 9.7 C 60 % 2.32 C
1735 13-03-2009 11:03:10 10 C 59 % 2.37 C
1736 13-03-2009 11:15:10 10.3 C 56 % 1.92 C
1737 13-03-2009 11:27:10 10.2 C 55 % 1.58 C
1738 13-03-2009 11:39:09 10.7 C 56 % 2.29 C
1739 13-03-2009 11:51:10 11.7 C 49 % 1.36 C
1740 13-03-2009 12:03:09 11.6 C 47 % 0.69 C
1741 13-03-2009 12:15:09 11.9 C 45 % 0.36 C
1742 13-03-2009 12:27:10 11.3 C 44 % -0.49 C
1743 13-03-2009 12:39:09 10.9 C 43 % -1.17 C
1744 13-03-2009 12:51:09 11.7 C 46 % 0.48 C
1745 13-03-2009 13:03:08 11.9 C 40 % -1.25 C
1746 13-03-2009 13:15:09 11.8 C 41 % -1.01 C
1747 13-03-2009 13:27:09 12.1 C 35 % -2.88 C
1748 13-03-2009 13:39:09 12.5 C 35 % -2.52 C
1749 13-03-2009 13:51:08 14.1 C 32 % -2.32 C
1750 13-03-2009 14:03:09 13.9 C 31 % -2.93 C
Sensor: Nr:Datum:Temp:Feuchte:Taupunkt:
Aussen-T/F 1751 13-03-2009 14:15:08 13.1 C 32 % -3.2 C
1752 13-03-2009 14:27:08 13.2 C 30 % -3.97 C
1753 13-03-2009 14:39:08 13.4 C 30 % -3.8 C
1754 13-03-2009 14:51:07 13.6 C 31 % -3.19 C
1755 13-03-2009 15:03:08 14 C 29 % -3.73 C
1756 13-03-2009 15:15:08 13.7 C 28 % -4.45 C
1757 13-03-2009 15:27:08 13.9 C 29 % -3.82 C
1758 13-03-2009 15:39:07 14.1 C 29 % -3.64 C
1759 13-03-2009 15:51:08 13.6 C 28 % -4.54 C
1760 13-03-2009 16:03:07 13.8 C 29 % -3.9 C
1761 13-03-2009 16:15:07 13.5 C 28 % -4.63 C
1762 13-03-2009 16:27:07 13.3 C 29 % -4.33 C
1763 13-03-2009 16:39:07 13.1 C 30 % -4.06 C
1764 13-03-2009 16:51:07 13.2 C 31 % -3.54 C
1765 13-03-2009 17:03:06 13 C 30 % -4.15 C
1766 13-03-2009 17:15:07 12.9 C 30 % -4.23 C
1767 13-03-2009 17:27:07 12.8 C 34 % -2.65 C
1768 13-03-2009 17:39:06 12.6 C 36 % -2.06 C
1769 13-03-2009 17:51:06 12.4 C 41 % -0.47 C
1770 13-03-2009 18:03:06 11.7 C 42 % -0.77 C
1771 13-03-2009 18:15:06 11.1 C 43 % -0.99 C
1772 13-03-2009 18:27:06 10.4 C 44 % -1.31 C
1773 13-03-2009 18:39:05 9.8 C 46 % -1.25 C
1774 13-03-2009 18:51:06 9.2 C 48 % -1.22 C
1775 13-03-2009 19:03:06 9 C 48 % -1.41 C
Sensor: Nr:Datum:Temp:Feuchte:Taupunkt:
Aussen-T/F 1776 13-03-2009 19:15:05 8.6 C 52 % -0.68 C
1777 13-03-2009 19:27:05 8.3 C 54 % -0.45 C
1778 13-03-2009 19:39:05 8.1 C 54 % -0.63 C
1779 13-03-2009 19:51:05 8 C 54 % -0.73 C
1780 13-03-2009 20:03:05 7.8 C 57 % -0.17 C
1781 13-03-2009 20:15:04 7.6 C 59 % 0.11 C
1782 13-03-2009 20:27:04 7.4 C 60 % 0.16 C
1783 13-03-2009 20:39:05 7.2 C 61 % 0.2 C
1784 13-03-2009 20:51:04 6.9 C 63 % 0.36 C
1785 13-03-2009 21:03:04 6.6 C 64 % 0.29 C
1786 13-03-2009 21:15:04 6.5 C 64 % 0.19 C
1787 13-03-2009 21:27:04 6.3 C 64 % 0 C
1788 13-03-2009 21:39:04 6.1 C 65 % 0.03 C
1789 13-03-2009 21:51:04 5.9 C 67 % 0.25 C
1790 13-03-2009 22:03:04 5.8 C 67 % 0.16 C
1791 13-03-2009 22:15:03 5.8 C 67 % 0.16 C
1792 13-03-2009 22:27:03 5.6 C 67 % -0.03 C
1793 13-03-2009 22:39:04 5.6 C 68 % 0.17 C
1794 13-03-2009 22:52:05 5.4 C 69 % 0.18 C
1795 13-03-2009 23:04:05 5.3 C 70 % 0.28 C
1796 13-03-2009 23:16:05 5.2 C 70 % 0.19 C
1797 13-03-2009 23:28:05 5 C 70 % 0 C
1798 13-03-2009 23:40:05 4.9 C 72 % 0.29 C
1799 13-03-2009 23:52:05 4.8 C 72 % 0.19 C
1800 14-03-2009 00:04:05 4.6 C 73 % 0.19 C
Sensor: Nr:Datum:Temp:Feuchte:Taupunkt:
Aussen-T/F 1801 14-03-2009 00:16:05 4.5 C 73 % 0.09 C
1802 14-03-2009 00:28:05 4.5 C 74 % 0.28 C
1803 14-03-2009 00:40:06 4.4 C 74 % 0.18 C
1804 14-03-2009 00:52:06 4.2 C 76 % 0.36 C
1805 14-03-2009 01:04:06 4.1 C 76 % 0.26 C
1806 14-03-2009 01:16:06 4 C 76 % 0.16 C
1807 14-03-2009 01:28:06 4 C 76 % 0.16 C
1808 14-03-2009 01:40:06 3.7 C 78 % 0.23 C
1809 14-03-2009 01:52:06 3.9 C 78 % 0.42 C
1810 14-03-2009 02:04:06 3.8 C 78 % 0.33 C
1811 14-03-2009 02:16:06 3.7 C 78 % 0.23 C
1812 14-03-2009 02:28:06 3.5 C 79 % 0.21 C
1813 14-03-2009 02:40:06 3.4 C 79 % 0.11 C
1814 14-03-2009 02:52:06 3.6 C 80 % 0.48 C
1815 14-03-2009 03:04:06 3.6 C 80 % 0.48 C
1816 14-03-2009 03:16:06 3.2 C 80 % 0.09 C
1817 14-03-2009 03:28:06 3.3 C 80 % 0.19 C
1818 14-03-2009 03:40:06 3.4 C 81 % 0.46 C
1819 14-03-2009 03:52:06 3.4 C 81 % 0.46 C
1820 14-03-2009 04:04:06 3.4 C 81 % 0.46 C
1821 14-03-2009 04:16:06 3.3 C 81 % 0.36 C
1822 14-03-2009 04:28:06 3 C 80 % -0.1 C
1823 14-03-2009 04:40:07 3 C 81 % 0.07 C
1824 14-03-2009 04:52:07 2.7 C 82 % -0.06 C
1825 14-03-2009 05:04:07 2.6 C 82 % -0.16 C
Sensor: Nr:Datum:Temp:Feuchte:Taupunkt:
Aussen-T/F 1826 14-03-2009 05:16:07 2.6 C 83 % 0.01 C
1827 14-03-2009 05:28:07 2.6 C 83 % 0.01 C
1828 14-03-2009 05:40:07 2.8 C 84 % 0.37 C
1829 14-03-2009 05:52:07 3 C 84 % 0.57 C
1830 14-03-2009 06:04:07 3.2 C 84 % 0.76 C
1831 14-03-2009 06:16:07 3.3 C 84 % 0.86 C
1832 14-03-2009 06:28:07 3.3 C 84 % 0.86 C
1833 14-03-2009 06:40:07 3.5 C 84 % 1.06 C
1834 14-03-2009 06:52:07 3.7 C 84 % 1.25 C
1835 14-03-2009 07:04:07 3.8 C 83 % 1.19 C
1836 14-03-2009 07:16:07 3.8 C 82 % 1.02 C
1837 14-03-2009 07:28:07 3.8 C 82 % 1.02 C
1838 14-03-2009 07:40:07 4.1 C 81 % 1.14 C
1839 14-03-2009 07:52:07 4.2 C 80 % 1.07 C
1840 14-03-2009 08:04:07 4.4 C 79 % 1.09 C
1841 14-03-2009 08:16:04 4.6 C 79 % 1.28 C
1842 14-03-2009 08:28:04 4.8 C 79 % 1.47 C
1843 14-03-2009 08:40:05 5.4 C 77 % 1.7 C
1844 14-03-2009 08:52:05 5.6 C 75 % 1.53 C
1845 14-03-2009 09:04:04 5.9 C 74 % 1.63 C
1846 14-03-2009 09:16:04 6.2 C 72 % 1.54 C
1847 14-03-2009 09:28:04 6.3 C 70 % 1.24 C
1848 14-03-2009 09:40:04 6.8 C 70 % 1.72 C
1849 14-03-2009 09:52:04 7.1 C 66 % 1.19 C
1850 14-03-2009 10:04:04 7.4 C 65 % 1.26 C
Sensor: Nr:Datum:Temp:Feuchte:Taupunkt:
Aussen-T/F 1851 14-03-2009 10:16:03 7.9 C 64 % 1.52 C
1852 14-03-2009 10:28:03 8.5 C 61 % 1.42 C
1853 14-03-2009 10:40:04 9.4 C 58 % 1.57 C
1854 14-03-2009 10:52:03 9.8 C 57 % 1.7 C
1855 14-03-2009 11:04:03 10.4 C 55 % 1.76 C
1856 14-03-2009 11:16:03 10.9 C 53 % 1.71 C
1857 14-03-2009 11:28:03 11.3 C 52 % 1.81 C
1858 14-03-2009 11:40:03 11.6 C 50 % 1.54 C
1859 14-03-2009 11:52:02 12.1 C 48 % 1.44 C
1860 14-03-2009 12:04:03 12.5 C 45 % 0.91 C
1861 14-03-2009 12:16:03 12.4 C 43 % 0.19 C
1862 14-03-2009 12:28:03 13 C 43 % 0.73 C
1863 14-03-2009 12:40:02 13.4 C 41 % 0.43 C
1864 14-03-2009 12:52:03 13.7 C 40 % 0.36 C
1865 14-03-2009 13:04:02 13.6 C 40 % 0.27 C
1866 14-03-2009 13:16:02 13.8 C 40 % 0.45 C
1867 14-03-2009 13:28:02 14.1 C 39 % 0.37 C
1868 14-03-2009 13:40:02 14.5 C 38 % 0.37 C
1869 14-03-2009 13:52:02 14.7 C 37 % 0.18 C
1870 14-03-2009 14:04:01 15.4 C 35 % 0.04 C
1871 14-03-2009 14:16:01 15.8 C 34 % -0.01 C
1872 14-03-2009 14:28:01 15.9 C 33 % -0.33 C
1873 14-03-2009 14:40:01 15.9 C 33 % -0.33 C
1874 14-03-2009 14:52:01 16.9 C 30 % -0.76 C
1875 14-03-2009 15:04:01 17.5 C 30 % -0.25 C
Sensor: Nr:Datum:Temp:Feuchte:Taupunkt:
Aussen-T/F 1876 14-03-2009 15:16:01 17 C 31 % -0.23 C
1877 14-03-2009 15:28:01 16.1 C 35 % 0.65 C
1878 14-03-2009 15:40:01 15.7 C 37 % 1.07 C
1879 14-03-2009 15:52:00 16.8 C 35 % 1.27 C
1880 14-03-2009 16:04:01 17.2 C 33 % 0.81 C
1881 14-03-2009 16:16:00 16.2 C 35 % 0.74 C
1882 14-03-2009 16:28:00 15.6 C 38 % 1.35 C
1883 14-03-2009 16:40:00 15.7 C 39 % 1.8 C
1884 14-03-2009 16:52:00 15.4 C 39 % 1.53 C
1885 14-03-2009 17:04:00 15.4 C 39 % 1.53 C
1886 14-03-2009 17:16:00 15.4 C 40 % 1.89 C
1887 14-03-2009 17:28:00 15.2 C 41 % 2.05 C
1888 14-03-2009 17:39:59 15 C 41 % 1.87 C
1889 14-03-2009 17:52:00 14.7 C 43 % 2.27 C
1890 14-03-2009 18:04:59 14.5 C 43 % 2.09 C
1891 14-03-2009 18:16:59 14.4 C 44 % 2.32 C
1892 14-03-2009 18:28:59 14.2 C 45 % 2.45 C
1893 14-03-2009 18:40:59 14.1 C 46 % 2.67 C
1894 14-03-2009 18:52:59 13.8 C 51 % 3.85 C
1895 14-03-2009 19:04:58 12.3 C 67 % 6.36 C
1896 14-03-2009 19:16:59 11.5 C 77 % 7.61 C
1897 14-03-2009 19:28:59 11.1 C 81 % 7.97 C
1898 14-03-2009 19:40:59 11.4 C 83 % 8.62 C
1899 14-03-2009 19:52:58 10.7 C 83 % 7.93 C
1900 14-03-2009 20:04:59 10.4 C 83 % 7.64 C
Sensor: Nr:Datum:Temp:Feuchte:Taupunkt:
Aussen-T/F 1901 14-03-2009 20:16:58 10.4 C 84 % 7.82 C
1902 14-03-2009 20:28:58 10.3 C 84 % 7.72 C
1903 14-03-2009 20:40:59 10.2 C 85 % 7.79 C
1904 14-03-2009 20:52:57 10 C 83 % 7.25 C
1905 14-03-2009 21:04:57 9.6 C 74 % 5.2 C
1906 14-03-2009 21:16:58 9.6 C 74 % 5.2 C
1907 14-03-2009 21:28:57 9.4 C 76 % 5.39 C
1908 14-03-2009 21:40:57 9.3 C 77 % 5.48 C
1909 14-03-2009 21:52:57 9.1 C 78 % 5.47 C
1910 14-03-2009 22:04:57 9 C 79 % 5.56 C
1911 14-03-2009 22:17:58 9 C 78 % 5.38 C
1912 14-03-2009 22:29:58 9.1 C 76 % 5.1 C
1913 14-03-2009 22:41:58 9.2 C 75 % 5.01 C
1914 14-03-2009 22:53:58 9.2 C 74 % 4.81 C
1915 14-03-2009 23:05:58 9.2 C 74 % 4.81 C
1916 14-03-2009 23:17:58 9.2 C 73 % 4.62 C
1917 14-03-2009 23:29:58 9.2 C 67 % 3.4 C
1918 14-03-2009 23:41:58 9.1 C 66 % 3.09 C
1919 14-03-2009 23:53:58 9.1 C 64 % 2.66 C
1920 15-03-2009 00:05:58 9.1 C 63 % 2.44 C
1921 15-03-2009 00:17:58 9.1 C 62 % 2.22 C
1922 15-03-2009 00:29:58 9 C 62 % 2.12 C
1923 15-03-2009 00:41:58 9.1 C 61 % 1.99 C
1924 15-03-2009 00:53:58 9 C 61 % 1.89 C
1925 15-03-2009 01:05:58 9 C 61 % 1.89 C
Sensor: Nr:Datum:Temp:Feuchte:Taupunkt:
Aussen-T/F 1926 15-03-2009 01:17:58 9 C 60 % 1.66 C
1927 15-03-2009 01:29:58 8.8 C 63 % 2.16 C
1928 15-03-2009 01:41:58 8.8 C 62 % 1.93 C
1929 15-03-2009 01:53:59 8.9 C 62 % 2.03 C
1930 15-03-2009 02:05:59 8.8 C 62 % 1.93 C
1931 15-03-2009 02:16:59 8.6 C 65 % 2.4 C
1932 15-03-2009 02:28:59 8.9 C 64 % 2.47 C
1933 15-03-2009 02:40:59 8.8 C 63 % 2.16 C
1934 15-03-2009 02:52:59 8.8 C 64 % 2.38 C
1935 15-03-2009 03:04:59 8.6 C 65 % 2.4 C
1936 15-03-2009 03:16:59 8.7 C 64 % 2.28 C
1937 15-03-2009 03:28:59 8.6 C 63 % 1.97 C
1938 15-03-2009 03:40:59 8.6 C 62 % 1.74 C
1939 15-03-2009 03:52:59 8.6 C 61 % 1.52 C
1940 15-03-2009 04:04:59 8.6 C 61 % 1.52 C
1941 15-03-2009 04:16:59 8.6 C 60 % 1.29 C
1942 15-03-2009 04:28:59 8.6 C 61 % 1.52 C
1943 15-03-2009 04:40:59 8.6 C 61 % 1.52 C
1944 15-03-2009 04:52:59 8.6 C 61 % 1.52 C
1945 15-03-2009 05:04:59 8.6 C 61 % 1.52 C
1946 15-03-2009 05:16:59 8.5 C 61 % 1.42 C
1947 15-03-2009 05:28:59 8.5 C 61 % 1.42 C
1948 15-03-2009 05:40:59 8.5 C 61 % 1.42 C
1949 15-03-2009 05:53:00 8.5 C 60 % 1.19 C
1950 15-03-2009 06:05:00 8.5 C 59 % 0.96 C
Sensor: Nr:Datum:Temp:Feuchte:Taupunkt:
Aussen-T/F 1951 15-03-2009 06:17:00 8.5 C 58 % 0.72 C
1952 15-03-2009 06:29:00 8.5 C 58 % 0.72 C
1953 15-03-2009 06:41:00 8.4 C 58 % 0.63 C
1954 15-03-2009 06:53:00 8.4 C 58 % 0.63 C
1955 15-03-2009 07:05:00 8.4 C 57 % 0.39 C
1956 15-03-2009 07:17:00 8.4 C 56 % 0.15 C
1957 15-03-2009 07:29:00 8.4 C 56 % 0.15 C
1958 15-03-2009 07:41:00 8.5 C 56 % 0.24 C
1959 15-03-2009 07:53:00 8.5 C 56 % 0.24 C
1960 15-03-2009 08:05:00 8.5 C 55 % -0.01 C
1961 15-03-2009 08:17:00 8.5 C 55 % -0.01 C
1962 15-03-2009 08:29:00 8.9 C 55 % 0.36 C
1963 15-03-2009 08:41:00 8.7 C 55 % 0.18 C
1964 15-03-2009 08:53:00 8.8 C 55 % 0.27 C
1965 15-03-2009 09:05:58 8.8 C 55 % 0.27 C
1966 15-03-2009 09:17:58 8.8 C 55 % 0.27 C
1967 15-03-2009 09:29:58 8.9 C 54 % 0.11 C
1968 15-03-2009 09:41:58 9.1 C 54 % 0.3 C
1969 15-03-2009 09:53:57 9.2 C 52 % -0.13 C
1970 15-03-2009 10:05:58 9.3 C 52 % -0.04 C
1971 15-03-2009 10:17:57 9.3 C 51 % -0.3 C
1972 15-03-2009 10:29:57 9.3 C 50 % -0.57 C
1973 15-03-2009 10:41:57 9.6 C 49 % -0.57 C
1974 15-03-2009 10:53:57 9.7 C 48 % -0.76 C
1975 15-03-2009 11:05:57 9.9 C 47 % -0.87 C
Sensor: Nr:Datum:Temp:Feuchte:Taupunkt:
Aussen-T/F 1976 15-03-2009 11:17:57 10.1 C 47 % -0.69 C
1977 15-03-2009 11:29:56 10.2 C 45 % -1.19 C
1978 15-03-2009 11:41:56 10.4 C 46 % -0.7 C
1979 15-03-2009 11:53:57 10.5 C 45 % -0.91 C
1980 15-03-2009 12:05:56 10.8 C 43 % -1.26 C
1981 15-03-2009 12:17:56 11.2 C 39 % -2.22 C
1982 15-03-2009 12:29:56 11.4 C 38 % -2.39 C
1983 15-03-2009 12:41:56 11.4 C 38 % -2.39 C
1984 15-03-2009 12:53:56 11.5 C 33 % -4.19 C
1985 15-03-2009 13:05:55 11.3 C 32 % -4.77 C
1986 15-03-2009 13:17:56 11.5 C 32 % -4.6 C
1987 15-03-2009 13:29:56 11.2 C 34 % -4.06 C
1988 15-03-2009 13:41:56 11.1 C 35 % -3.76 C
1989 15-03-2009 13:53:55 11 C 36 % -3.47 C
1990 15-03-2009 14:05:56 10.9 C 40 % -2.15 C
1991 15-03-2009 14:17:55 11.1 C 40 % -1.97 C
1992 15-03-2009 14:29:55 11 C 40 % -2.06 C
1993 15-03-2009 14:41:56 10.8 C 41 % -1.91 C
1994 15-03-2009 14:53:55 10.7 C 40 % -2.33 C
1995 15-03-2009 15:05:55 10.6 C 43 % -1.44 C
1996 15-03-2009 15:17:54 10.6 C 45 % -0.82 C
1997 15-03-2009 15:29:54 10.9 C 45 % -0.55 C
1998 15-03-2009 15:41:54 10.8 C 44 % -0.95 C
1999 15-03-2009 15:53:54 10.6 C 44 % -1.13 C
2000 15-03-2009 16:05:54 10.7 C 45 % -0.73 C
Sensor: Nr:Datum:Temp:Feuchte:Taupunkt:
Aussen-T/F 2001 15-03-2009 16:17:54 10.8 C 45 % -0.64 C
2002 15-03-2009 16:29:54 10.8 C 45 % -0.64 C
2003 15-03-2009 16:41:54 10.7 C 45 % -0.73 C
2004 15-03-2009 16:53:54 10.6 C 45 % -0.82 C
2005 15-03-2009 17:05:53 10.6 C 46 % -0.52 C
2006 15-03-2009 17:17:54 10.4 C 48 % -0.12 C
2007 15-03-2009 17:29:53 10.1 C 52 % 0.7 C
2008 15-03-2009 17:41:53 9.9 C 54 % 1.04 C
2009 15-03-2009 17:53:53 9.9 C 53 % 0.78 C
2010 15-03-2009 18:05:53 9.8 C 53 % 0.69 C
2011 15-03-2009 18:17:53 9.8 C 54 % 0.95 C
2012 15-03-2009 18:29:53 9.7 C 54 % 0.86 C
2013 15-03-2009 18:41:53 9.8 C 52 % 0.43 C
2014 15-03-2009 18:53:52 9.8 C 51 % 0.16 C
2015 15-03-2009 19:05:02 9.8 C 50 % -0.11 C
2016 15-03-2009 19:17:01 9.7 C 51 % 0.07 C
2017 15-03-2009 19:29:01 9.6 C 52 % 0.24 C
2018 15-03-2009 19:41:02 9.5 C 53 % 0.41 C
2019 15-03-2009 19:53:01 9.5 C 53 % 0.41 C
2020 15-03-2009 20:05:02 9.4 C 55 % 0.83 C
2021 15-03-2009 20:17:01 9.2 C 56 % 0.89 C
2022 15-03-2009 20:29:01 9.2 C 57 % 1.14 C
2023 15-03-2009 20:41:01 9.1 C 59 % 1.52 C
2024 15-03-2009 20:53:01 9 C 60 % 1.66 C
2025 15-03-2009 21:05:01 9 C 60 % 1.66 C
Sensor: Nr:Datum:Temp:Feuchte:Taupunkt:
Aussen-T/F 2026 15-03-2009 21:17:00 8.9 C 62 % 2.03 C
2027 15-03-2009 21:29:00 8.9 C 63 % 2.25 C
2028 15-03-2009 21:41:01 8.9 C 64 % 2.47 C
2029 15-03-2009 21:54:08 8.7 C 64 % 2.28 C
2030 15-03-2009 22:06:08 8.7 C 65 % 2.5 C
2031 15-03-2009 22:18:08 8.7 C 65 % 2.5 C
2032 15-03-2009 22:30:08 8.6 C 66 % 2.62 C
2033 15-03-2009 22:42:08 8.5 C 67 % 2.73 C
2034 15-03-2009 22:54:08 8.4 C 67 % 2.64 C
2035 15-03-2009 23:06:08 8.4 C 67 % 2.64 C
2036 15-03-2009 23:18:09 8.4 C 68 % 2.85 C
2037 15-03-2009 23:30:09 8.3 C 68 % 2.75 C
2038 15-03-2009 23:42:09 8.3 C 68 % 2.75 C
2039 15-03-2009 23:54:09 8.1 C 70 % 2.97 C
2040 16-03-2009 00:06:09 8 C 71 % 3.07 C
2041 16-03-2009 00:18:09 8.1 C 71 % 3.17 C
2042 16-03-2009 00:30:09 8.1 C 71 % 3.17 C
2043 16-03-2009 00:42:09 8.1 C 70 % 2.97 C
2044 16-03-2009 00:54:09 8.1 C 69 % 2.77 C
2045 16-03-2009 01:06:09 8.2 C 68 % 2.66 C
2046 16-03-2009 01:18:09 8 C 69 % 2.67 C
2047 16-03-2009 01:30:09 7.8 C 73 % 3.27 C
2048 16-03-2009 01:42:09 7.7 C 75 % 3.56 C
2049 16-03-2009 01:54:09 7.5 C 77 % 3.74 C
2050 16-03-2009 02:06:09 7.4 C 78 % 3.82 C
Sensor: Nr:Datum:Temp:Feuchte:Taupunkt:
Aussen-T/F 2051 16-03-2009 02:18:09 7.4 C 79 % 4 C
2052 16-03-2009 02:30:09 7.4 C 79 % 4 C
2053 16-03-2009 02:42:09 7.3 C 80 % 4.09 C
2054 16-03-2009 02:54:09 7.2 C 81 % 4.16 C
2055 16-03-2009 03:06:09 7.2 C 81 % 4.16 C
2056 16-03-2009 03:18:09 7.1 C 82 % 4.24 C
2057 16-03-2009 03:30:10 7.1 C 82 % 4.24 C
2058 16-03-2009 03:42:10 6.9 C 83 % 4.22 C
2059 16-03-2009 03:54:10 6.8 C 84 % 4.29 C
2060 16-03-2009 04:06:10 6.8 C 84 % 4.29 C
2061 16-03-2009 04:18:10 6.8 C 85 % 4.46 C
2062 16-03-2009 04:30:10 6.7 C 85 % 4.36 C
2063 16-03-2009 04:42:10 6.7 C 85 % 4.36 C
2064 16-03-2009 04:54:10 6.8 C 86 % 4.63 C
2065 16-03-2009 05:06:10 6.7 C 86 % 4.53 C
2066 16-03-2009 05:18:10 6.5 C 85 % 4.17 C
2067 16-03-2009 05:30:10 6.6 C 86 % 4.43 C
2068 16-03-2009 05:42:10 6.7 C 86 % 4.53 C
2069 16-03-2009 05:54:01 6.6 C 86 % 4.43 C
2070 16-03-2009 06:06:01 6.6 C 86 % 4.43 C
2071 16-03-2009 06:18:01 6.6 C 86 % 4.43 C
2072 16-03-2009 06:30:01 6.6 C 86 % 4.43 C
2073 16-03-2009 06:42:01 6.7 C 86 % 4.53 C
2074 16-03-2009 06:54:00 6.6 C 85 % 4.26 C
2075 16-03-2009 07:06:01 6.5 C 85 % 4.17 C
Sensor: Nr:Datum:Temp:Feuchte:Taupunkt:
Aussen-T/F 2076 16-03-2009 07:18:00 6.5 C 85 % 4.17 C
2077 16-03-2009 07:30:00 6.6 C 86 % 4.43 C
2078 16-03-2009 07:42:00 6.7 C 86 % 4.53 C
2079 16-03-2009 07:53:59 6.8 C 86 % 4.63 C
2080 16-03-2009 08:06:00 6.9 C 86 % 4.72 C
2081 16-03-2009 08:18:00 7 C 85 % 4.66 C
2082 16-03-2009 08:30:00 7 C 84 % 4.49 C
2083 16-03-2009 08:42:59 7.1 C 84 % 4.58 C
2084 16-03-2009 08:54:00 7.2 C 84 % 4.68 C
2085 16-03-2009 09:06:59 7.4 C 84 % 4.88 C
2086 16-03-2009 09:18:59 7.3 C 83 % 4.61 C
2087 16-03-2009 09:30:58 7.2 C 81 % 4.16 C
2088 16-03-2009 09:42:58 7.3 C 79 % 3.91 C
2089 16-03-2009 09:54:59 7.6 C 79 % 4.2 C
2090 16-03-2009 10:06:59 7.9 C 78 % 4.31 C
2091 16-03-2009 10:18:58 8.2 C 75 % 4.04 C
2092 16-03-2009 10:30:59 8.4 C 72 % 3.65 C
2093 16-03-2009 10:42:59 8.7 C 69 % 3.34 C
2094 16-03-2009 10:54:58 8.8 C 68 % 3.23 C
2095 16-03-2009 11:06:58 8.8 C 66 % 2.81 C
2096 16-03-2009 11:18:57 9.1 C 64 % 2.66 C
2097 16-03-2009 11:30:58 9.2 C 62 % 2.31 C
2098 16-03-2009 11:42:58 9.5 C 61 % 2.37 C
2099 16-03-2009 11:54:57 9.7 C 61 % 2.55 C
2100 16-03-2009 12:06:57 10 C 57 % 1.89 C
Sensor: Nr:Datum:Temp:Feuchte:Taupunkt:
Aussen-T/F 2101 16-03-2009 12:18:58 9.9 C 55 % 1.3 C
2102 16-03-2009 12:30:57 9.5 C 56 % 1.17 C
2103 16-03-2009 12:42:57 9.5 C 57 % 1.42 C
2104 16-03-2009 12:54:57 9.8 C 57 % 1.7 C
2105 16-03-2009 13:06:57 10 C 55 % 1.39 C
2106 16-03-2009 13:18:57 10.2 C 55 % 1.58 C
2107 16-03-2009 13:30:56 10.1 C 52 % 0.7 C
2108 16-03-2009 13:42:56 9.8 C 55 % 1.2 C
2109 16-03-2009 13:54:56 9.5 C 56 % 1.17 C
2110 16-03-2009 14:06:56 9.4 C 56 % 1.08 C
2111 16-03-2009 14:18:56 9.5 C 56 % 1.17 C
2112 16-03-2009 14:30:56 9.5 C 55 % 0.92 C
2113 16-03-2009 14:42:56 9.7 C 56 % 1.36 C
2114 16-03-2009 14:54:56 9.9 C 55 % 1.3 C
2115 16-03-2009 15:06:56 10 C 54 % 1.13 C
2116 16-03-2009 15:18:55 10.3 C 54 % 1.41 C
2117 16-03-2009 15:30:55 9.9 C 53 % 0.78 C
2118 16-03-2009 15:42:55 9.8 C 55 % 1.2 C
2119 16-03-2009 15:54:55 9.9 C 55 % 1.3 C
2120 16-03-2009 16:06:55 9.7 C 56 % 1.36 C
2121 16-03-2009 16:18:55 9.8 C 56 % 1.45 C
2122 16-03-2009 16:30:55 9.8 C 56 % 1.45 C
2123 16-03-2009 16:42:55 10 C 55 % 1.39 C
2124 16-03-2009 16:54:55 9.8 C 55 % 1.2 C
2125 16-03-2009 17:06:54 9.7 C 57 % 1.61 C
Sensor: Nr:Datum:Temp:Feuchte:Taupunkt:
Aussen-T/F 2126 16-03-2009 17:18:55 9.7 C 57 % 1.61 C
2127 16-03-2009 17:30:54 9.7 C 57 % 1.61 C
2128 16-03-2009 17:42:54 9.6 C 57 % 1.51 C
2129 16-03-2009 17:54:54 9.2 C 58 % 1.38 C
2130 16-03-2009 18:06:53 9.2 C 59 % 1.62 C
2131 16-03-2009 18:18:54 9.2 C 60 % 1.85 C
2132 16-03-2009 18:30:54 9 C 60 % 1.66 C
2133 16-03-2009 18:42:54 8.9 C 62 % 2.03 C
2134 16-03-2009 18:54:53 8.7 C 63 % 2.06 C
2135 16-03-2009 19:06:54 8.7 C 64 % 2.28 C
2136 16-03-2009 19:18:53 8.6 C 65 % 2.4 C
2137 16-03-2009 19:30:53 8.5 C 65 % 2.31 C
2138 16-03-2009 19:42:54 8.5 C 66 % 2.52 C
2139 16-03-2009 19:54:53 8.4 C 66 % 2.43 C
2140 16-03-2009 20:06:53 8.4 C 66 % 2.43 C
2141 16-03-2009 20:18:52 8.4 C 66 % 2.43 C
2142 16-03-2009 20:30:53 8.4 C 65 % 2.21 C
2143 16-03-2009 20:42:53 8.3 C 65 % 2.12 C
2144 16-03-2009 20:54:52 8.3 C 65 % 2.12 C
2145 16-03-2009 21:06:52 8.2 C 66 % 2.24 C
2146 16-03-2009 21:18:52 8.2 C 66 % 2.24 C
2147 16-03-2009 21:30:51 8.2 C 66 % 2.24 C
2148 16-03-2009 21:42:51 8.1 C 65 % 1.93 C
2149 16-03-2009 21:54:52 8.1 C 65 % 1.93 C
2150 16-03-2009 22:06:51 8.1 C 65 % 1.93 C
Sensor: Nr:Datum:Temp:Feuchte:Taupunkt:
Aussen-T/F 2151 16-03-2009 22:19:53 8 C 64 % 1.62 C
2152 16-03-2009 22:31:54 8 C 64 % 1.62 C
2153 16-03-2009 22:43:54 8 C 64 % 1.62 C
2154 16-03-2009 22:55:54 7.9 C 64 % 1.52 C
2155 16-03-2009 23:07:54 8 C 64 % 1.62 C
2156 16-03-2009 23:19:54 8 C 64 % 1.62 C
2157 16-03-2009 23:31:54 8 C 64 % 1.62 C
2158 16-03-2009 23:43:54 7.9 C 66 % 1.95 C
2159 16-03-2009 23:55:54 7.9 C 66 % 1.95 C
2160 17-03-2009 00:07:54 7.8 C 67 % 2.07 C
2161 17-03-2009 00:19:54 7.8 C 65 % 1.64 C
2162 17-03-2009 00:31:54 7.8 C 65 % 1.64 C
2163 17-03-2009 00:43:54 7.7 C 65 % 1.55 C
2164 17-03-2009 00:55:54 7.7 C 63 % 1.11 C
2165 17-03-2009 01:07:54 7.7 C 62 % 0.89 C
2166 17-03-2009 01:19:54 7.4 C 62 % 0.61 C
2167 17-03-2009 01:31:54 6.7 C 65 % 0.6 C
2168 17-03-2009 01:43:54 6.1 C 66 % 0.24 C
2169 17-03-2009 01:55:54 5.8 C 69 % 0.56 C
2170 17-03-2009 02:07:54 5.6 C 69 % 0.37 C
2171 17-03-2009 02:19:54 5.3 C 70 % 0.28 C
2172 17-03-2009 02:31:55 5.1 C 71 % 0.29 C
2173 17-03-2009 02:43:55 5 C 72 % 0.38 C
2174 17-03-2009 02:55:55 4.9 C 73 % 0.48 C
2175 17-03-2009 03:07:55 4.7 C 74 % 0.47 C
Sensor: Nr:Datum:Temp:Feuchte:Taupunkt:
Aussen-T/F 2176 17-03-2009 03:19:55 4.7 C 74 % 0.47 C
2177 17-03-2009 03:31:55 4.5 C 75 % 0.46 C
2178 17-03-2009 03:43:55 4.3 C 76 % 0.45 C
2179 17-03-2009 03:55:55 4.1 C 77 % 0.44 C
2180 17-03-2009 04:07:55 4 C 78 % 0.52 C
2181 17-03-2009 04:19:55 3.9 C 79 % 0.6 C
2182 17-03-2009 04:31:55 4 C 78 % 0.52 C
2183 17-03-2009 04:43:55 4 C 79 % 0.7 C
2184 17-03-2009 04:55:55 3.8 C 80 % 0.68 C
2185 17-03-2009 05:07:55 3.5 C 80 % 0.38 C
2186 17-03-2009 05:19:55 3.3 C 80 % 0.19 C
2187 17-03-2009 05:31:55 3.2 C 81 % 0.26 C
2188 17-03-2009 05:43:55 3.2 C 81 % 0.26 C
2189 17-03-2009 05:55:55 3.2 C 82 % 0.43 C
2190 17-03-2009 06:07:55 3 C 82 % 0.24 C
2191 17-03-2009 06:19:56 3 C 82 % 0.24 C
2192 17-03-2009 06:31:56 3 C 83 % 0.4 C
2193 17-03-2009 06:43:56 3.1 C 83 % 0.5 C
2194 17-03-2009 06:55:56 3.3 C 83 % 0.7 C
2195 17-03-2009 07:07:52 3.5 C 83 % 0.89 C
2196 17-03-2009 07:19:52 3.5 C 81 % 0.55 C
2197 17-03-2009 07:31:52 3.6 C 80 % 0.48 C
2198 17-03-2009 07:43:52 3.5 C 80 % 0.38 C
2199 17-03-2009 07:55:52 3.5 C 80 % 0.38 C
2200 17-03-2009 08:07:51 3.5 C 80 % 0.38 C
Sensor: Nr:Datum:Temp:Feuchte:Taupunkt:
Aussen-T/F 2201 17-03-2009 08:19:51 3.7 C 80 % 0.58 C
2202 17-03-2009 08:31:52 3.8 C 80 % 0.68 C
2203 17-03-2009 08:43:52 3.9 C 79 % 0.6 C
2204 17-03-2009 08:55:51 4.2 C 79 % 0.89 C
2205 17-03-2009 09:07:51 5 C 77 % 1.31 C
2206 17-03-2009 09:19:50 5.8 C 72 % 1.15 C
2207 17-03-2009 09:31:51 6.3 C 68 % 0.84 C
2208 17-03-2009 09:43:51 6.5 C 66 % 0.62 C
2209 17-03-2009 09:55:50 6.5 C 66 % 0.62 C
2210 17-03-2009 10:07:50 6.8 C 65 % 0.69 C
2211 17-03-2009 10:19:51 7.2 C 64 % 0.86 C
2212 17-03-2009 10:31:50 7.9 C 62 % 1.08 C
2213 17-03-2009 10:43:50 8.4 C 60 % 1.1 C
2214 17-03-2009 10:55:50 9 C 57 % 0.95 C
2215 17-03-2009 11:07:50 10.1 C 53 % 0.97 C
2216 17-03-2009 11:19:50 11.4 C 50 % 1.36 C
2217 17-03-2009 11:31:50 11.7 C 47 % 0.78 C
2218 17-03-2009 11:43:50 11.6 C 47 % 0.69 C
2219 17-03-2009 11:55:50 11.4 C 48 % 0.79 C
2220 17-03-2009 12:07:50 11.5 C 49 % 1.17 C
2221 17-03-2009 12:19:49 11.2 C 50 % 1.18 C
2222 17-03-2009 12:31:49 12 C 48 % 1.34 C
2223 17-03-2009 12:43:49 13.3 C 43 % 1 C
2224 17-03-2009 12:55:49 13.7 C 42 % 1.04 C
2225 17-03-2009 13:07:49 14.1 C 40 % 0.72 C
Sensor: Nr:Datum:Temp:Feuchte:Taupunkt:
Aussen-T/F 2226 17-03-2009 13:19:48 14.1 C 39 % 0.37 C
2227 17-03-2009 13:31:48 13.9 C 39 % 0.19 C
2228 17-03-2009 13:43:48 14.2 C 39 % 0.46 C
2229 17-03-2009 13:55:48 14.7 C 38 % 0.55 C
2230 17-03-2009 14:07:48 15.4 C 35 % 0.04 C
2231 17-03-2009 14:19:48 14.2 C 38 % 0.1 C
2232 17-03-2009 14:31:48 13.8 C 41 % 0.79 C
2233 17-03-2009 14:43:48 13.2 C 42 % 0.59 C
2234 17-03-2009 14:55:48 12.5 C 44 % 0.59 C
2235 17-03-2009 15:07:47 12.4 C 45 % 0.81 C
2236 17-03-2009 15:19:48 12.5 C 46 % 1.21 C
2237 17-03-2009 15:31:47 12.7 C 45 % 1.09 C
2238 17-03-2009 15:43:47 12.8 C 45 % 1.18 C
2239 17-03-2009 15:55:47 12.8 C 45 % 1.18 C
2240 17-03-2009 16:07:47 12.5 C 45 % 0.91 C
2241 17-03-2009 16:19:47 12.6 C 46 % 1.3 C
2242 17-03-2009 16:31:47 12.5 C 45 % 0.91 C
2243 17-03-2009 16:43:47 12.6 C 45 % 1 C
2244 17-03-2009 16:55:46 12.1 C 43 % -0.08 C
2245 17-03-2009 17:07:47 12 C 45 % 0.45 C
2246 17-03-2009 17:19:46 11.9 C 47 % 0.96 C
2247 17-03-2009 17:31:46 12.6 C 44 % 0.69 C
2248 17-03-2009 17:43:46 12.2 C 44 % 0.32 C
2249 17-03-2009 17:55:46 12 C 43 % -0.17 C
2250 17-03-2009 18:07:46 11.7 C 45 % 0.18 C
Sensor: Nr:Datum:Temp:Feuchte:Taupunkt:
Aussen-T/F 2251 17-03-2009 18:19:46 11.2 C 46 % 0.02 C
2252 17-03-2009 18:31:45 10.7 C 49 % 0.44 C
2253 17-03-2009 18:43:45 10.2 C 51 % 0.53 C
2254 17-03-2009 18:55:46 9.5 C 55 % 0.92 C
2255 17-03-2009 19:07:45 9.2 C 56 % 0.89 C
2256 17-03-2009 19:19:45 8.7 C 59 % 1.15 C
2257 17-03-2009 19:31:45 8.5 C 59 % 0.96 C
2258 17-03-2009 19:43:45 8.1 C 60 % 0.82 C
2259 17-03-2009 19:55:45 7.8 C 63 % 1.21 C
2260 17-03-2009 20:07:44 7.6 C 64 % 1.24 C
2261 17-03-2009 20:19:44 7.3 C 65 % 1.17 C
2262 17-03-2009 20:31:45 7.1 C 65 % 0.98 C
2263 17-03-2009 20:43:45 6.9 C 68 % 1.41 C
2264 17-03-2009 20:55:44 6.5 C 68 % 1.03 C
2265 17-03-2009 21:07:44 6.3 C 70 % 1.24 C
2266 17-03-2009 21:19:44 6.2 C 71 % 1.34 C
2267 17-03-2009 21:31:44 5.7 C 71 % 0.86 C
2268 17-03-2009 21:43:44 5.7 C 73 % 1.25 C
2269 17-03-2009 21:56:45 5.5 C 73 % 1.06 C
2270 17-03-2009 22:08:45 5.3 C 74 % 1.05 C
2271 17-03-2009 22:20:46 5.1 C 75 % 1.04 C
2272 17-03-2009 22:32:46 4.9 C 77 % 1.22 C
2273 17-03-2009 22:44:46 4.8 C 77 % 1.12 C
2274 17-03-2009 22:56:46 4.7 C 77 % 1.02 C
2275 17-03-2009 23:08:46 4.6 C 77 % 0.92 C
Sensor: Nr:Datum:Temp:Feuchte:Taupunkt:
Aussen-T/F 2276 17-03-2009 23:20:46 4.3 C 77 % 0.63 C
2277 17-03-2009 23:32:46 4.2 C 78 % 0.71 C
2278 17-03-2009 23:44:46 4 C 79 % 0.7 C
2279 17-03-2009 23:56:46 3.8 C 80 % 0.68 C
2280 18-03-2009 00:08:46 3.6 C 81 % 0.65 C
2281 18-03-2009 00:20:46 3.3 C 81 % 0.36 C
2282 18-03-2009 00:32:46 3.2 C 82 % 0.43 C
2283 18-03-2009 00:44:46 2.9 C 83 % 0.31 C
2284 18-03-2009 00:56:46 2.8 C 82 % 0.04 C
2285 18-03-2009 01:08:46 2.7 C 83 % 0.11 C
2286 18-03-2009 01:20:46 2.6 C 83 % 0.01 C
2287 18-03-2009 01:32:46 2.4 C 83 % -0.18 C
2288 18-03-2009 01:44:46 2.2 C 83 % -0.38 C
2289 18-03-2009 01:56:46 2.1 C 83 % -0.48 C
2290 18-03-2009 02:08:47 1.9 C 84 % -0.51 C
2291 18-03-2009 02:20:47 1.8 C 84 % -0.61 C
2292 18-03-2009 02:32:47 1.5 C 84 % -0.9 C
2293 18-03-2009 02:44:47 1.5 C 85 % -0.74 C
2294 18-03-2009 02:56:47 1.4 C 85 % -0.84 C
2295 18-03-2009 03:08:47 1.2 C 85 % -1.03 C
2296 18-03-2009 03:20:47 0.9 C 85 % -1.33 C
2297 18-03-2009 03:32:47 0.8 C 85 % -1.43 C
2298 18-03-2009 03:44:47 0.6 C 85 % -1.62 C
2299 18-03-2009 03:56:47 0.4 C 85 % -1.82 C
2300 18-03-2009 04:08:47 0.3 C 85 % -1.92 C
Sensor: Nr:Datum:Temp:Feuchte:Taupunkt:
Aussen-T/F 2301 18-03-2009 04:20:47 0.2 C 86 % -1.86 C
2302 18-03-2009 04:32:47 0.1 C 86 % -1.96 C
2303 18-03-2009 04:44:47 0.1 C 87 % -1.8 C
2304 18-03-2009 04:56:47 0 C 87 % -1.9 C
2305 18-03-2009 05:08:47 -0.1 C 87 % -2 C
2306 18-03-2009 05:20:47 0 C 88 % -1.74 C
2307 18-03-2009 05:32:47 0 C 88 % -1.74 C
2308 18-03-2009 05:44:47 -0.1 C 88 % -1.84 C
2309 18-03-2009 05:56:47 -0.2 C 88 % -1.94 C
2310 18-03-2009 06:08:48 -0.2 C 88 % -1.94 C
2311 18-03-2009 06:20:48 -0.1 C 89 % -1.69 C
2312 18-03-2009 06:32:44 0 C 89 % -1.59 C
2313 18-03-2009 06:44:45 0 C 89 % -1.59 C
2314 18-03-2009 06:56:45 0.2 C 89 % -1.39 C
2315 18-03-2009 07:08:44 0.2 C 89 % -1.39 C
2316 18-03-2009 07:20:44 0.2 C 89 % -1.39 C
2317 18-03-2009 07:32:44 0.2 C 89 % -1.39 C
2318 18-03-2009 07:44:44 0.2 C 89 % -1.39 C
2319 18-03-2009 07:56:44 0.1 C 88 % -1.65 C
2320 18-03-2009 08:08:44 0.1 C 88 % -1.65 C
2321 18-03-2009 08:20:43 0.1 C 88 % -1.65 C
2322 18-03-2009 08:32:44 0.5 C 88 % -1.25 C
2323 18-03-2009 08:44:43 1.2 C 88 % -0.56 C
2324 18-03-2009 08:56:43 1.2 C 85 % -1.03 C
2325 18-03-2009 09:08:43 1.7 C 84 % -0.71 C
Sensor: Nr:Datum:Temp:Feuchte:Taupunkt:
Aussen-T/F 2326 18-03-2009 09:20:43 1.9 C 82 % -0.84 C
2327 18-03-2009 09:32:43 1.9 C 80 % -1.18 C
2328 18-03-2009 09:44:43 2.5 C 79 % -0.76 C
2329 18-03-2009 09:56:43 2.8 C 77 % -0.82 C
2330 18-03-2009 10:08:43 3.3 C 74 % -0.88 C
2331 18-03-2009 10:20:42 3.6 C 73 % -0.78 C
2332 18-03-2009 10:32:42 3.8 C 74 % -0.4 C
2333 18-03-2009 10:44:42 4.6 C 73 % 0.19 C
2334 18-03-2009 10:56:42 5.2 C 67 % -0.41 C
2335 18-03-2009 11:08:42 5.9 C 62 % -0.81 C
2336 18-03-2009 11:20:41 6.5 C 58 % -1.15 C
2337 18-03-2009 11:32:42 6.8 C 57 % -1.11 C
2338 18-03-2009 11:44:41 7.3 C 54 % -1.38 C
2339 18-03-2009 11:56:41 7.9 C 51 % -1.6 C
2340 18-03-2009 12:08:41 8.2 C 45 % -3.01 C
2341 18-03-2009 12:20:42 8.6 C 41 % -3.89 C
2342 18-03-2009 12:32:41 9.4 C 37 % -4.53 C
2343 18-03-2009 12:44:41 9.7 C 25 % -9.35 C
2344 18-03-2009 12:56:41 10.2 C 23 % -9.98 C
2345 18-03-2009 13:08:40 11 C 20 % -11.06 C
2346 18-03-2009 13:20:41 11.8 C 20 % -10.4 C
2347 18-03-2009 13:32:41 12.6 C 20 % -9.73 C
2348 18-03-2009 13:44:40 13 C 20 % -9.4 C
2349 18-03-2009 13:56:40 13.1 C 20 % -9.32 C
2350 18-03-2009 14:08:41 13.2 C 20 % -9.24 C
Sensor: Nr:Datum:Temp:Feuchte:Taupunkt:
Aussen-T/F 2351 18-03-2009 14:20:40 12.9 C 20 % -9.49 C
2352 18-03-2009 14:32:40 13.1 C 20 % -9.32 C
2353 18-03-2009 14:44:40 13.6 C 20 % -8.91 C
2354 18-03-2009 14:56:40 13.8 C 20 % -8.74 C
2355 18-03-2009 15:08:40 14.1 C 20 % -8.49 C
2356 18-03-2009 15:20:39 14 C 20 % -8.57 C
2357 18-03-2009 15:32:39 13.7 C 20 % -8.82 C
2358 18-03-2009 15:44:39 14.7 C 20 % -7.99 C
2359 18-03-2009 15:56:39 15.3 C 20 % -7.5 C
2360 18-03-2009 16:08:39 15.2 C 20 % -7.58 C
2361 18-03-2009 16:20:39 14.6 C 20 % -8.08 C
2362 18-03-2009 16:32:39 14.3 C 20 % -8.33 C
2363 18-03-2009 16:44:39 14 C 20 % -8.57 C
2364 18-03-2009 16:56:39 14.9 C 20 % -7.83 C
2365 18-03-2009 17:08:38 14.6 C 20 % -8.08 C
2366 18-03-2009 17:20:38 14.7 C 20 % -7.99 C
2367 18-03-2009 17:32:38 13.7 C 20 % -8.82 C
2368 18-03-2009 17:44:38 12.5 C 20 % -9.82 C
2369 18-03-2009 17:56:38 12.6 C 20 % -9.73 C
2370 18-03-2009 18:08:37 11.9 C 20 % -10.31 C
2371 18-03-2009 18:20:38 11.3 C 20 % -10.81 C
2372 18-03-2009 18:32:38 10.1 C 20 % -11.81 C
2373 18-03-2009 18:44:37 9.1 C 20 % -12.64 C
2374 18-03-2009 18:56:37 8.5 C 20 % -13.14 C
2375 18-03-2009 19:08:38 8.1 C 26 % -10.22 C
Sensor: Nr:Datum:Temp:Feuchte:Taupunkt:
Aussen-T/F 2376 18-03-2009 19:20:37 7.9 C 26 % -10.39 C
2377 18-03-2009 19:32:37 7.4 C 29 % -9.44 C
2378 18-03-2009 19:44:36 7.1 C 26 % -11.07 C
2379 18-03-2009 19:56:36 6.9 C 27 % -10.77 C
2380 18-03-2009 20:08:37 6.8 C 30 % -9.53 C
2381 18-03-2009 20:20:37 6.7 C 31 % -9.21 C
2382 18-03-2009 20:32:36 6.7 C 35 % -7.65 C
2383 18-03-2009 20:44:37 6.8 C 32 % -8.71 C
2384 18-03-2009 20:56:37 6.8 C 35 % -7.57 C
2385 18-03-2009 21:08:36 6.7 C 35 % -7.65 C
2386 18-03-2009 21:20:36 6.6 C 37 % -7.03 C
2387 18-03-2009 21:32:36 6.6 C 36 % -7.38 C
2388 18-03-2009 21:44:35 6.4 C 36 % -7.56 C
2389 18-03-2009 21:56:35 6 C 37 % -7.56 C
2390 18-03-2009 22:08:36 5.7 C 40 % -6.82 C
2391 18-03-2009 22:21:36 5.6 C 40 % -6.91 C
2392 18-03-2009 22:33:36 5.5 C 40 % -7 C
2393 18-03-2009 22:45:36 5.2 C 38 % -7.93 C
2394 18-03-2009 22:57:37 4.9 C 40 % -7.54 C
2395 18-03-2009 23:09:37 4.7 C 39 % -8.05 C
2396 18-03-2009 23:21:37 4.5 C 42 % -7.27 C
2397 18-03-2009 23:33:37 4.2 C 41 % -7.86 C
2398 18-03-2009 23:45:37 3.9 C 43 % -7.51 C
2399 18-03-2009 23:57:37 3.5 C 44 % -7.58 C
2400 19-03-2009 00:09:37 3.3 C 45 % -7.47 C
Sensor: Nr:Datum:Temp:Feuchte:Taupunkt:
Aussen-T/F 2401 19-03-2009 00:21:37 3.1 C 46 % -7.37 C
2402 19-03-2009 00:33:37 3 C 48 % -6.92 C
2403 19-03-2009 00:45:37 2.7 C 49 % -6.92 C
2404 19-03-2009 00:57:37 2.4 C 51 % -6.68 C
2405 19-03-2009 01:09:37 2.3 C 51 % -6.78 C
2406 19-03-2009 01:21:37 2.1 C 53 % -6.46 C
2407 19-03-2009 01:33:37 1.8 C 56 % -6.02 C
2408 19-03-2009 01:45:37 1.8 C 56 % -6.02 C
2409 19-03-2009 01:57:37 1.5 C 56 % -6.3 C
2410 19-03-2009 02:09:37 1.4 C 56 % -6.4 C
2411 19-03-2009 02:21:37 1.3 C 56 % -6.49 C
2412 19-03-2009 02:33:37 1.2 C 57 % -6.36 C
2413 19-03-2009 02:45:38 0.9 C 58 % -6.41 C
2414 19-03-2009 02:57:38 0.7 C 59 % -6.38 C
2415 19-03-2009 03:09:38 0.6 C 60 % -6.25 C
2416 19-03-2009 03:21:38 0.5 C 60 % -6.35 C
2417 19-03-2009 03:33:38 0.4 C 60 % -6.44 C
2418 19-03-2009 03:45:38 0.2 C 61 % -6.41 C
2419 19-03-2009 03:57:38 0.1 C 61 % -6.51 C
2420 19-03-2009 04:09:38 0 C 62 % -6.39 C
2421 19-03-2009 04:21:38 -0.2 C 63 % -6.38 C
2422 19-03-2009 04:33:38 -0.3 C 64 % -6.27 C
2423 19-03-2009 04:45:38 -0.4 C 65 % -6.16 C
2424 19-03-2009 04:57:38 -0.5 C 66 % -6.06 C
2425 19-03-2009 05:09:38 -0.6 C 66 % -6.16 C
Sensor: Nr:Datum:Temp:Feuchte:Taupunkt:
Aussen-T/F 2426 19-03-2009 05:21:38 -0.7 C 66 % -6.25 C
2427 19-03-2009 05:33:38 -0.8 C 67 % -6.15 C
2428 19-03-2009 05:45:38 -0.9 C 68 % -6.05 C
2429 19-03-2009 05:57:38 -1.1 C 68 % -6.24 C
2430 19-03-2009 06:09:38 -1.1 C 68 % -6.24 C
2431 19-03-2009 06:21:38 -1.2 C 67 % -6.53 C
2432 19-03-2009 06:33:39 -1.2 C 67 % -6.53 C
2433 19-03-2009 06:45:39 -1.3 C 68 % -6.43 C
2434 19-03-2009 06:57:39 -1.3 C 68 % -6.43 C
2435 19-03-2009 07:09:36 -1.5 C 67 % -6.82 C
2436 19-03-2009 07:21:36 -1.4 C 68 % -6.53 C
2437 19-03-2009 07:33:35 -1.3 C 68 % -6.43 C
2438 19-03-2009 07:45:35 -1.2 C 68 % -6.34 C
2439 19-03-2009 07:57:35 -1.1 C 68 % -6.24 C
2440 19-03-2009 08:09:35 -0.9 C 68 % -6.05 C
2441 19-03-2009 08:21:35 -0.8 C 69 % -5.77 C
2442 19-03-2009 08:33:35 -0.3 C 69 % -5.29 C
2443 19-03-2009 08:45:35 0.4 C 67 % -5 C
2444 19-03-2009 08:57:35 0.9 C 64 % -5.12 C
2445 19-03-2009 09:09:35 1.6 C 60 % -5.31 C
2446 19-03-2009 09:21:34 1.9 C 58 % -5.47 C
2447 19-03-2009 09:33:34 2 C 53 % -6.55 C
2448 19-03-2009 09:45:34 2.2 C 52 % -6.62 C
2449 19-03-2009 09:57:34 2.5 C 54 % -5.85 C
2450 19-03-2009 10:09:34 2.8 C 53 % -5.81 C
Sensor: Nr:Datum:Temp:Feuchte:Taupunkt:
Aussen-T/F 2451 19-03-2009 10:21:34 3.2 C 50 % -6.2 C
2452 19-03-2009 10:33:34 4.1 C 49 % -5.63 C
2453 19-03-2009 10:45:34 4.6 C 47 % -5.72 C
2454 19-03-2009 10:57:34 5.3 C 45 % -5.65 C
2455 19-03-2009 11:09:33 5.6 C 44 % -5.67 C
2456 19-03-2009 11:21:34 6.5 C 42 % -5.46 C
2457 19-03-2009 11:33:33 6.5 C 40 % -6.1 C
2458 19-03-2009 11:45:33 7.1 C 41 % -5.24 C
2459 19-03-2009 11:57:33 7.3 C 38 % -6.05 C
2460 19-03-2009 12:09:32 7.6 C 38 % -5.79 C
2461 19-03-2009 12:21:33 8.7 C 34 % -6.26 C
2462 19-03-2009 12:33:33 9.5 C 27 % -8.54 C
2463 19-03-2009 12:45:32 9.8 C 25 % -9.26 C
2464 19-03-2009 12:57:32 9.9 C 25 % -9.18 C
2465 19-03-2009 13:09:33 10.7 C 23 % -9.56 C
2466 19-03-2009 13:21:32 11.1 C 20 % -10.98 C
2467 19-03-2009 13:33:32 11.9 C 21 % -9.7 C
2468 19-03-2009 13:45:32 13.5 C 20 % -8.99 C
2469 19-03-2009 13:57:32 14 C 20 % -8.57 C
2470 19-03-2009 14:09:32 14.2 C 20 % -8.41 C
2471 19-03-2009 14:21:31 14.7 C 20 % -7.99 C
2472 19-03-2009 14:33:31 14.3 C 20 % -8.33 C
2473 19-03-2009 14:45:32 15.7 C 20 % -7.17 C
2474 19-03-2009 14:57:32 15.8 C 20 % -7.08 C
2475 19-03-2009 15:09:31 14.4 C 20 % -8.24 C
Sensor: Nr:Datum:Temp:Feuchte:Taupunkt:
Aussen-T/F 2476 19-03-2009 15:21:31 15.2 C 20 % -7.58 C
2477 19-03-2009 15:33:30 15.2 C 20 % -7.58 C
2478 19-03-2009 15:45:31 16.5 C 20 % -6.5 C
2479 19-03-2009 15:57:31 15.1 C 20 % -7.66 C
2480 19-03-2009 16:09:30 13.8 C 20 % -8.74 C
2481 19-03-2009 16:21:30 13.2 C 20 % -9.24 C
2482 19-03-2009 16:33:31 13.5 C 20 % -8.99 C
2483 19-03-2009 16:45:30 12.7 C 20 % -9.65 C
2484 19-03-2009 16:57:30 12.4 C 20 % -9.9 C
2485 19-03-2009 17:09:30 12.3 C 20 % -9.98 C
2486 19-03-2009 17:21:30 12.5 C 20 % -9.82 C
2487 19-03-2009 17:33:30 12.5 C 20 % -9.82 C
2488 19-03-2009 17:45:29 11.8 C 20 % -10.4 C
2489 19-03-2009 17:57:29 11.1 C 20 % -10.98 C
2490 19-03-2009 18:09:30 10.9 C 20 % -11.14 C
2491 19-03-2009 18:21:29 10.2 C 20 % -11.73 C
2492 19-03-2009 18:33:29 9.8 C 20 % -12.06 C
2493 19-03-2009 18:45:28 9.3 C 20 % -12.47 C
2494 19-03-2009 18:57:28 8.9 C 26 % -9.53 C
2495 19-03-2009 19:09:29 8.8 C 26 % -9.62 C
2496 19-03-2009 19:21:29 8.3 C 28 % -9.11 C
2497 19-03-2009 19:33:28 7.9 C 30 % -8.58 C
2498 19-03-2009 19:45:29 7.6 C 30 % -8.84 C
2499 19-03-2009 19:57:29 7.4 C 31 % -8.59 C
2500 19-03-2009 20:09:28 7.4 C 31 % -8.59 C
Sensor: Nr:Datum:Temp:Feuchte:Taupunkt:
Aussen-T/F 2501 19-03-2009 20:21:29 7.2 C 32 % -8.36 C
2502 19-03-2009 20:33:28 6.9 C 35 % -7.48 C
2503 19-03-2009 20:45:27 6.7 C 36 % -7.29 C
2504 19-03-2009 20:57:27 6.3 C 38 % -6.95 C
2505 19-03-2009 21:09:27 6 C 37 % -7.56 C
2506 19-03-2009 21:21:28 5.8 C 38 % -7.4 C
2507 19-03-2009 21:33:27 5.6 C 39 % -7.24 C
2508 19-03-2009 21:45:27 5.3 C 40 % -7.18 C
2509 19-03-2009 21:57:27 5.1 C 40 % -7.36 C
2510 19-03-2009 22:09:28 4.9 C 42 % -6.91 C
2511 19-03-2009 22:22:28 4.7 C 43 % -6.79 C
2512 19-03-2009 22:34:28 4.5 C 42 % -7.27 C
2513 19-03-2009 22:46:28 4.2 C 44 % -6.94 C
2514 19-03-2009 22:58:28 4.1 C 43 % -7.33 C
2515 19-03-2009 23:10:28 3.7 C 47 % -6.55 C
2516 19-03-2009 23:22:28 3.6 C 47 % -6.64 C
2517 19-03-2009 23:34:29 3.5 C 47 % -6.73 C
2518 19-03-2009 23:46:29 3.3 C 48 % -6.64 C
2519 19-03-2009 23:58:29 3.1 C 49 % -6.56 C
2520 20-03-2009 00:10:29 2.9 C 51 % -6.22 C
2521 20-03-2009 00:22:29 2.7 C 53 % -5.9 C
2522 20-03-2009 00:34:29 2.5 C 54 % -5.85 C
2523 20-03-2009 00:46:29 2.4 C 54 % -5.94 C
2524 20-03-2009 00:58:29 2.3 C 55 % -5.79 C
2525 20-03-2009 01:10:29 2 C 56 % -5.84 C
Sensor: Nr:Datum:Temp:Feuchte:Taupunkt:
Aussen-T/F 2526 20-03-2009 01:22:29 1.9 C 58 % -5.47 C
2527 20-03-2009 01:34:29 1.8 C 59 % -5.34 C
2528 20-03-2009 01:46:29 1.4 C 59 % -5.72 C
2529 20-03-2009 01:58:29 1.3 C 60 % -5.59 C
2530 20-03-2009 02:10:29 1.1 C 60 % -5.78 C
2531 20-03-2009 02:22:29 0.8 C 62 % -5.63 C
2532 20-03-2009 02:34:29 0.5 C 61 % -6.13 C
2533 20-03-2009 02:46:29 0.4 C 63 % -5.8 C
2534 20-03-2009 02:58:29 0.2 C 63 % -5.99 C
2535 20-03-2009 03:10:29 0.1 C 64 % -5.88 C
2536 20-03-2009 03:22:29 0 C 65 % -5.78 C
2537 20-03-2009 03:34:30 0 C 65 % -5.78 C
2538 20-03-2009 03:46:30 -0.2 C 65 % -5.97 C
2539 20-03-2009 03:58:30 -0.3 C 66 % -5.87 C
2540 20-03-2009 04:10:30 -0.5 C 66 % -6.06 C
2541 20-03-2009 04:22:30 -0.7 C 67 % -6.05 C
2542 20-03-2009 04:34:30 -0.7 C 66 % -6.25 C
2543 20-03-2009 04:46:30 -0.6 C 66 % -6.16 C
2544 20-03-2009 04:58:30 -0.4 C 63 % -6.57 C
2545 20-03-2009 05:10:30 -0.4 C 60 % -7.2 C
2546 20-03-2009 05:22:30 -0.3 C 59 % -7.33 C
2547 20-03-2009 05:34:30 -0.5 C 60 % -7.3 C
2548 20-03-2009 05:46:30 -0.4 C 59 % -7.42 C
2549 20-03-2009 05:58:30 -0.6 C 58 % -7.83 C
2550 20-03-2009 06:10:30 -0.4 C 55 % -8.33 C
Sensor: Nr:Datum:Temp:Feuchte:Taupunkt:
Aussen-T/F 2551 20-03-2009 06:22:30 -0.4 C 56 % -8.09 C
2552 20-03-2009 06:34:30 -0.8 C 60 % -7.58 C
2553 20-03-2009 06:46:27 -0.9 C 62 % -7.25 C
2554 20-03-2009 06:58:27 -0.9 C 62 % -7.25 C
2555 20-03-2009 07:10:27 -1.1 C 61 % -7.65 C
2556 20-03-2009 07:22:28 -1.1 C 62 % -7.44 C
2557 20-03-2009 07:34:27 -1 C 61 % -7.56 C
2558 20-03-2009 07:46:27 -0.7 C 60 % -7.49 C
2559 20-03-2009 07:58:27 -0.4 C 60 % -7.2 C
2560 20-03-2009 08:10:27 -0.6 C 60 % -7.39 C
2561 20-03-2009 08:22:27 -0.6 C 60 % -7.39 C
2562 20-03-2009 08:34:26 -0.4 C 62 % -6.78 C
2563 20-03-2009 08:46:26 -0.1 C 62 % -6.5 C
2564 20-03-2009 08:58:26 0.3 C 58 % -6.97 C
2565 20-03-2009 09:10:26 0.8 C 56 % -6.96 C
2566 20-03-2009 09:22:26 1.5 C 52 % -7.27 C
2567 20-03-2009 09:34:26 2.5 C 45 % -8.2 C
2568 20-03-2009 09:46:25 3.1 C 45 % -7.66 C
2569 20-03-2009 09:58:25 3.5 C 45 % -7.29 C
2570 20-03-2009 10:10:26 3.9 C 40 % -8.44 C
2571 20-03-2009 10:22:26 4.6 C 32 % -10.64 C
2572 20-03-2009 10:34:25 5.1 C 25 % -13.27 C
2573 20-03-2009 10:46:25 5.6 C 20 % -15.55 C
2574 20-03-2009 10:58:25 6 C 20 % -15.22 C
2575 20-03-2009 11:10:25 6.4 C 20 % -14.89 C
Sensor: Nr:Datum:Temp:Feuchte:Taupunkt:
Aussen-T/F 2576 20-03-2009 11:22:25 6.4 C 20 % -14.89 C
2577 20-03-2009 11:34:24 6.4 C 20 % -14.89 C
2578 20-03-2009 11:46:25 6.8 C 20 % -14.55 C
2579 20-03-2009 11:58:25 7.7 C 20 % -13.8 C
2580 20-03-2009 12:10:24 7.9 C 20 % -13.64 C
2581 20-03-2009 12:22:24 7.9 C 20 % -13.64 C
2582 20-03-2009 12:34:24 8.5 C 20 % -13.14 C
2583 20-03-2009 12:46:24 8.7 C 20 % -12.97 C
2584 20-03-2009 12:58:24 9.3 C 20 % -12.47 C
2585 20-03-2009 13:10:24 9.2 C 20 % -12.56 C
2586 20-03-2009 13:22:23 9.2 C 20 % -12.56 C
2587 20-03-2009 13:34:24 9.5 C 20 % -12.31 C
2588 20-03-2009 13:46:23 9.8 C 20 % -12.06 C
2589 20-03-2009 13:58:23 10.5 C 20 % -11.48 C
2590 20-03-2009 14:10:23 11.3 C 20 % -10.81 C
2591 20-03-2009 14:22:24 11.4 C 20 % -10.73 C
2592 20-03-2009 14:34:23 11.6 C 20 % -10.56 C
2593 20-03-2009 14:46:23 12 C 20 % -10.23 C
2594 20-03-2009 14:58:23 12.4 C 20 % -9.9 C
2595 20-03-2009 15:10:22 10.4 C 20 % -11.56 C
2596 20-03-2009 15:22:23 12.5 C 20 % -9.82 C
2597 20-03-2009 15:34:22 13.1 C 20 % -9.32 C
2598 20-03-2009 15:46:22 12.4 C 20 % -9.9 C
2599 20-03-2009 15:58:23 13.2 C 20 % -9.24 C
2600 20-03-2009 16:10:22 13.9 C 20 % -8.66 C
Sensor: Nr:Datum:Temp:Feuchte:Taupunkt:
Aussen-T/F 2601 20-03-2009 16:22:22 13.8 C 20 % -8.74 C
2602 20-03-2009 16:34:22 14 C 20 % -8.57 C
2603 20-03-2009 16:46:22 14.1 C 20 % -8.49 C
2604 20-03-2009 16:58:22 14 C 20 % -8.57 C
2605 20-03-2009 17:10:22 13.8 C 20 % -8.74 C
2606 20-03-2009 17:22:21 13.8 C 20 % -8.74 C
2607 20-03-2009 17:34:21 13.7 C 20 % -8.82 C
2608 20-03-2009 17:46:21 13 C 20 % -9.4 C
2609 20-03-2009 17:58:21 12.4 C 20 % -9.9 C
2610 20-03-2009 18:10:21 11.8 C 20 % -10.4 C
2611 20-03-2009 18:22:21 10.8 C 20 % -11.23 C
2612 20-03-2009 18:34:21 9.5 C 20 % -12.31 C
2613 20-03-2009 18:46:21 8 C 20 % -13.56 C
2614 20-03-2009 18:58:21 7 C 20 % -14.39 C
2615 20-03-2009 19:10:20 6.1 C 23 % -13.44 C
2616 20-03-2009 19:22:20 5.6 C 27 % -11.89 C
2617 20-03-2009 19:34:20 5.3 C 28 % -11.7 C
2618 20-03-2009 19:46:20 5 C 30 % -11.1 C
2619 20-03-2009 19:58:20 4.6 C 30 % -11.45 C
2620 20-03-2009 20:10:19 4.4 C 33 % -10.43 C
2621 20-03-2009 20:22:20 4.1 C 36 % -9.6 C
2622 20-03-2009 20:34:20 4.1 C 35 % -9.96 C
2623 20-03-2009 20:46:19 3.9 C 36 % -9.78 C
2624 20-03-2009 20:58:19 3.6 C 37 % -9.7 C
2625 20-03-2009 21:10:19 3.5 C 39 % -9.12 C
Sensor: Nr:Datum:Temp:Feuchte:Taupunkt:
Aussen-T/F 2626 20-03-2009 21:22:19 3.3 C 39 % -9.3 C
2627 20-03-2009 21:34:18 3.1 C 40 % -9.16 C
2628 20-03-2009 21:46:19 2.8 C 41 % -9.12 C
2629 20-03-2009 21:58:19 2.7 C 42 % -8.9 C
2630 20-03-2009 22:10:19 2.4 C 42 % -9.18 C
2631 20-03-2009 22:22:18 2.3 C 45 % -8.39 C
2632 20-03-2009 22:34:19 2 C 45 % -8.66 C
2633 20-03-2009 22:46:18 1.8 C 46 % -8.56 C
2634 20-03-2009 22:58:18 1.6 C 45 % -9.03 C
2635 20-03-2009 23:10:18 1.4 C 46 % -8.93 C
2636 20-03-2009 23:22:18 1.2 C 47 % -8.84 C
2637 20-03-2009 23:34:18 1.2 C 47 % -8.84 C
2638 20-03-2009 23:46:17 0.9 C 49 % -8.58 C
2639 20-03-2009 23:58:17 0.7 C 51 % -8.26 C
2640 21-03-2009 00:10:17 0.5 C 52 % -8.19 C
2641 21-03-2009 00:22:18 0.4 C 52 % -8.29 C
2642 21-03-2009 00:34:17 0.2 C 51 % -8.72 C
2643 21-03-2009 00:46:17 0.2 C 51 % -8.72 C
2644 21-03-2009 00:58:17 0.1 C 53 % -8.32 C
2645 21-03-2009 01:10:17 -0.1 C 53 % -8.52 C
2646 21-03-2009 01:22:17 -0.2 C 52 % -8.86 C
2647 21-03-2009 01:34:17 -0.4 C 53 % -8.8 C
2648 21-03-2009 01:46:16 -0.4 C 54 % -8.56 C
2649 21-03-2009 01:58:16 -0.5 C 53 % -8.89 C
2650 21-03-2009 02:10:17 -0.6 C 54 % -8.75 C
Sensor: Nr:Datum:Temp:Feuchte:Taupunkt:
Aussen-T/F 2651 21-03-2009 02:22:16 -0.6 C 55 % -8.51 C
2652 21-03-2009 02:34:16 -0.7 C 55 % -8.61 C
2653 21-03-2009 02:47:01 -0.9 C 56 % -8.56 C
2654 21-03-2009 02:59:01 -0.9 C 56 % -8.56 C
2655 21-03-2009 03:11:02 -1 C 56 % -8.66 C
2656 21-03-2009 03:23:02 -1.3 C 56 % -8.94 C
2657 21-03-2009 03:35:01 -1.4 C 57 % -8.81 C
2658 21-03-2009 03:47:01 -1.4 C 57 % -8.81 C
2659 21-03-2009 03:59:01 -1.5 C 57 % -8.9 C
2660 21-03-2009 04:11:02 -1.5 C 57 % -8.9 C
2661 21-03-2009 04:23:01 -1.4 C 59 % -8.36 C
2662 21-03-2009 04:35:01 -1.4 C 58 % -8.58 C
2663 21-03-2009 04:47:01 -1.3 C 58 % -8.49 C
2664 21-03-2009 04:59:01 -1.1 C 59 % -8.08 C
2665 21-03-2009 05:11:02 -1.1 C 59 % -8.08 C
2666 21-03-2009 05:23:01 -1.3 C 58 % -8.49 C
2667 21-03-2009 05:35:02 -1.4 C 60 % -8.15 C
2668 21-03-2009 05:47:02 -1.6 C 60 % -8.34 C
2669 21-03-2009 05:59:02 -1.7 C 60 % -8.43 C
2670 21-03-2009 06:11:01 -1.9 C 60 % -8.62 C
2671 21-03-2009 06:23:01 -2.1 C 60 % -8.81 C
2672 21-03-2009 06:35:02 -2.1 C 62 % -8.39 C
2673 21-03-2009 06:47:01 -2.1 C 63 % -8.19 C
2674 21-03-2009 06:59:01 -2.1 C 62 % -8.39 C
2675 21-03-2009 07:11:02 -2.1 C 63 % -8.19 C
Sensor: Nr:Datum:Temp:Feuchte:Taupunkt:
Aussen-T/F 2676 21-03-2009 07:23:01 -2.1 C 63 % -8.19 C
2677 21-03-2009 07:35:02 -2 C 63 % -8.09 C
2678 21-03-2009 07:47:01 -2 C 64 % -7.89 C
2679 21-03-2009 07:59:01 -1.9 C 65 % -7.59 C
2680 21-03-2009 08:11:01 -1.8 C 64 % -7.7 C
2681 21-03-2009 08:23:01 -1.7 C 64 % -7.6 C
2682 21-03-2009 08:35:01 -1.6 C 62 % -7.92 C
2683 21-03-2009 08:47:02 -1.4 C 61 % -7.94 C
2684 21-03-2009 08:59:02 -1 C 60 % -7.77 C
2685 21-03-2009 09:11:01 -0.3 C 59 % -7.33 C
2686 21-03-2009 09:23:02 0.2 C 56 % -7.52 C
2687 21-03-2009 09:35:01 0.9 C 51 % -8.07 C
2688 21-03-2009 09:47:02 1.7 C 47 % -8.38 C
2689 21-03-2009 09:59:02 1.9 C 47 % -8.2 C
2690 21-03-2009 10:11:01 2.8 C 45 % -7.93 C
2691 21-03-2009 10:23:01 3.2 C 43 % -8.15 C
2692 21-03-2009 10:35:02 3.9 C 42 % -7.82 C
2693 21-03-2009 10:47:01 4.5 C 39 % -8.23 C
2694 21-03-2009 10:59:01 4.8 C 37 % -8.63 C
2695 21-03-2009 11:11:02 5.2 C 36 % -8.62 C
2696 21-03-2009 11:23:01 5.7 C 33 % -9.29 C
2697 21-03-2009 11:35:02 6.2 C 30 % -10.06 C
2698 21-03-2009 11:47:01 6.7 C 29 % -10.05 C
2699 21-03-2009 11:59:01 7.3 C 20 % -14.14 C
2700 21-03-2009 12:11:02 7.8 C 25 % -10.97 C
Sensor: Nr:Datum:Temp:Feuchte:Taupunkt:
Aussen-T/F 2701 21-03-2009 12:23:01 8.1 C 23 % -11.75 C
2702 21-03-2009 12:35:01 8.9 C 20 % -12.81 C
2703 21-03-2009 12:47:01 9.3 C 20 % -12.47 C
2704 21-03-2009 12:59:01 9.7 C 20 % -12.14 C
2705 21-03-2009 13:11:01 10.1 C 20 % -11.81 C
2706 21-03-2009 13:23:02 10.5 C 20 % -11.48 C
2707 21-03-2009 13:35:01 11.4 C 20 % -10.73 C
2708 21-03-2009 13:47:02 12 C 20 % -10.23 C
2709 21-03-2009 13:59:02 12.4 C 20 % -9.9 C
2710 21-03-2009 14:11:01 12.7 C 20 % -9.65 C
2711 21-03-2009 14:23:01 12.2 C 20 % -10.07 C
2712 21-03-2009 14:35:01 13.4 C 20 % -9.07 C
2713 21-03-2009 14:47:01 13.7 C 20 % -8.82 C
2714 21-03-2009 14:59:01 14.4 C 20 % -8.24 C
2715 21-03-2009 15:11:02 14.9 C 20 % -7.83 C
2716 21-03-2009 15:23:01 15.2 C 20 % -7.58 C
2717 21-03-2009 15:35:02 15.1 C 20 % -7.66 C
2718 21-03-2009 15:47:01 15.8 C 20 % -7.08 C
2719 21-03-2009 15:59:01 14.4 C 20 % -8.24 C
2720 21-03-2009 16:11:02 14.4 C 20 % -8.24 C
2721 21-03-2009 16:23:01 15.5 C 20 % -7.33 C
2722 21-03-2009 16:35:01 16.4 C 20 % -6.59 C
2723 21-03-2009 16:47:01 16.7 C 20 % -6.34 C
2724 21-03-2009 16:59:01 15.9 C 20 % -7 C
2725 21-03-2009 17:11:01 15.6 C 20 % -7.25 C
Sensor: Nr:Datum:Temp:Feuchte:Taupunkt:
Aussen-T/F 2726 21-03-2009 17:23:02 15.2 C 20 % -7.58 C
2727 21-03-2009 17:35:01 15 C 20 % -7.75 C
2728 21-03-2009 17:47:02 14.6 C 20 % -8.08 C
2729 21-03-2009 17:59:02 14 C 20 % -8.57 C
2730 21-03-2009 18:11:01 12.3 C 20 % -9.98 C
2731 21-03-2009 18:23:01 11.7 C 20 % -10.48 C
2732 21-03-2009 18:35:01 11.1 C 20 % -10.98 C
2733 21-03-2009 18:47:01 10.2 C 20 % -11.73 C
2734 21-03-2009 18:59:01 9.7 C 20 % -12.14 C
2735 21-03-2009 19:11:01 9.3 C 25 % -9.69 C
2736 21-03-2009 19:23:02 9 C 27 % -8.97 C
2737 21-03-2009 19:35:01 8.7 C 30 % -7.88 C
2738 21-03-2009 19:47:02 8.4 C 31 % -7.72 C
2739 21-03-2009 19:59:02 8 C 32 % -7.66 C
2740 21-03-2009 20:11:01 7.9 C 33 % -7.35 C
2741 21-03-2009 20:23:02 7.8 C 34 % -7.06 C
2742 21-03-2009 20:35:01 7.6 C 35 % -6.86 C
2743 21-03-2009 20:47:02 7.4 C 36 % -6.67 C
2744 21-03-2009 20:59:02 7.1 C 38 % -6.23 C
2745 21-03-2009 21:11:01 6.9 C 38 % -6.41 C
2746 21-03-2009 21:23:02 6.6 C 40 % -6.01 C
2747 21-03-2009 21:35:01 6.4 C 41 % -5.87 C
2748 21-03-2009 21:47:02 6 C 43 % -5.61 C
2749 21-03-2009 21:59:02 5.6 C 45 % -5.38 C
2750 21-03-2009 22:11:44 5.2 C 46 % -5.45 C
Sensor: Nr:Datum:Temp:Feuchte:Taupunkt:
Aussen-T/F 2751 21-03-2009 22:23:44 4.9 C 48 % -5.17 C
2752 21-03-2009 22:35:01 4.7 C 48 % -5.35 C
2753 21-03-2009 22:47:07 4.5 C 48 % -5.54 C
2754 21-03-2009 22:59:07 4.3 C 48 % -5.72 C
2755 21-03-2009 23:11:07 4.3 C 46 % -6.28 C
2756 21-03-2009 23:23:07 4.1 C 47 % -6.18 C
2757 21-03-2009 23:35:07 3.9 C 48 % -6.09 C
2758 21-03-2009 23:47:07 3.6 C 49 % -6.1 C
2759 21-03-2009 23:59:07 3.4 C 50 % -6.02 C
2760 22-03-2009 00:11:07 3.2 C 51 % -5.94 C
2761 22-03-2009 00:23:07 3 C 51 % -6.13 C
2762 22-03-2009 00:35:07 2.8 C 53 % -5.81 C
2763 22-03-2009 00:47:07 2.6 C 53 % -6 C
2764 22-03-2009 00:59:07 2.5 C 53 % -6.09 C
2765 22-03-2009 01:11:07 2.4 C 54 % -5.94 C
2766 22-03-2009 01:23:07 2.2 C 54 % -6.12 C
2767 22-03-2009 01:35:07 2 C 55 % -6.07 C
2768 22-03-2009 01:47:07 2 C 55 % -6.07 C
2769 22-03-2009 01:59:07 1.9 C 56 % -5.93 C
2770 22-03-2009 02:11:07 1.8 C 57 % -5.79 C
2771 22-03-2009 02:23:08 1.5 C 58 % -5.85 C
2772 22-03-2009 02:35:08 1.4 C 59 % -5.72 C
2773 22-03-2009 02:47:08 1.2 C 59 % -5.91 C
2774 22-03-2009 02:59:08 1.1 C 60 % -5.78 C
2775 22-03-2009 03:11:08 1.4 C 58 % -5.94 C
Sensor: Nr:Datum:Temp:Feuchte:Taupunkt:
Aussen-T/F 2776 22-03-2009 03:23:08 1.4 C 57 % -6.17 C
2777 22-03-2009 03:35:08 1.1 C 58 % -6.22 C
2778 22-03-2009 03:47:08 0.9 C 60 % -5.97 C
2779 22-03-2009 03:59:08 0.7 C 61 % -5.94 C
2780 22-03-2009 04:11:08 0.5 C 63 % -5.71 C
2781 22-03-2009 04:23:08 0.6 C 62 % -5.82 C
2782 22-03-2009 04:35:08 0.6 C 61 % -6.04 C
2783 22-03-2009 04:47:08 0.6 C 62 % -5.82 C
2784 22-03-2009 04:59:08 0.3 C 62 % -6.11 C
2785 22-03-2009 05:11:08 0.1 C 64 % -5.88 C
2786 22-03-2009 05:23:08 0.1 C 64 % -5.88 C
2787 22-03-2009 05:35:08 0.3 C 63 % -5.9 C
2788 22-03-2009 05:47:08 -0.1 C 64 % -6.08 C
2789 22-03-2009 05:59:08 -0.3 C 66 % -5.87 C
2790 22-03-2009 06:11:08 -0.4 C 67 % -5.77 C
2791 22-03-2009 06:23:08 -0.4 C 68 % -5.57 C
2792 22-03-2009 06:35:09 -0.4 C 68 % -5.57 C
2793 22-03-2009 06:47:09 -0.4 C 68 % -5.57 C
2794 22-03-2009 06:59:09 -0.3 C 69 % -5.29 C
2795 22-03-2009 07:11:07 -0.3 C 68 % -5.48 C
2796 22-03-2009 07:23:07 0 C 68 % -5.18 C
2797 22-03-2009 07:35:07 0.3 C 67 % -5.09 C
2798 22-03-2009 07:47:06 0.7 C 67 % -4.71 C
2799 22-03-2009 07:59:06 1 C 66 % -4.62 C
2800 22-03-2009 08:11:07 1.1 C 67 % -4.33 C
Sensor: Nr:Datum:Temp:Feuchte:Taupunkt:
Aussen-T/F 2801 22-03-2009 08:23:06 1.1 C 67 % -4.33 C
2802 22-03-2009 08:35:06 1.4 C 67 % -4.04 C
2803 22-03-2009 08:47:06 1.6 C 66 % -4.05 C
2804 22-03-2009 08:59:06 1.7 C 68 % -3.56 C
2805 22-03-2009 09:11:06 1.8 C 69 % -3.27 C
2806 22-03-2009 09:23:06 1.9 C 72 % -2.6 C
2807 22-03-2009 09:35:05 2.1 C 72 % -2.41 C
2808 22-03-2009 09:47:06 2.3 C 71 % -2.4 C
2809 22-03-2009 09:59:06 2.1 C 69 % -2.98 C
2810 22-03-2009 10:11:05 2.5 C 70 % -2.4 C
2811 22-03-2009 10:23:05 2.5 C 69 % -2.6 C
2812 22-03-2009 10:35:05 2.7 C 69 % -2.4 C
2813 22-03-2009 10:47:05 2.8 C 68 % -2.51 C
2814 22-03-2009 10:59:05 3.1 C 67 % -2.42 C
2815 22-03-2009 11:11:04 3.3 C 66 % -2.43 C
2816 22-03-2009 11:23:05 3.7 C 65 % -2.25 C
2817 22-03-2009 11:35:04 4.1 C 65 % -1.87 C
2818 22-03-2009 11:47:04 4.4 C 66 % -1.38 C
2819 22-03-2009 11:59:04 5 C 69 % -0.2 C
2820 22-03-2009 12:11:04 5.8 C 75 % 1.72 C
2821 22-03-2009 12:23:04 6.2 C 74 % 1.92 C
2822 22-03-2009 12:35:04 6.7 C 72 % 2.02 C
2823 22-03-2009 12:47:04 7 C 68 % 1.51 C
2824 22-03-2009 12:59:04 7.7 C 66 % 1.76 C
2825 22-03-2009 13:11:04 8.3 C 61 % 1.23 C
Sensor: Nr:Datum:Temp:Feuchte:Taupunkt:
Aussen-T/F 2826 22-03-2009 13:23:03 8.9 C 52 % -0.41 C
2827 22-03-2009 13:35:03 9.5 C 47 % -1.23 C
2828 22-03-2009 13:47:03 9.5 C 46 % -1.53 C
2829 22-03-2009 13:59:03 9 C 47 % -1.69 C
2830 22-03-2009 14:11:03 9.5 C 45 % -1.82 C
2831 22-03-2009 14:23:03 9.3 C 45 % -2.01 C
2832 22-03-2009 14:35:02 9.6 C 44 % -2.04 C
2833 22-03-2009 14:47:03 9.9 C 42 % -2.39 C
2834 22-03-2009 14:59:03 10 C 40 % -2.96 C
2835 22-03-2009 15:11:02 10.3 C 40 % -2.69 C
2836 22-03-2009 15:23:02 10.4 C 39 % -2.94 C
2837 22-03-2009 15:35:02 10.2 C 40 % -2.78 C
2838 22-03-2009 15:47:02 10.4 C 39 % -2.94 C
2839 22-03-2009 15:59:02 10 C 38 % -3.64 C
2840 22-03-2009 16:11:02 10.2 C 39 % -3.12 C
2841 22-03-2009 16:23:01 10.2 C 39 % -3.12 C
2842 22-03-2009 16:35:02 10.5 C 38 % -3.2 C
2843 22-03-2009 16:47:01 10.7 C 36 % -3.74 C
2844 22-03-2009 16:59:01 10.4 C 36 % -4.01 C
2845 22-03-2009 17:11:01 10.7 C 36 % -3.74 C
2846 22-03-2009 17:23:01 10.5 C 37 % -3.55 C
2847 22-03-2009 17:35:01 10.3 C 37 % -3.73 C
2848 22-03-2009 17:47:01 10 C 38 % -3.64 C
2849 22-03-2009 17:59:01 9.9 C 39 % -3.39 C
2850 22-03-2009 18:11:00 9.7 C 40 % -3.23 C
Sensor: Nr:Datum:Temp:Feuchte:Taupunkt:
Aussen-T/F 2851 22-03-2009 18:23:01 9.7 C 40 % -3.23 C
2852 22-03-2009 18:35:00 9.5 C 40 % -3.41 C
2853 22-03-2009 18:47:00 9.3 C 41 % -3.26 C
2854 22-03-2009 18:59:00 9.3 C 41 % -3.26 C
2855 22-03-2009 19:11:00 9.1 C 41 % -3.44 C
2856 22-03-2009 19:23:00 8.9 C 43 % -2.98 C
2857 22-03-2009 19:35:00 8.9 C 43 % -2.98 C
2858 22-03-2009 19:58:59 8.6 C 44 % -2.94 C
2859 22-03-2009 19:59:00 8.4 C 45 % -2.83 C
2860 22-03-2009 20:11:00 8.4 C 45 % -2.83 C
2861 22-03-2009 20:23:59 8.4 C 45 % -2.83 C
2862 22-03-2009 20:35:59 8.4 C 45 % -2.83 C
2863 22-03-2009 20:47:59 8.4 C 45 % -2.83 C
2864 22-03-2009 20:59:58 8.5 C 45 % -2.73 C
2865 22-03-2009 21:11:58 8.4 C 45 % -2.83 C
2866 22-03-2009 21:23:59 8.3 C 46 % -2.62 C
2867 22-03-2009 21:35:59 8.2 C 46 % -2.71 C
2868 22-03-2009 21:47:59 8.1 C 46 % -2.8 C
2869 22-03-2009 22:00:59 8 C 47 % -2.61 C
2870 22-03-2009 22:12:59 7.7 C 53 % -1.26 C
2871 22-03-2009 22:24:59 7.7 C 54 % -1 C
2872 22-03-2009 22:36:59 7.5 C 58 % -0.21 C
2873 22-03-2009 22:48:59 7.3 C 59 % -0.17 C
2874 22-03-2009 23:00:59 7.5 C 58 % -0.21 C
2875 22-03-2009 23:12:59 7.5 C 57 % -0.45 C
Sensor: Nr:Datum:Temp:Feuchte:Taupunkt:
Aussen-T/F 2876 22-03-2009 23:24:59 7.6 C 57 % -0.36 C
2877 22-03-2009 23:37:00 7.5 C 59 % 0.02 C
2878 22-03-2009 23:49:00 7.6 C 58 % -0.12 C
2879 23-03-2009 00:01:00 7.5 C 58 % -0.21 C
2880 23-03-2009 00:13:00 7.5 C 58 % -0.21 C
2881 23-03-2009 00:24:00 7.5 C 58 % -0.21 C
2882 23-03-2009 00:36:00 7.5 C 59 % 0.02 C
2883 23-03-2009 00:48:00 7.5 C 59 % 0.02 C
2884 23-03-2009 01:00:00 7.5 C 59 % 0.02 C
2885 23-03-2009 01:12:00 7.5 C 58 % -0.21 C
2886 23-03-2009 01:24:00 7.5 C 58 % -0.21 C
2887 23-03-2009 01:36:00 7.6 C 58 % -0.12 C
2888 23-03-2009 01:48:00 7.6 C 58 % -0.12 C
2889 23-03-2009 02:00:00 7.6 C 58 % -0.12 C
2890 23-03-2009 02:12:00 7.5 C 58 % -0.21 C
2891 23-03-2009 02:24:00 7.5 C 59 % 0.02 C
2892 23-03-2009 02:36:00 7.6 C 59 % 0.11 C
2893 23-03-2009 02:48:00 7.6 C 59 % 0.11 C
2894 23-03-2009 03:00:00 7.7 C 59 % 0.21 C
2895 23-03-2009 03:12:00 7.6 C 59 % 0.11 C
2896 23-03-2009 03:24:00 7.5 C 59 % 0.02 C
2897 23-03-2009 03:36:01 7.5 C 59 % 0.02 C
2898 23-03-2009 03:48:01 7.6 C 59 % 0.11 C
2899 23-03-2009 04:00:01 7.7 C 60 % 0.44 C
2900 23-03-2009 04:12:01 7.9 C 60 % 0.63 C
Sensor: Nr:Datum:Temp:Feuchte:Taupunkt:
Aussen-T/F 2901 23-03-2009 04:24:01 7.8 C 60 % 0.53 C
2902 23-03-2009 04:36:01 7.8 C 60 % 0.53 C
2903 23-03-2009 04:48:01 7.8 C 60 % 0.53 C
2904 23-03-2009 05:00:01 7.8 C 60 % 0.53 C
2905 23-03-2009 05:12:01 7.8 C 60 % 0.53 C
2906 23-03-2009 05:24:01 7.8 C 60 % 0.53 C
2907 23-03-2009 05:36:01 7.8 C 60 % 0.53 C
2908 23-03-2009 05:48:01 7.9 C 59 % 0.4 C
2909 23-03-2009 06:00:01 7.7 C 60 % 0.44 C
2910 23-03-2009 06:12:01 7.6 C 60 % 0.35 C
2911 23-03-2009 06:24:01 7.6 C 60 % 0.35 C
2912 23-03-2009 06:36:01 7.5 C 60 % 0.25 C
2913 23-03-2009 06:48:01 7.5 C 61 % 0.48 C
2914 23-03-2009 07:00:59 7.6 C 60 % 0.35 C
2915 23-03-2009 07:12:59 7.6 C 60 % 0.35 C
2916 23-03-2009 07:24:59 7.6 C 61 % 0.57 C
2917 23-03-2009 07:36:59 7.6 C 60 % 0.35 C
2918 23-03-2009 07:48:58 7.7 C 60 % 0.44 C
2919 23-03-2009 08:00:59 7.9 C 60 % 0.63 C
2920 23-03-2009 08:12:59 8 C 58 % 0.25 C
2921 23-03-2009 08:24:58 8.1 C 58 % 0.35 C
2922 23-03-2009 08:36:58 8.1 C 58 % 0.35 C
2923 23-03-2009 08:48:57 8.2 C 58 % 0.44 C
2924 23-03-2009 09:00:58 8.2 C 58 % 0.44 C
2925 23-03-2009 09:12:58 8.2 C 58 % 0.44 C
Sensor: Nr:Datum:Temp:Feuchte:Taupunkt:
Aussen-T/F 2926 23-03-2009 09:24:58 8.3 C 58 % 0.54 C
2927 23-03-2009 09:36:57 8.4 C 56 % 0.15 C
2928 23-03-2009 09:48:58 8.7 C 55 % 0.18 C
2929 23-03-2009 10:00:57 8.9 C 52 % -0.41 C
2930 23-03-2009 10:12:57 9 C 50 % -0.85 C
2931 23-03-2009 10:24:57 9.1 C 50 % -0.76 C
2932 23-03-2009 10:36:56 9.2 C 49 % -0.94 C
2933 23-03-2009 10:48:57 9.3 C 48 % -1.13 C
2934 23-03-2009 11:00:57 9.4 C 47 % -1.33 C
2935 23-03-2009 11:12:57 9.7 C 46 % -1.34 C
2936 23-03-2009 11:24:56 9.8 C 45 % -1.55 C
2937 23-03-2009 11:36:57 9.9 C 44 % -1.76 C
2938 23-03-2009 11:48:56 9.9 C 43 % -2.08 C
2939 23-03-2009 12:00:56 10.2 C 42 % -2.12 C
2940 23-03-2009 12:12:56 10.7 C 40 % -2.33 C
2941 23-03-2009 12:24:56 10.8 C 40 % -2.24 C
2942 23-03-2009 12:36:56 11.6 C 37 % -2.57 C
2943 23-03-2009 12:48:55 12 C 35 % -2.97 C
2944 23-03-2009 13:00:55 11.8 C 36 % -2.76 C
2945 23-03-2009 13:12:55 11.6 C 37 % -2.57 C
2946 23-03-2009 13:24:56 11.9 C 37 % -2.31 C
2947 23-03-2009 13:36:55 11.9 C 37 % -2.31 C
2948 23-03-2009 13:48:55 11.6 C 38 % -2.22 C
2949 23-03-2009 14:00:55 11.6 C 39 % -1.86 C
2950 23-03-2009 14:12:55 11.6 C 40 % -1.52 C
Sensor: Nr:Datum:Temp:Feuchte:Taupunkt:
Aussen-T/F 2951 23-03-2009 14:24:55 11.4 C 40 % -1.7 C
2952 23-03-2009 14:36:54 11.3 C 40 % -1.79 C
2953 23-03-2009 14:48:54 11.3 C 40 % -1.79 C
2954 23-03-2009 15:00:55 10.4 C 47 % -0.41 C
2955 23-03-2009 15:12:55 9.8 C 52 % 0.43 C
2956 23-03-2009 15:24:54 9.5 C 56 % 1.17 C
2957 23-03-2009 15:36:54 9.6 C 56 % 1.27 C
2958 23-03-2009 15:48:54 9.9 C 55 % 1.3 C
2959 23-03-2009 16:00:54 9.6 C 58 % 1.75 C
2960 23-03-2009 16:12:54 9.7 C 57 % 1.61 C
2961 23-03-2009 16:24:53 9.5 C 59 % 1.9 C
2962 23-03-2009 16:36:53 9.5 C 58 % 1.66 C
2963 23-03-2009 16:48:53 9.4 C 59 % 1.81 C
2964 23-03-2009 17:00:53 9.2 C 60 % 1.85 C
2965 23-03-2009 17:12:53 9.1 C 61 % 1.99 C
2966 23-03-2009 17:24:53 9.1 C 60 % 1.76 C
2967 23-03-2009 17:36:53 8.6 C 65 % 2.4 C
2968 23-03-2009 17:48:53 8.5 C 67 % 2.73 C
2969 23-03-2009 18:00:52 8.3 C 70 % 3.16 C
2970 23-03-2009 18:12:52 7.9 C 74 % 3.56 C
2971 23-03-2009 18:24:53 7.6 C 76 % 3.65 C
2972 23-03-2009 18:36:52 7.6 C 77 % 3.83 C
2973 23-03-2009 18:48:52 7.7 C 76 % 3.75 C
2974 23-03-2009 19:00:52 7.8 C 76 % 3.84 C
2975 23-03-2009 19:12:52 7.7 C 75 % 3.56 C
Sensor: Nr:Datum:Temp:Feuchte:Taupunkt:
Aussen-T/F 2976 23-03-2009 19:24:52 7.6 C 76 % 3.65 C
2977 23-03-2009 19:36:52 7.4 C 77 % 3.64 C
2978 23-03-2009 19:48:51 4.4 C 74 % 0.18 C
2979 23-03-2009 20:00:52 3.9 C 82 % 1.12 C
2980 23-03-2009 20:12:52 3.8 C 84 % 1.35 C
2981 23-03-2009 20:24:51 3.6 C 85 % 1.32 C
2982 23-03-2009 20:36:51 3.3 C 86 % 1.19 C
2983 23-03-2009 20:48:51 3.5 C 87 % 1.55 C
2984 23-03-2009 21:00:50 3.5 C 87 % 1.55 C
2985 23-03-2009 21:12:50 3.5 C 85 % 1.22 C
2986 23-03-2009 21:24:51 3.8 C 84 % 1.35 C
2987 23-03-2009 21:36:51 3.8 C 82 % 1.02 C
2988 23-03-2009 21:48:50 3.6 C 80 % 0.48 C
2989 23-03-2009 22:00:51 3.7 C 79 % 0.4 C
2990 23-03-2009 22:12:51 3.8 C 76 % -0.03 C
2991 23-03-2009 22:24:50 3.7 C 75 % -0.31 C
2992 23-03-2009 22:36:50 3.5 C 75 % -0.5 C
2993 23-03-2009 22:49:50 3.7 C 73 % -0.68 C
2994 23-03-2009 23:01:50 3.6 C 71 % -1.15 C
2995 23-03-2009 23:13:50 3.5 C 72 % -1.06 C
2996 23-03-2009 23:25:50 3.3 C 74 % -0.88 C
2997 23-03-2009 23:37:50 3.3 C 74 % -0.88 C
2998 23-03-2009 23:49:50 3.1 C 72 % -1.45 C
2999 24-03-2009 00:01:50 3.1 C 72 % -1.45 C
3000 24-03-2009 00:13:50 2.9 C 72 % -1.64 C
Sensor: Nr:Datum:Temp:Feuchte:Taupunkt:
Aussen-T/F 3001 24-03-2009 00:25:50 2.9 C 72 % -1.64 C
3002 24-03-2009 00:37:51 3 C 68 % -2.31 C
3003 24-03-2009 00:49:51 3.1 C 68 % -2.22 C
3004 24-03-2009 01:01:51 3.1 C 67 % -2.42 C
3005 24-03-2009 01:13:51 2.8 C 69 % -2.31 C
3006 24-03-2009 01:25:51 2.5 C 71 % -2.21 C
3007 24-03-2009 01:37:51 2.4 C 72 % -2.12 C
3008 24-03-2009 01:49:51 2.6 C 72 % -1.93 C
3009 24-03-2009 02:01:51 2.7 C 71 % -2.02 C
3010 24-03-2009 02:13:51 3 C 69 % -2.12 C
3011 24-03-2009 02:25:51 3.3 C 67 % -2.23 C
3012 24-03-2009 02:37:51 3.3 C 67 % -2.23 C
3013 24-03-2009 02:49:51 3.5 C 65 % -2.44 C
3014 24-03-2009 03:01:51 3.6 C 65 % -2.35 C
3015 24-03-2009 03:13:51 3.8 C 63 % -2.58 C
3016 24-03-2009 03:25:51 3.2 C 69 % -1.93 C
3017 24-03-2009 03:37:51 2.8 C 76 % -1 C
3018 24-03-2009 03:49:51 2.7 C 77 % -0.92 C
3019 24-03-2009 04:01:51 2.6 C 78 % -0.84 C
3020 24-03-2009 04:13:51 2.7 C 78 % -0.74 C
3021 24-03-2009 04:25:51 3 C 75 % -0.99 C
3022 24-03-2009 04:37:52 3.1 C 72 % -1.45 C
3023 24-03-2009 04:49:52 3.3 C 70 % -1.64 C
3024 24-03-2009 05:01:52 2.8 C 74 % -1.36 C
3025 24-03-2009 05:13:52 2.9 C 76 % -0.9 C
Sensor: Nr:Datum:Temp:Feuchte:Taupunkt:
Aussen-T/F 3026 24-03-2009 05:25:52 3 C 71 % -1.73 C
3027 24-03-2009 05:37:52 3.2 C 70 % -1.73 C
3028 24-03-2009 05:49:52 3.1 C 70 % -1.83 C
3029 24-03-2009 06:01:52 3.1 C 69 % -2.02 C
3030 24-03-2009 06:13:52 3.2 C 67 % -2.32 C
3031 24-03-2009 06:25:52 3.1 C 68 % -2.22 C
3032 24-03-2009 06:37:52 3.1 C 69 % -2.02 C
3033 24-03-2009 06:49:52 3.1 C 71 % -1.63 C
3034 24-03-2009 07:01:50 3.1 C 71 % -1.63 C
3035 24-03-2009 07:13:50 3.2 C 71 % -1.54 C
3036 24-03-2009 07:25:50 3.3 C 70 % -1.64 C
3037 24-03-2009 07:37:50 3.3 C 69 % -1.83 C
3038 24-03-2009 07:49:50 3.5 C 69 % -1.64 C
3039 24-03-2009 08:01:51 3.7 C 68 % -1.64 C
3040 24-03-2009 08:13:50 3.7 C 68 % -1.64 C
3041 24-03-2009 08:25:50 3.7 C 66 % -2.05 C
3042 24-03-2009 08:37:49 4.2 C 63 % -2.2 C
3043 24-03-2009 08:49:49 4.3 C 60 % -2.76 C
3044 24-03-2009 09:01:49 4.1 C 60 % -2.95 C
3045 24-03-2009 09:13:49 4.2 C 58 % -3.31 C
3046 24-03-2009 09:25:49 4.4 C 58 % -3.12 C
3047 24-03-2009 09:37:49 4.6 C 55 % -3.65 C
3048 24-03-2009 09:49:48 4.8 C 53 % -3.95 C
3049 24-03-2009 10:01:49 5 C 53 % -3.77 C
3050 24-03-2009 10:13:48 5.6 C 52 % -3.46 C
Sensor: Nr:Datum:Temp:Feuchte:Taupunkt:
Aussen-T/F 3051 24-03-2009 10:25:48 5.9 C 49 % -3.98 C
3052 24-03-2009 10:37:48 5 C 55 % -3.27 C
3053 24-03-2009 10:49:48 3.2 C 72 % -1.35 C
3054 24-03-2009 11:01:48 3.3 C 79 % 0.02 C
3055 24-03-2009 11:13:47 4.3 C 81 % 1.34 C
3056 24-03-2009 11:25:47 4.6 C 78 % 1.1 C
3057 24-03-2009 11:37:47 5.1 C 73 % 0.67 C
3058 24-03-2009 11:49:47 5.5 C 65 % -0.54 C
3059 24-03-2009 12:01:48 4.4 C 69 % -0.78 C
3060 24-03-2009 12:13:47 5.1 C 72 % 0.48 C
3061 24-03-2009 12:25:47 5.9 C 68 % 0.46 C
3062 24-03-2009 12:37:47 6.4 C 58 % -1.25 C
3063 24-03-2009 12:49:47 6.8 C 58 % -0.87 C
3064 24-03-2009 13:01:49 7.1 C 53 % -1.82 C
3065 24-03-2009 13:13:46 7.1 C 51 % -2.34 C
3066 24-03-2009 13:25:46 6.9 C 47 % -3.61 C
3067 24-03-2009 13:37:46 6.9 C 46 % -3.9 C
3068 24-03-2009 13:49:46 6.6 C 48 % -3.61 C
3069 24-03-2009 14:01:46 5.6 C 58 % -2 C
3070 24-03-2009 14:13:46 5.4 C 64 % -0.85 C
3071 24-03-2009 14:25:46 6.8 C 57 % -1.11 C
3072 24-03-2009 14:37:46 7.9 C 51 % -1.6 C
3073 24-03-2009 14:49:45 7 C 50 % -2.69 C
3074 24-03-2009 15:01:46 6.1 C 59 % -1.3 C
3075 24-03-2009 15:13:45 4.6 C 68 % -0.78 C
Sensor: Nr:Datum:Temp:Feuchte:Taupunkt:
Aussen-T/F 3076 24-03-2009 15:25:45 4.6 C 75 % 0.56 C
3077 24-03-2009 15:37:45 5.8 C 74 % 1.53 C
3078 24-03-2009 15:49:45 6.4 C 70 % 1.34 C
3079 24-03-2009 16:01:45 5.5 C 67 % -0.13 C
3080 24-03-2009 16:13:45 5 C 72 % 0.38 C
3081 24-03-2009 16:25:45 5.3 C 72 % 0.67 C
3082 24-03-2009 16:37:44 6.5 C 67 % 0.83 C
3083 24-03-2009 16:49:44 5 C 67 % -0.6 C
3084 24-03-2009 17:01:44 4.7 C 70 % -0.29 C
3085 24-03-2009 17:13:44 5.1 C 64 % -1.13 C
3086 24-03-2009 17:25:44 5.9 C 61 % -1.03 C
3087 24-03-2009 17:37:44 6.1 C 56 % -2 C
3088 24-03-2009 17:49:43 5.2 C 58 % -2.37 C
3089 24-03-2009 18:01:44 3.6 C 67 % -1.94 C
3090 24-03-2009 18:13:44 3.6 C 69 % -1.54 C
3091 24-03-2009 18:25:44 3.5 C 71 % -1.25 C
3092 24-03-2009 18:37:43 3.4 C 73 % -0.97 C
3093 24-03-2009 18:49:44 3.1 C 73 % -1.26 C
3094 24-03-2009 19:01:43 2.9 C 76 % -0.9 C
3095 24-03-2009 19:13:43 2.7 C 76 % -1.1 C
3096 24-03-2009 19:25:44 2.5 C 77 % -1.11 C
3097 24-03-2009 19:37:42 2.5 C 78 % -0.94 C
3098 24-03-2009 19:49:43 2.3 C 77 % -1.31 C
3099 24-03-2009 20:01:43 2.2 C 77 % -1.4 C
3100 24-03-2009 20:13:42 2.2 C 75 % -1.76 C
Sensor: Nr:Datum:Temp:Feuchte:Taupunkt:
Aussen-T/F 3101 24-03-2009 20:25:42 2.1 C 74 % -2.04 C
3102 24-03-2009 20:37:43 2 C 73 % -2.32 C
3103 24-03-2009 20:49:42 1.8 C 73 % -2.51 C
3104 24-03-2009 21:01:42 1.4 C 74 % -2.71 C
3105 24-03-2009 21:13:41 1.3 C 76 % -2.45 C
3106 24-03-2009 21:25:41 1.2 C 77 % -2.37 C
3107 24-03-2009 21:37:42 1.1 C 78 % -2.3 C
3108 24-03-2009 21:50:43 1 C 78 % -2.39 C
3109 24-03-2009 22:02:43 0.9 C 79 % -2.32 C
3110 24-03-2009 22:14:43 0.7 C 78 % -2.69 C
3111 24-03-2009 22:26:43 1 C 74 % -3.1 C
3112 24-03-2009 22:38:43 1 C 72 % -3.47 C
3113 24-03-2009 22:50:43 0.7 C 72 % -3.76 C
3114 24-03-2009 23:02:43 0.4 C 73 % -3.86 C
3115 24-03-2009 23:14:43 0.4 C 74 % -3.68 C
3116 24-03-2009 23:26:43 0.2 C 75 % -3.69 C
3117 24-03-2009 23:38:43 0.2 C 75 % -3.69 C
3118 24-03-2009 23:50:43 0 C 75 % -3.89 C
3119 25-03-2009 00:02:43 0 C 76 % -3.71 C
3120 25-03-2009 00:14:43 0.1 C 76 % -3.62 C
3121 25-03-2009 00:26:43 0.2 C 75 % -3.69 C
3122 25-03-2009 00:38:44 0.2 C 75 % -3.69 C
3123 25-03-2009 00:50:44 0.3 C 73 % -3.96 C
3124 25-03-2009 01:02:44 0.2 C 73 % -4.05 C
3125 25-03-2009 01:14:44 0.2 C 73 % -4.05 C
Sensor: Nr:Datum:Temp:Feuchte:Taupunkt:
Aussen-T/F 3126 25-03-2009 01:26:44 0.1 C 73 % -4.15 C
3127 25-03-2009 01:38:44 0.2 C 74 % -3.87 C
3128 25-03-2009 01:50:44 0 C 75 % -3.89 C
3129 25-03-2009 02:02:44 0.1 C 76 % -3.62 C
3130 25-03-2009 02:14:44 0.2 C 77 % -3.34 C
3131 25-03-2009 02:26:44 0.4 C 77 % -3.15 C
3132 25-03-2009 02:38:44 0.2 C 77 % -3.34 C
3133 25-03-2009 02:50:44 0.2 C 77 % -3.34 C
3134 25-03-2009 03:02:44 0.3 C 78 % -3.07 C
3135 25-03-2009 03:14:44 0.6 C 78 % -2.78 C
3136 25-03-2009 03:26:44 0.9 C 77 % -2.66 C
3137 25-03-2009 03:38:44 1.1 C 76 % -2.65 C
3138 25-03-2009 03:50:44 1.1 C 75 % -2.82 C
3139 25-03-2009 04:02:44 1.1 C 76 % -2.65 C
3140 25-03-2009 04:14:44 1.2 C 76 % -2.55 C
3141 25-03-2009 04:26:45 1.3 C 75 % -2.63 C
3142 25-03-2009 04:38:45 1.3 C 75 % -2.63 C
3143 25-03-2009 04:50:45 1.5 C 75 % -2.44 C
3144 25-03-2009 05:02:45 1.6 C 75 % -2.34 C
3145 25-03-2009 05:14:45 1.8 C 74 % -2.33 C
3146 25-03-2009 05:26:45 1.8 C 74 % -2.33 C
3147 25-03-2009 05:38:45 2.2 C 72 % -2.31 C
3148 25-03-2009 05:50:45 2.4 C 72 % -2.12 C
3149 25-03-2009 06:02:45 2.3 C 72 % -2.22 C
3150 25-03-2009 06:14:45 2.1 C 75 % -1.86 C
Sensor: Nr:Datum:Temp:Feuchte:Taupunkt:
Aussen-T/F 3151 25-03-2009 06:26:45 1.6 C 79 % -1.64 C
3152 25-03-2009 06:38:43 1.7 C 82 % -1.03 C
3153 25-03-2009 06:50:42 1.8 C 84 % -0.61 C
3154 25-03-2009 07:02:43 1.8 C 86 % -0.29 C
3155 25-03-2009 07:14:43 1.8 C 86 % -0.29 C
3156 25-03-2009 07:26:43 1.9 C 87 % -0.03 C
3157 25-03-2009 07:38:42 1.9 C 86 % -0.19 C
3158 25-03-2009 07:50:42 1.9 C 86 % -0.19 C
3159 25-03-2009 08:02:42 2.1 C 85 % -0.15 C
3160 25-03-2009 08:14:41 2.3 C 85 % 0.04 C
3161 25-03-2009 08:26:41 2.3 C 84 % -0.12 C
3162 25-03-2009 08:38:42 2.4 C 83 % -0.18 C
3163 25-03-2009 08:50:41 2.3 C 82 % -0.45 C
3164 25-03-2009 09:02:41 2.5 C 81 % -0.42 C
3165 25-03-2009 09:14:42 2.6 C 80 % -0.49 C
3166 25-03-2009 09:26:42 2.9 C 78 % -0.55 C
3167 25-03-2009 09:38:41 3 C 75 % -0.99 C
3168 25-03-2009 09:50:41 3.1 C 75 % -0.89 C
3169 25-03-2009 10:02:41 3.3 C 74 % -0.88 C
3170 25-03-2009 10:14:41 3.3 C 74 % -0.88 C
3171 25-03-2009 10:26:41 3.1 C 75 % -0.89 C
3172 25-03-2009 10:38:41 3.3 C 75 % -0.7 C
3173 25-03-2009 10:50:40 3.8 C 72 % -0.77 C
3174 25-03-2009 11:02:41 3.8 C 72 % -0.77 C
3175 25-03-2009 11:14:40 4 C 69 % -1.16 C
Sensor: Nr:Datum:Temp:Feuchte:Taupunkt:
Aussen-T/F 3176 25-03-2009 11:26:40 4 C 70 % -0.96 C
3177 25-03-2009 11:38:40 4.3 C 69 % -0.87 C
3178 25-03-2009 11:50:40 4.2 C 69 % -0.97 C
3179 25-03-2009 12:02:40 4.2 C 69 % -0.97 C
3180 25-03-2009 12:14:39 4.7 C 68 % -0.69 C
3181 25-03-2009 12:26:39 4.4 C 67 % -1.18 C
3182 25-03-2009 12:38:39 4.3 C 70 % -0.68 C
3183 25-03-2009 12:50:39 4.4 C 69 % -0.78 C
3184 25-03-2009 13:02:39 4.3 C 70 % -0.68 C
3185 25-03-2009 13:14:39 4.4 C 70 % -0.58 C
3186 25-03-2009 13:26:39 5.3 C 68 % -0.12 C
3187 25-03-2009 13:38:39 5.9 C 65 % -0.16 C
3188 25-03-2009 13:50:39 5.6 C 64 % -0.66 C
3189 25-03-2009 14:02:38 5.6 C 65 % -0.45 C
3190 25-03-2009 14:14:39 6.1 C 63 % -0.4 C
3191 25-03-2009 14:26:40 6 C 62 % -0.71 C
3192 25-03-2009 14:38:38 6 C 62 % -0.71 C
3193 25-03-2009 14:50:38 6.1 C 63 % -0.4 C
3194 25-03-2009 15:02:37 5.7 C 65 % -0.35 C
3195 25-03-2009 15:14:38 5 C 72 % 0.38 C
3196 25-03-2009 15:26:38 4.7 C 77 % 1.02 C
3197 25-03-2009 15:38:38 5.3 C 78 % 1.78 C
3198 25-03-2009 15:50:37 5.4 C 78 % 1.88 C
3199 25-03-2009 16:02:38 5.7 C 76 % 1.81 C
3200 25-03-2009 16:14:37 6.5 C 73 % 2.02 C
Sensor: Nr:Datum:Temp:Feuchte:Taupunkt:
Aussen-T/F 3201 25-03-2009 16:26:37 6.9 C 69 % 1.62 C
3202 25-03-2009 16:38:37 6.9 C 66 % 1 C
3203 25-03-2009 16:50:37 6.4 C 67 % 0.73 C
3204 25-03-2009 17:02:37 5.8 C 71 % 0.96 C
3205 25-03-2009 17:14:37 4.7 C 78 % 1.2 C
3206 25-03-2009 17:26:37 4.5 C 81 % 1.53 C
3207 25-03-2009 17:38:36 4.6 C 83 % 1.97 C
3208 25-03-2009 17:50:37 4.9 C 85 % 2.6 C
3209 25-03-2009 18:02:36 4.8 C 85 % 2.5 C
3210 25-03-2009 18:14:36 4.8 C 85 % 2.5 C
3211 25-03-2009 18:26:36 4.7 C 84 % 2.23 C
3212 25-03-2009 18:38:36 4.5 C 85 % 2.2 C
3213 25-03-2009 18:50:36 4.2 C 84 % 1.74 C
3214 25-03-2009 19:02:35 4 C 84 % 1.55 C
3215 25-03-2009 19:14:36 3.8 C 86 % 1.68 C
3216 25-03-2009 19:26:37 3.7 C 87 % 1.74 C
3217 25-03-2009 19:38:35 3.6 C 88 % 1.8 C
3218 25-03-2009 19:50:36 3.5 C 88 % 1.7 C
3219 25-03-2009 20:02:35 3.6 C 89 % 1.96 C
3220 25-03-2009 20:14:35 3.5 C 89 % 1.86 C
3221 25-03-2009 20:26:35 3.6 C 90 % 2.12 C
3222 25-03-2009 20:38:35 3.6 C 90 % 2.12 C
3223 25-03-2009 20:50:35 3.6 C 90 % 2.12 C
3224 25-03-2009 21:02:34 3.5 C 90 % 2.02 C
3225 25-03-2009 21:14:34 3.5 C 90 % 2.02 C
Sensor: Nr:Datum:Temp:Feuchte:Taupunkt:
Aussen-T/F 3226 25-03-2009 21:26:34 3.6 C 91 % 2.27 C
3227 25-03-2009 21:38:35 3.7 C 91 % 2.37 C
3228 25-03-2009 21:50:34 3.7 C 91 % 2.37 C
3229 25-03-2009 22:02:35 3.7 C 91 % 2.37 C
3230 25-03-2009 22:14:33 3.7 C 91 % 2.37 C
3231 25-03-2009 22:26:33 3.8 C 91 % 2.47 C
3232 25-03-2009 22:38:34 3.9 C 90 % 2.41 C
3233 25-03-2009 22:50:33 3.9 C 89 % 2.26 C
3234 25-03-2009 23:02:33 3.9 C 89 % 2.26 C
3235 25-03-2009 23:14:34 4.1 C 88 % 2.3 C
3236 25-03-2009 23:26:34 4.3 C 87 % 2.33 C
3237 25-03-2009 23:38:33 4.4 C 84 % 1.94 C
3238 25-03-2009 23:50:33 4.4 C 82 % 1.6 C
3239 26-03-2009 00:02:33 4.3 C 81 % 1.34 C
3240 26-03-2009 00:14:32 4.2 C 82 % 1.41 C
3241 26-03-2009 00:26:32 4 C 83 % 1.38 C
3242 26-03-2009 00:38:33 4 C 83 % 1.38 C
3243 26-03-2009 00:50:32 4.1 C 83 % 1.48 C
3244 26-03-2009 01:02:32 4.2 C 82 % 1.41 C
3245 26-03-2009 01:14:32 4.3 C 81 % 1.34 C
3246 26-03-2009 01:26:32 4.3 C 81 % 1.34 C
3247 26-03-2009 01:38:32 4.2 C 81 % 1.24 C
3248 26-03-2009 01:50:31 4.2 C 81 % 1.24 C
3249 26-03-2009 02:02:32 4.2 C 81 % 1.24 C
3250 26-03-2009 02:14:31 4.1 C 82 % 1.31 C
Sensor: Nr:Datum:Temp:Feuchte:Taupunkt:
Aussen-T/F 3251 26-03-2009 02:26:31 4 C 84 % 1.55 C
3252 26-03-2009 02:38:31 4 C 85 % 1.71 C
3253 26-03-2009 02:51:32 4 C 85 % 1.71 C
3254 26-03-2009 03:03:32 4 C 85 % 1.71 C
3255 26-03-2009 03:15:32 4 C 85 % 1.71 C
3256 26-03-2009 03:27:32 4 C 84 % 1.55 C
3257 26-03-2009 03:39:32 4.1 C 84 % 1.65 C
3258 26-03-2009 03:51:32 4.1 C 83 % 1.48 C
3259 26-03-2009 04:03:32 4.1 C 82 % 1.31 C
3260 26-03-2009 04:15:31 4.1 C 81 % 1.14 C
3261 26-03-2009 04:27:31 4.2 C 79 % 0.89 C
3262 26-03-2009 04:39:31 4.2 C 78 % 0.71 C
3263 26-03-2009 04:51:31 4.2 C 78 % 0.71 C
3264 26-03-2009 05:03:31 4.2 C 78 % 0.71 C
3265 26-03-2009 05:15:31 4.1 C 79 % 0.79 C
3266 26-03-2009 05:27:31 4.2 C 79 % 0.89 C
3267 26-03-2009 05:39:31 4.3 C 78 % 0.81 C
3268 26-03-2009 05:51:31 4.3 C 78 % 0.81 C
3269 26-03-2009 06:03:30 4.2 C 78 % 0.71 C
3270 26-03-2009 06:15:31 4 C 78 % 0.52 C
3271 26-03-2009 06:27:32 4.1 C 78 % 0.62 C
3272 26-03-2009 06:39:30 4 C 78 % 0.52 C
3273 26-03-2009 06:51:30 3.8 C 79 % 0.5 C
3274 26-03-2009 07:03:30 3.8 C 79 % 0.5 C
3275 26-03-2009 07:15:30 4.2 C 79 % 0.89 C
Sensor: Nr:Datum:Temp:Feuchte:Taupunkt:
Aussen-T/F 3276 26-03-2009 07:27:30 4.5 C 77 % 0.83 C
3277 26-03-2009 07:39:30 4.5 C 75 % 0.46 C
3278 26-03-2009 07:51:30 4.7 C 74 % 0.47 C
3279 26-03-2009 08:03:30 5 C 72 % 0.38 C
3280 26-03-2009 08:15:29 5.3 C 72 % 0.67 C
3281 26-03-2009 08:27:29 5.5 C 71 % 0.67 C
3282 26-03-2009 08:39:29 6.1 C 69 % 0.85 C
3283 26-03-2009 08:51:29 6.4 C 68 % 0.94 C
3284 26-03-2009 09:03:29 6.5 C 68 % 1.03 C
3285 26-03-2009 09:15:29 6.6 C 67 % 0.92 C
3286 26-03-2009 09:27:29 7 C 66 % 1.09 C
3287 26-03-2009 09:39:29 7.4 C 65 % 1.26 C
3288 26-03-2009 09:51:29 7.8 C 63 % 1.21 C
3289 26-03-2009 10:03:29 7.9 C 62 % 1.08 C
3290 26-03-2009 10:15:28 7.7 C 62 % 0.89 C
3291 26-03-2009 10:27:28 7.8 C 61 % 0.76 C
3292 26-03-2009 10:39:28 8.2 C 60 % 0.91 C
3293 26-03-2009 10:51:28 8.5 C 58 % 0.72 C
3294 26-03-2009 11:03:28 9.1 C 57 % 1.04 C
3295 26-03-2009 11:15:27 8.8 C 57 % 0.76 C
3296 26-03-2009 11:27:27 8.4 C 59 % 0.87 C
3297 26-03-2009 11:39:28 8.4 C 60 % 1.1 C
3298 26-03-2009 11:51:27 9 C 58 % 1.19 C
3299 26-03-2009 12:03:27 9.3 C 55 % 0.74 C
3300 26-03-2009 12:15:27 9.2 C 56 % 0.89 C
Sensor: Nr:Datum:Temp:Feuchte:Taupunkt:
Aussen-T/F 3301 26-03-2009 12:27:27 9 C 56 % 0.71 C
3302 26-03-2009 12:39:27 8.6 C 60 % 1.29 C
3303 26-03-2009 12:51:27 8.2 C 62 % 1.37 C
3304 26-03-2009 13:03:26 8 C 64 % 1.62 C
3305 26-03-2009 13:15:27 7.7 C 66 % 1.76 C
3306 26-03-2009 13:27:27 7.6 C 68 % 2.08 C
3307 26-03-2009 13:39:26 7.5 C 70 % 2.39 C
3308 26-03-2009 13:51:26 7.2 C 73 % 2.69 C
3309 26-03-2009 14:03:26 7 C 75 % 2.88 C
3310 26-03-2009 14:15:26 7 C 77 % 3.25 C
3311 26-03-2009 14:27:26 7.2 C 75 % 3.07 C
3312 26-03-2009 14:39:26 7.3 C 73 % 2.79 C
3313 26-03-2009 14:51:25 7.1 C 73 % 2.6 C
3314 26-03-2009 15:03:26 7.1 C 73 % 2.6 C
3315 26-03-2009 15:15:25 7.1 C 72 % 2.4 C
3316 26-03-2009 15:27:25 7.1 C 72 % 2.4 C
3317 26-03-2009 15:39:25 7.3 C 71 % 2.4 C
3318 26-03-2009 15:51:25 7.3 C 70 % 2.2 C
3319 26-03-2009 16:03:25 7.2 C 72 % 2.5 C
3320 26-03-2009 16:15:25 7.3 C 71 % 2.4 C
3321 26-03-2009 16:27:25 7.4 C 71 % 2.5 C
3322 26-03-2009 16:39:24 7.4 C 72 % 2.69 C
3323 26-03-2009 16:51:25 7.2 C 74 % 2.89 C
3324 26-03-2009 17:03:24 7.1 C 76 % 3.16 C
3325 26-03-2009 17:15:24 7.1 C 76 % 3.16 C
Sensor: Nr:Datum:Temp:Feuchte:Taupunkt:
Aussen-T/F 3326 26-03-2009 17:27:24 7.3 C 75 % 3.17 C
3327 26-03-2009 17:39:24 7.3 C 75 % 3.17 C
3328 26-03-2009 17:51:24 7.3 C 75 % 3.17 C
3329 26-03-2009 18:03:23 7.3 C 76 % 3.36 C
3330 26-03-2009 18:15:24 7.3 C 75 % 3.17 C
3331 26-03-2009 18:27:24 7.5 C 74 % 3.17 C
3332 26-03-2009 18:39:24 7.5 C 73 % 2.98 C
3333 26-03-2009 18:51:23 7.6 C 72 % 2.88 C
3334 26-03-2009 19:03:23 7.5 C 72 % 2.79 C
3335 26-03-2009 19:15:23 7.5 C 71 % 2.59 C
3336 26-03-2009 19:27:23 7.6 C 70 % 2.49 C
3337 26-03-2009 19:39:23 7.6 C 70 % 2.49 C
3338 26-03-2009 19:51:22 7.4 C 71 % 2.5 C
3339 26-03-2009 20:03:23 7.2 C 72 % 2.5 C
3340 26-03-2009 20:15:22 7.4 C 73 % 2.89 C
3341 26-03-2009 20:27:22 7.7 C 72 % 2.98 C
3342 26-03-2009 20:39:22 7.7 C 72 % 2.98 C
3343 26-03-2009 20:51:22 7.7 C 73 % 3.18 C
3344 26-03-2009 21:03:22 7.6 C 74 % 3.27 C
3345 26-03-2009 21:15:22 7.6 C 75 % 3.46 C
3346 26-03-2009 21:27:22 7.7 C 75 % 3.56 C
3347 26-03-2009 21:39:21 7.7 C 75 % 3.56 C
3348 26-03-2009 21:51:22 7.7 C 74 % 3.37 C
3349 26-03-2009 22:04:21 7.6 C 76 % 3.65 C
3350 26-03-2009 22:16:21 7.5 C 79 % 4.1 C
Sensor: Nr:Datum:Temp:Feuchte:Taupunkt:
Aussen-T/F 3351 26-03-2009 22:28:21 7.5 C 80 % 4.28 C
3352 26-03-2009 22:40:21 7.6 C 79 % 4.2 C
3353 26-03-2009 22:52:21 7.9 C 77 % 4.12 C
3354 26-03-2009 23:04:21 8 C 75 % 3.85 C
3355 26-03-2009 23:16:21 8 C 75 % 3.85 C
3356 26-03-2009 23:28:21 7.9 C 77 % 4.12 C
3357 26-03-2009 23:40:21 7.9 C 78 % 4.31 C
3358 26-03-2009 23:52:21 7.6 C 80 % 4.38 C
3359 27-03-2009 00:04:21 7.5 C 82 % 4.63 C
3360 27-03-2009 00:16:21 7.5 C 83 % 4.81 C
3361 27-03-2009 00:28:22 7.6 C 83 % 4.9 C
3362 27-03-2009 00:40:22 7.6 C 83 % 4.9 C
3363 27-03-2009 00:52:22 7.6 C 83 % 4.9 C
3364 27-03-2009 01:04:22 7.6 C 83 % 4.9 C
3365 27-03-2009 01:16:22 7.4 C 85 % 5.05 C
3366 27-03-2009 01:28:22 7.4 C 86 % 5.22 C
3367 27-03-2009 01:40:22 7.3 C 88 % 5.45 C
3368 27-03-2009 01:52:22 7.4 C 88 % 5.55 C
3369 27-03-2009 02:04:22 7.4 C 88 % 5.55 C
3370 27-03-2009 02:16:22 7.3 C 88 % 5.45 C
3371 27-03-2009 02:28:22 7.2 C 87 % 5.19 C
3372 27-03-2009 02:40:22 7.3 C 85 % 4.95 C
3373 27-03-2009 02:52:22 7.4 C 83 % 4.71 C
3374 27-03-2009 03:04:22 7.6 C 81 % 4.55 C
3375 27-03-2009 03:16:22 7.5 C 80 % 4.28 C
Sensor: Nr:Datum:Temp:Feuchte:Taupunkt:
Aussen-T/F 3376 27-03-2009 03:28:22 7.5 C 80 % 4.28 C
3377 27-03-2009 03:40:22 7.5 C 80 % 4.28 C
3378 27-03-2009 03:52:22 7.4 C 80 % 4.18 C
3379 27-03-2009 04:04:22 7.4 C 82 % 4.53 C
3380 27-03-2009 04:16:23 7.3 C 82 % 4.44 C
3381 27-03-2009 04:28:23 7.3 C 83 % 4.61 C
3382 27-03-2009 04:40:23 7.1 C 84 % 4.58 C
3383 27-03-2009 04:52:23 7 C 84 % 4.49 C
3384 27-03-2009 05:04:23 6.9 C 86 % 4.72 C
3385 27-03-2009 05:16:23 7 C 83 % 4.32 C
3386 27-03-2009 05:28:23 7 C 82 % 4.14 C
3387 27-03-2009 05:40:23 7.1 C 79 % 3.71 C
3388 27-03-2009 05:52:23 7.1 C 75 % 2.98 C
3389 27-03-2009 06:04:23 7.3 C 70 % 2.2 C
3390 27-03-2009 06:16:23 7.2 C 67 % 1.49 C
3391 27-03-2009 06:28:23 7 C 67 % 1.3 C
3392 27-03-2009 06:40:23 7 C 68 % 1.51 C
3393 27-03-2009 06:52:23 6.9 C 71 % 2.02 C
3394 27-03-2009 07:04:21 7 C 71 % 2.11 C
3395 27-03-2009 07:16:22 7.1 C 70 % 2.01 C
3396 27-03-2009 07:28:22 7.2 C 66 % 1.29 C
3397 27-03-2009 07:40:21 7.3 C 65 % 1.17 C
3398 27-03-2009 07:52:21 7.3 C 66 % 1.38 C
3399 27-03-2009 08:04:21 7.5 C 65 % 1.36 C
3400 27-03-2009 08:16:21 7.6 C 63 % 1.02 C
Sensor: Nr:Datum:Temp:Feuchte:Taupunkt:
Aussen-T/F 3401 27-03-2009 08:28:21 7.8 C 62 % 0.99 C
3402 27-03-2009 08:40:21 8 C 60 % 0.72 C
3403 27-03-2009 08:52:21 8 C 60 % 0.72 C
3404 27-03-2009 09:04:21 8.1 C 60 % 0.82 C
3405 27-03-2009 09:16:20 8 C 59 % 0.49 C
3406 27-03-2009 09:28:20 7.9 C 60 % 0.63 C
3407 27-03-2009 09:40:20 8.4 C 57 % 0.39 C
3408 27-03-2009 09:52:20 8.5 C 56 % 0.24 C
3409 27-03-2009 10:04:20 8.5 C 55 % -0.01 C
3410 27-03-2009 10:16:19 7 C 66 % 1.09 C
3411 27-03-2009 10:28:19 7.2 C 72 % 2.5 C
3412 27-03-2009 10:40:20 7.7 C 71 % 2.78 C
3413 27-03-2009 10:52:19 8.3 C 61 % 1.23 C
3414 27-03-2009 11:04:19 8.4 C 54 % -0.35 C
3415 27-03-2009 11:16:19 8.5 C 51 % -1.04 C
3416 27-03-2009 11:28:19 7.9 C 58 % 0.16 C
3417 27-03-2009 11:40:19 8.1 C 60 % 0.82 C
3418 27-03-2009 11:52:19 9 C 53 % -0.05 C
3419 27-03-2009 12:04:18 9.3 C 48 % -1.13 C
3420 27-03-2009 12:16:19 9.3 C 46 % -1.71 C
3421 27-03-2009 12:28:19 8.8 C 46 % -2.17 C
3422 27-03-2009 12:40:18 8.9 C 48 % -1.5 C
3423 27-03-2009 12:52:18 9.1 C 45 % -2.19 C
3424 27-03-2009 13:04:19 9.7 C 42 % -2.57 C
3425 27-03-2009 13:16:18 9.7 C 40 % -3.23 C
Sensor: Nr:Datum:Temp:Feuchte:Taupunkt:
Aussen-T/F 3426 27-03-2009 13:28:18 9.6 C 37 % -4.35 C
3427 27-03-2009 13:40:18 9.7 C 37 % -4.26 C
3428 27-03-2009 13:52:18 9.8 C 37 % -4.18 C
3429 27-03-2009 14:04:18 10.4 C 35 % -4.38 C
3430 27-03-2009 14:16:17 10.3 C 35 % -4.47 C
3431 27-03-2009 14:28:17 10.3 C 35 % -4.47 C
3432 27-03-2009 14:40:17 10.2 C 36 % -4.18 C
3433 27-03-2009 14:52:17 10.1 C 39 % -3.21 C
3434 27-03-2009 15:04:17 9.7 C 40 % -3.23 C
3435 27-03-2009 15:16:17 9.6 C 42 % -2.66 C
3436 27-03-2009 15:28:17 9.7 C 40 % -3.23 C
3437 27-03-2009 15:40:17 9.8 C 41 % -2.81 C
3438 27-03-2009 15:52:17 9.6 C 41 % -2.99 C
3439 27-03-2009 16:04:16 8.5 C 45 % -2.73 C
3440 27-03-2009 16:16:16 7.9 C 48 % -2.42 C
3441 27-03-2009 16:28:16 7.9 C 50 % -1.86 C
3442 27-03-2009 16:40:16 7.4 C 55 % -1.03 C
3443 27-03-2009 16:52:16 6.9 C 66 % 1 C
3444 27-03-2009 17:04:15 6.6 C 71 % 1.73 C
3445 27-03-2009 17:16:16 6.6 C 68 % 1.13 C
3446 27-03-2009 17:28:16 6.3 C 72 % 1.63 C
3447 27-03-2009 17:40:16 5.9 C 74 % 1.63 C
3448 27-03-2009 17:52:15 5.2 C 76 % 1.32 C
3449 27-03-2009 18:04:16 5 C 79 % 1.67 C
3450 27-03-2009 18:16:15 4.9 C 82 % 2.09 C
Sensor: Nr:Datum:Temp:Feuchte:Taupunkt:
Aussen-T/F 3451 27-03-2009 18:28:15 4.9 C 82 % 2.09 C
3452 27-03-2009 18:40:15 5.1 C 80 % 1.94 C
3453 27-03-2009 18:52:15 5.6 C 74 % 1.34 C
3454 27-03-2009 19:04:15 5.7 C 68 % 0.27 C
3455 27-03-2009 19:16:14 5.9 C 66 % 0.05 C
3456 27-03-2009 19:28:14 6 C 66 % 0.14 C
3457 27-03-2009 19:40:02 5.8 C 69 % 0.56 C
3458 27-03-2009 19:52:01 5.8 C 70 % 0.76 C
3459 27-03-2009 20:04:02 5.6 C 72 % 0.96 C
3460 27-03-2009 20:16:01 5.6 C 73 % 1.15 C
3461 27-03-2009 20:28:01 5.5 C 73 % 1.06 C
3462 27-03-2009 20:40:01 5.3 C 74 % 1.05 C
3463 27-03-2009 20:52:01 5 C 75 % 0.95 C
3464 27-03-2009 21:04:02 4.8 C 76 % 0.94 C
3465 27-03-2009 21:16:01 4.8 C 77 % 1.12 C
3466 27-03-2009 21:28:01 4.9 C 78 % 1.39 C
3467 27-03-2009 21:40:01 4.7 C 79 % 1.38 C
3468 27-03-2009 21:52:01 5.2 C 78 % 1.69 C
3469 27-03-2009 22:04:01 5.7 C 75 % 1.62 C
3470 27-03-2009 22:16:00 5.8 C 72 % 1.15 C
3471 27-03-2009 22:28:00 5.7 C 72 % 1.06 C
3472 27-03-2009 22:40:01 5.6 C 73 % 1.15 C
3473 27-03-2009 22:53:01 5.6 C 74 % 1.34 C
3474 27-03-2009 23:05:01 5.3 C 75 % 1.24 C
3475 27-03-2009 23:17:01 5.1 C 77 % 1.41 C
Sensor: Nr:Datum:Temp:Feuchte:Taupunkt:
Aussen-T/F 3476 27-03-2009 23:29:01 4.8 C 81 % 1.82 C
3477 27-03-2009 23:41:01 4.8 C 83 % 2.16 C
3478 27-03-2009 23:53:01 4.8 C 84 % 2.33 C
3479 28-03-2009 00:05:01 4.9 C 85 % 2.6 C
3480 28-03-2009 00:17:01 4.8 C 86 % 2.66 C
3481 28-03-2009 00:29:01 4.7 C 87 % 2.73 C
3482 28-03-2009 00:41:01 4.4 C 88 % 2.59 C
3483 28-03-2009 00:53:01 4 C 88 % 2.2 C
3484 28-03-2009 01:05:01 3.6 C 88 % 1.8 C
3485 28-03-2009 01:17:01 3.6 C 89 % 1.96 C
3486 28-03-2009 01:29:02 3.4 C 89 % 1.76 C
3487 28-03-2009 01:41:02 3.3 C 89 % 1.67 C
3488 28-03-2009 01:53:02 3.4 C 90 % 1.92 C
3489 28-03-2009 02:05:02 3.4 C 90 % 1.92 C
3490 28-03-2009 02:17:02 3.5 C 91 % 2.17 C
3491 28-03-2009 02:29:02 3.7 C 91 % 2.37 C
3492 28-03-2009 02:41:02 3.7 C 92 % 2.52 C
3493 28-03-2009 02:53:02 3.8 C 92 % 2.62 C
3494 28-03-2009 03:05:02 3.8 C 92 % 2.62 C
3495 28-03-2009 03:17:02 3.9 C 92 % 2.72 C
3496 28-03-2009 03:29:02 4 C 92 % 2.82 C
3497 28-03-2009 03:41:02 4.1 C 92 % 2.92 C
3498 28-03-2009 03:53:02 4.2 C 92 % 3.02 C
3499 28-03-2009 04:05:02 4.3 C 93 % 3.27 C
3500 28-03-2009 04:17:02 4.3 C 93 % 3.27 C
Sensor: Nr:Datum:Temp:Feuchte:Taupunkt:
Aussen-T/F 3501 28-03-2009 04:29:02 4.3 C 93 % 3.27 C
3502 28-03-2009 04:41:02 4.3 C 93 % 3.27 C
3503 28-03-2009 04:53:02 4.3 C 93 % 3.27 C
3504 28-03-2009 05:05:02 4.3 C 93 % 3.27 C
3505 28-03-2009 05:17:03 4.3 C 93 % 3.27 C
3506 28-03-2009 05:29:03 4.4 C 93 % 3.37 C
3507 28-03-2009 05:41:03 4.6 C 93 % 3.57 C
3508 28-03-2009 05:53:03 4.7 C 93 % 3.67 C
3509 28-03-2009 06:05:03 4.8 C 93 % 3.77 C
3510 28-03-2009 06:17:03 4.8 C 92 % 3.61 C
3511 28-03-2009 06:29:03 4.9 C 92 % 3.71 C
3512 28-03-2009 06:41:03 5 C 91 % 3.66 C
3513 28-03-2009 06:53:03 5.2 C 90 % 3.7 C
3514 28-03-2009 07:05:03 5 C 89 % 3.34 C
3515 28-03-2009 07:17:03 4.7 C 90 % 3.2 C
3516 28-03-2009 07:29:03 4.9 C 90 % 3.4 C
3517 28-03-2009 07:41:03 4.8 C 90 % 3.3 C
3518 28-03-2009 07:53:03 5.2 C 89 % 3.54 C
3519 28-03-2009 08:05:03 5.6 C 90 % 4.09 C
3520 28-03-2009 08:17:03 5.8 C 90 % 4.29 C
3521 28-03-2009 08:29:03 5.9 C 89 % 4.23 C
3522 28-03-2009 08:41:03 6.8 C 88 % 4.96 C
3523 28-03-2009 08:53:03 7.6 C 78 % 4.02 C
3524 28-03-2009 09:05:04 8.2 C 71 % 3.26 C
3525 28-03-2009 09:17:04 8.9 C 66 % 2.9 C
Sensor: Nr:Datum:Temp:Feuchte:Taupunkt:
Aussen-T/F 3526 28-03-2009 09:29:04 9 C 61 % 1.89 C
3527 28-03-2009 09:41:02 8.6 C 67 % 2.83 C
3528 28-03-2009 09:53:01 7.9 C 71 % 2.98 C
3529 28-03-2009 10:05:01 7.7 C 74 % 3.37 C
3530 28-03-2009 10:17:01 7.6 C 77 % 3.83 C
3531 28-03-2009 10:29:01 7.6 C 78 % 4.02 C
3532 28-03-2009 10:41:01 7.9 C 80 % 4.67 C
3533 28-03-2009 10:53:00 7.9 C 81 % 4.85 C
3534 28-03-2009 11:05:01 7.9 C 80 % 4.67 C
3535 28-03-2009 11:17:00 8.5 C 74 % 4.14 C
3536 28-03-2009 11:29:00 8.6 C 70 % 3.45 C
3537 28-03-2009 11:41:00 8.6 C 68 % 3.04 C
3538 28-03-2009 11:53:02 8.5 C 70 % 3.35 C
3539 28-03-2009 12:05:01 8.3 C 72 % 3.56 C
3540 28-03-2009 12:17:01 8.3 C 73 % 3.75 C
3541 28-03-2009 12:29:01 8.1 C 71 % 3.17 C
3542 28-03-2009 12:41:02 8.5 C 71 % 3.55 C
3543 28-03-2009 12:53:01 9 C 63 % 2.35 C
3544 28-03-2009 13:05:01 9.1 C 63 % 2.44 C
3545 28-03-2009 13:17:01 9.4 C 61 % 2.27 C
3546 28-03-2009 13:29:01 9.9 C 57 % 1.79 C
3547 28-03-2009 13:41:01 10.3 C 54 % 1.41 C
3548 28-03-2009 13:53:00 8.9 C 62 % 2.03 C
3549 28-03-2009 14:05:01 7 C 69 % 1.71 C
3550 28-03-2009 14:17:00 7.1 C 71 % 2.21 C
Sensor: Nr:Datum:Temp:Feuchte:Taupunkt:
Aussen-T/F 3551 28-03-2009 14:29:00 8.2 C 66 % 2.24 C
3552 28-03-2009 14:41:00 9.2 C 62 % 2.31 C
3553 28-03-2009 14:53:00 10.5 C 54 % 1.6 C
3554 28-03-2009 15:05:00 11.2 C 52 % 1.72 C
3555 28-03-2009 15:17:00 11.6 C 46 % 0.39 C
3556 28-03-2009 15:29:00 11 C 47 % 0.14 C
3557 28-03-2009 15:41:59 10.7 C 49 % 0.44 C
3558 28-03-2009 15:53:00 11.2 C 42 % -1.22 C
3559 28-03-2009 16:05:59 10.5 C 43 % -1.53 C
3560 28-03-2009 16:17:59 10.9 C 43 % -1.17 C
3561 28-03-2009 16:29:59 10.3 C 44 % -1.4 C
3562 28-03-2009 16:41:58 10.7 C 42 % -1.67 C
3563 28-03-2009 16:53:59 11.3 C 36 % -3.21 C
3564 28-03-2009 17:05:59 10.6 C 36 % -3.83 C
3565 28-03-2009 17:17:58 10.2 C 37 % -3.82 C
3566 28-03-2009 17:29:58 9.7 C 39 % -3.57 C
3567 28-03-2009 17:41:59 9.7 C 38 % -3.91 C
3568 28-03-2009 17:53:58 9.7 C 40 % -3.23 C
3569 28-03-2009 18:05:58 9.7 C 40 % -3.23 C
3570 28-03-2009 18:17:58 10.5 C 37 % -3.55 C
3571 28-03-2009 18:29:58 10.2 C 35 % -4.56 C
3572 28-03-2009 18:41:58 9.5 C 37 % -4.44 C
3573 28-03-2009 18:53:57 9 C 38 % -4.54 C
3574 28-03-2009 19:05:58 8.7 C 40 % -4.13 C
3575 28-03-2009 19:17:58 8.2 C 41 % -4.25 C
Sensor: Nr:Datum:Temp:Feuchte:Taupunkt:
Aussen-T/F 3576 28-03-2009 19:29:58 7.9 C 45 % -3.28 C
3577 28-03-2009 19:41:57 7.6 C 46 % -3.26 C
3578 28-03-2009 19:53:57 7.3 C 50 % -2.42 C
3579 28-03-2009 20:05:57 6.9 C 54 % -1.75 C
3580 28-03-2009 20:17:57 6.7 C 57 % -1.2 C
3581 28-03-2009 20:29:57 6.9 C 56 % -1.26 C
3582 28-03-2009 20:41:57 7 C 56 % -1.16 C
3583 28-03-2009 20:53:57 6.9 C 57 % -1.01 C
3584 28-03-2009 21:05:57 6.4 C 58 % -1.25 C
3585 28-03-2009 21:17:56 6.2 C 60 % -0.97 C
3586 28-03-2009 21:29:56 6 C 61 % -0.94 C
3587 28-03-2009 21:41:56 6 C 61 % -0.94 C
3588 28-03-2009 21:53:56 6.4 C 61 % -0.56 C
3589 28-03-2009 22:05:56 6.4 C 61 % -0.56 C
3590 28-03-2009 22:17:56 6.5 C 60 % -0.69 C
3591 28-03-2009 22:29:56 6.9 C 58 % -0.78 C
3592 28-03-2009 22:42:56 7.1 C 55 % -1.31 C
3593 28-03-2009 22:54:56 7.2 C 54 % -1.47 C
3594 28-03-2009 23:06:56 7.2 C 54 % -1.47 C
3595 28-03-2009 23:18:56 6.6 C 63 % 0.07 C
3596 28-03-2009 23:30:57 6 C 69 % 0.76 C
3597 28-03-2009 23:42:57 5.8 C 72 % 1.15 C
3598 28-03-2009 23:54:57 5.9 C 74 % 1.63 C
3599 29-03-2009 00:06:57 6 C 70 % 0.95 C
3600 29-03-2009 00:18:57 6.3 C 67 % 0.64 C
Sensor: Nr:Datum:Temp:Feuchte:Taupunkt:
Aussen-T/F 3601 29-03-2009 00:30:57 6.3 C 64 % 0 C
3602 29-03-2009 00:42:57 6 C 66 % 0.14 C
3603 29-03-2009 00:54:57 5.9 C 68 % 0.46 C
3604 29-03-2009 01:06:57 5.9 C 69 % 0.66 C
3605 29-03-2009 01:18:57 5.9 C 68 % 0.46 C
3606 29-03-2009 01:30:57 6 C 68 % 0.55 C
3607 29-03-2009 01:42:57 5.9 C 69 % 0.66 C
3608 29-03-2009 01:54:57 5.9 C 71 % 1.06 C
3609 29-03-2009 02:06:57 5.7 C 70 % 0.67 C
3610 29-03-2009 02:18:57 5.3 C 72 % 0.67 C
3611 29-03-2009 02:30:57 5.1 C 72 % 0.48 C
3612 29-03-2009 02:42:57 4.8 C 74 % 0.57 C
3613 29-03-2009 02:54:57 4.9 C 75 % 0.85 C
3614 29-03-2009 04:06:57 5 C 74 % 0.76 C
3615 29-03-2009 04:18:57 5.2 C 73 % 0.77 C
3616 29-03-2009 04:30:58 5.2 C 70 % 0.19 C
3617 29-03-2009 04:42:58 5.2 C 68 % -0.21 C
3618 29-03-2009 04:54:58 5.2 C 66 % -0.62 C
3619 29-03-2009 05:06:58 5.1 C 63 % -1.35 C
3620 29-03-2009 05:18:58 5.1 C 62 % -1.57 C
3621 29-03-2009 05:30:58 5.1 C 61 % -1.79 C
3622 29-03-2009 05:42:58 5.1 C 63 % -1.35 C
3623 29-03-2009 05:54:58 5.2 C 62 % -1.47 C
3624 29-03-2009 06:06:58 5.2 C 61 % -1.69 C
3625 29-03-2009 06:18:58 5.2 C 61 % -1.69 C
Sensor: Nr:Datum:Temp:Feuchte:Taupunkt:
Aussen-T/F 3626 29-03-2009 06:30:58 5.1 C 62 % -1.57 C
3627 29-03-2009 06:42:58 5 C 62 % -1.66 C
3628 29-03-2009 06:54:58 4.8 C 66 % -1 C
3629 29-03-2009 07:06:58 4.6 C 67 % -0.99 C
3630 29-03-2009 07:18:58 4.6 C 68 % -0.78 C
3631 29-03-2009 07:30:58 4.7 C 68 % -0.69 C
3632 29-03-2009 07:42:58 4.5 C 68 % -0.88 C
3633 29-03-2009 07:54:58 4.4 C 68 % -0.98 C
3634 29-03-2009 08:06:58 4.7 C 68 % -0.69 C
3635 29-03-2009 08:18:59 5 C 66 % -0.81 C
3636 29-03-2009 08:30:59 5.1 C 65 % -0.92 C
3637 29-03-2009 08:42:59 5.1 C 65 % -0.92 C
3638 29-03-2009 08:54:59 5.2 C 65 % -0.83 C
3639 29-03-2009 09:06:59 5.4 C 64 % -0.85 C
3640 29-03-2009 09:18:59 5.5 C 65 % -0.54 C
3641 29-03-2009 09:30:56 5.5 C 65 % -0.54 C
3642 29-03-2009 09:42:56 5.6 C 66 % -0.24 C
3643 29-03-2009 09:54:56 5.1 C 73 % 0.67 C
3644 29-03-2009 10:06:56 5.3 C 76 % 1.42 C
3645 29-03-2009 10:18:01 5.4 C 77 % 1.7 C
3646 29-03-2009 10:30:01 5.9 C 77 % 2.19 C
3647 29-03-2009 10:42:02 6.3 C 73 % 1.83 C
3648 29-03-2009 10:54:01 6.4 C 70 % 1.34 C
3649 29-03-2009 11:06:02 6.2 C 69 % 0.95 C
3650 29-03-2009 11:18:01 6.2 C 69 % 0.95 C
Sensor: Nr:Datum:Temp:Feuchte:Taupunkt:
Aussen-T/F 3651 29-03-2009 11:30:01 6.5 C 67 % 0.83 C
3652 29-03-2009 11:42:01 6.5 C 66 % 0.62 C
3653 29-03-2009 11:54:01 6.7 C 66 % 0.81 C
3654 29-03-2009 12:06:01 6.9 C 65 % 0.79 C
3655 29-03-2009 12:18:00 7.6 C 63 % 1.02 C
3656 29-03-2009 12:30:00 8.4 C 60 % 1.1 C
3657 29-03-2009 12:42:01 8 C 59 % 0.49 C
3658 29-03-2009 12:54:00 8.1 C 60 % 0.82 C
3659 29-03-2009 13:06:00 8.9 C 57 % 0.86 C
3660 29-03-2009 13:18:00 7.8 C 58 % 0.07 C
3661 29-03-2009 13:30:00 7.8 C 62 % 0.99 C
3662 29-03-2009 13:42:00 8.5 C 58 % 0.72 C
3663 29-03-2009 13:54:00 8.8 C 57 % 0.76 C
3664 29-03-2009 14:06:00 9 C 52 % -0.31 C
3665 29-03-2009 14:18:00 7.9 C 59 % 0.4 C
3666 29-03-2009 14:30:00 6.7 C 67 % 1.02 C
3667 29-03-2009 14:42:59 6.6 C 72 % 1.92 C
3668 29-03-2009 14:54:00 6.9 C 75 % 2.78 C
3669 29-03-2009 15:06:59 8.3 C 75 % 4.14 C
3670 29-03-2009 15:18:59 9 C 69 % 3.63 C
3671 29-03-2009 15:30:58 8.4 C 62 % 1.55 C
3672 29-03-2009 15:42:58 9 C 62 % 2.12 C
3673 29-03-2009 15:54:59 8.1 C 56 % -0.13 C
3674 29-03-2009 16:06:58 7.4 C 58 % -0.31 C
3675 29-03-2009 16:18:58 7.7 C 56 % -0.51 C
Sensor: Nr:Datum:Temp:Feuchte:Taupunkt:
Aussen-T/F 3676 29-03-2009 16:30:58 8.1 C 55 % -0.38 C
3677 29-03-2009 16:42:58 8.3 C 52 % -0.96 C
3678 29-03-2009 16:54:58 8.4 C 49 % -1.68 C
3679 29-03-2009 17:06:58 9 C 47 % -1.69 C
3680 29-03-2009 17:18:57 9.5 C 47 % -1.23 C
3681 29-03-2009 17:30:58 9.8 C 44 % -1.86 C
3682 29-03-2009 17:42:58 9 C 45 % -2.28 C
3683 29-03-2009 17:54:57 8.5 C 45 % -2.73 C
3684 29-03-2009 18:06:58 8.2 C 48 % -2.14 C
3685 29-03-2009 18:18:57 8 C 51 % -1.5 C
3686 29-03-2009 18:30:57 8 C 53 % -0.98 C
3687 29-03-2009 18:42:57 7.8 C 55 % -0.66 C
3688 29-03-2009 18:54:57 7.5 C 59 % 0.02 C
3689 29-03-2009 19:06:57 7.3 C 61 % 0.29 C
3690 29-03-2009 19:18:56 7 C 62 % 0.23 C
3691 29-03-2009 19:30:56 6.3 C 71 % 1.44 C
3692 29-03-2009 19:42:56 6.1 C 75 % 2.01 C
3693 29-03-2009 19:54:56 6 C 78 % 2.46 C
3694 29-03-2009 20:06:56 5.9 C 81 % 2.9 C
3695 29-03-2009 20:18:56 5.7 C 82 % 2.87 C
3696 29-03-2009 20:30:56 5.5 C 83 % 2.85 C
3697 29-03-2009 20:42:56 5.4 C 84 % 2.92 C
3698 29-03-2009 20:54:56 5.3 C 84 % 2.82 C
3699 29-03-2009 21:06:55 5 C 84 % 2.53 C
3700 29-03-2009 21:18:56 4.8 C 85 % 2.5 C
Sensor: Nr:Datum:Temp:Feuchte:Taupunkt:
Aussen-T/F 3701 29-03-2009 21:30:55 4.7 C 85 % 2.4 C
3702 29-03-2009 21:42:55 4.5 C 85 % 2.2 C
3703 29-03-2009 21:54:55 4.5 C 86 % 2.37 C
3704 29-03-2009 22:06:55 4.6 C 86 % 2.47 C
3705 29-03-2009 22:18:55 4.6 C 86 % 2.47 C
3706 29-03-2009 22:30:55 4.4 C 85 % 2.11 C
3707 29-03-2009 22:42:55 4.3 C 85 % 2.01 C
3708 29-03-2009 22:54:55 4.3 C 84 % 1.84 C
3709 29-03-2009 23:06:55 4.3 C 83 % 1.67 C
3710 29-03-2009 23:18:54 4.3 C 82 % 1.51 C
3711 29-03-2009 23:31:02 4.1 C 81 % 1.14 C
3712 29-03-2009 23:43:02 3.8 C 82 % 1.02 C
3713 29-03-2009 23:55:02 3.6 C 82 % 0.82 C
3714 30-03-2009 00:07:02 3.5 C 82 % 0.72 C
3715 30-03-2009 00:19:02 3.3 C 82 % 0.53 C
3716 30-03-2009 00:31:02 3.1 C 82 % 0.33 C
3717 30-03-2009 00:43:02 3 C 83 % 0.4 C
3718 30-03-2009 00:55:02 3 C 83 % 0.4 C
3719 30-03-2009 01:07:02 2.7 C 84 % 0.27 C
3720 30-03-2009 01:19:02 2.5 C 84 % 0.08 C
3721 30-03-2009 01:31:02 2.3 C 85 % 0.04 C
3722 30-03-2009 01:43:02 2.1 C 85 % -0.15 C
3723 30-03-2009 01:55:02 2 C 85 % -0.25 C
3724 30-03-2009 02:07:03 2 C 86 % -0.09 C
3725 30-03-2009 02:19:03 1.9 C 87 % -0.03 C
Sensor: Nr:Datum:Temp:Feuchte:Taupunkt:
Aussen-T/F 3726 30-03-2009 02:31:03 1.8 C 87 % -0.13 C
3727 30-03-2009 02:43:03 1.7 C 87 % -0.23 C
3728 30-03-2009 02:55:03 1.8 C 87 % -0.13 C
3729 30-03-2009 03:07:03 1.5 C 88 % -0.27 C
3730 30-03-2009 03:19:03 1.5 C 87 % -0.42 C
3731 30-03-2009 03:31:03 1.4 C 88 % -0.36 C
3732 30-03-2009 03:43:03 1.3 C 88 % -0.46 C
3733 30-03-2009 03:55:03 1.2 C 88 % -0.56 C
3734 30-03-2009 04:07:03 1.2 C 88 % -0.56 C
3735 30-03-2009 04:19:03 1.2 C 88 % -0.56 C
3736 30-03-2009 04:31:03 1.1 C 88 % -0.66 C
3737 30-03-2009 04:43:03 1.2 C 88 % -0.56 C
3738 30-03-2009 04:55:03 1.3 C 88 % -0.46 C
3739 30-03-2009 05:07:03 1 C 88 % -0.76 C
3740 30-03-2009 05:19:03 1 C 88 % -0.76 C
3741 30-03-2009 05:31:03 0.8 C 89 % -0.8 C
3742 30-03-2009 05:43:03 0.7 C 89 % -0.9 C
3743 30-03-2009 05:55:03 0.7 C 89 % -0.9 C
3744 30-03-2009 06:07:04 0.6 C 89 % -1 C
3745 30-03-2009 06:19:04 0.4 C 89 % -1.2 C
3746 30-03-2009 06:31:04 0.3 C 89 % -1.29 C
3747 30-03-2009 06:43:04 0.3 C 90 % -1.14 C
3748 30-03-2009 06:55:04 0 C 89 % -1.59 C
3749 30-03-2009 07:07:01 -0.2 C 89 % -1.79 C
3750 30-03-2009 07:19:01 -0.2 C 89 % -1.79 C
Sensor: Nr:Datum:Temp:Feuchte:Taupunkt:
Aussen-T/F 3751 30-03-2009 07:31:01 -0.2 C 89 % -1.79 C
3752 30-03-2009 07:43:01 -0.2 C 90 % -1.64 C
3753 30-03-2009 07:55:01 -0.2 C 90 % -1.64 C
3754 30-03-2009 08:07:00 0 C 90 % -1.44 C
3755 30-03-2009 08:19:01 0.3 C 90 % -1.14 C
3756 30-03-2009 08:31:00 0.5 C 91 % -0.79 C
3757 30-03-2009 08:43:00 0.6 C 91 % -0.7 C
3758 30-03-2009 08:55:00 0.9 C 91 % -0.4 C
3759 30-03-2009 09:07:00 1.3 C 91 % 0 C
3760 30-03-2009 09:19:00 1.4 C 92 % 0.25 C
3761 30-03-2009 09:31:00 1.5 C 91 % 0.19 C
3762 30-03-2009 09:43:00 1.9 C 92 % 0.74 C
3763 30-03-2009 09:55:00 2.7 C 92 % 1.53 C
3764 30-03-2009 10:07:00 3.1 C 92 % 1.93 C
3765 30-03-2009 10:19:59 3.4 C 92 % 2.23 C
3766 30-03-2009 10:31:59 3.7 C 92 % 2.52 C
3767 30-03-2009 10:43:59 4.1 C 92 % 2.92 C
3768 30-03-2009 10:55:59 4.6 C 92 % 3.42 C
3769 30-03-2009 11:07:59 5.1 C 91 % 3.76 C
3770 30-03-2009 11:19:59 5.7 C 91 % 4.35 C
3771 30-03-2009 11:31:58 6.2 C 89 % 4.53 C
3772 30-03-2009 11:43:58 6.7 C 84 % 4.19 C
3773 30-03-2009 11:55:59 7 C 74 % 2.69 C
3774 30-03-2009 12:07:58 7.7 C 71 % 2.78 C
3775 30-03-2009 12:19:58 8.2 C 63 % 1.59 C
Sensor: Nr:Datum:Temp:Feuchte:Taupunkt:
Aussen-T/F 3776 30-03-2009 12:31:58 8.5 C 58 % 0.72 C
3777 30-03-2009 12:43:58 9.1 C 55 % 0.55 C
3778 30-03-2009 12:55:58 10.1 C 50 % 0.16 C
3779 30-03-2009 13:07:57 10.4 C 45 % -1 C
3780 30-03-2009 13:19:58 10 C 44 % -1.67 C
3781 30-03-2009 13:31:58 10.1 C 45 % -1.28 C
3782 30-03-2009 13:43:58 10.7 C 42 % -1.67 C
3783 30-03-2009 13:55:57 11.7 C 39 % -1.78 C
3784 30-03-2009 14:07:58 12.9 C 35 % -2.17 C
3785 30-03-2009 14:19:57 12.9 C 31 % -3.8 C
3786 30-03-2009 14:31:57 12.8 C 30 % -4.32 C
3787 30-03-2009 14:43:57 12.7 C 30 % -4.41 C
3788 30-03-2009 14:55:57 13.4 C 24 % -6.73 C
3789 30-03-2009 15:07:57 13.9 C 23 % -6.86 C
3790 30-03-2009 15:19:56 13.2 C 25 % -6.37 C
3791 30-03-2009 15:31:56 12.9 C 27 % -5.62 C
3792 30-03-2009 15:43:56 14.5 C 20 % -8.16 C
3793 30-03-2009 15:55:56 15.8 C 20 % -7.08 C
3794 30-03-2009 16:07:56 16.6 C 20 % -6.42 C
3795 30-03-2009 16:19:55 16.7 C 20 % -6.34 C
3796 30-03-2009 16:31:56 15.2 C 20 % -7.58 C
3797 30-03-2009 16:43:56 15 C 20 % -7.75 C
3798 30-03-2009 16:55:55 15.6 C 20 % -7.25 C
3799 30-03-2009 17:07:55 14.2 C 20 % -8.41 C
3800 30-03-2009 17:19:56 14.1 C 20 % -8.49 C
Sensor: Nr:Datum:Temp:Feuchte:Taupunkt:
Aussen-T/F 3801 30-03-2009 17:31:55 15.4 C 20 % -7.41 C
3802 30-03-2009 17:43:55 16.3 C 20 % -6.67 C
3803 30-03-2009 17:55:55 14.8 C 20 % -7.91 C
3804 30-03-2009 18:07:55 14.3 C 20 % -8.33 C
3805 30-03-2009 18:19:55 13.5 C 21 % -8.37 C
3806 30-03-2009 18:31:54 13.3 C 26 % -5.77 C
3807 30-03-2009 18:43:54 13.5 C 26 % -5.6 C
3808 30-03-2009 18:55:55 13.9 C 26 % -5.26 C
3809 30-03-2009 19:07:54 12.9 C 30 % -4.23 C
3810 30-03-2009 19:19:54 12.5 C 31 % -4.15 C
3811 30-03-2009 19:31:54 12.1 C 32 % -4.07 C
3812 30-03-2009 19:43:54 11.5 C 37 % -2.66 C
3813 30-03-2009 19:55:54 10.7 C 41 % -2 C
3814 30-03-2009 20:07:54 10.1 C 43 % -1.89 C
3815 30-03-2009 20:19:53 9.8 C 46 % -1.25 C
3816 30-03-2009 20:31:54 9.3 C 49 % -0.85 C
3817 30-03-2009 20:43:54 8.7 C 50 % -1.13 C
3818 30-03-2009 20:55:53 8.3 C 51 % -1.23 C
3819 30-03-2009 21:07:53 8 C 52 % -1.24 C
3820 30-03-2009 21:19:53 7.7 C 54 % -1 C
3821 30-03-2009 21:32:54 7.4 C 55 % -1.03 C
3822 30-03-2009 21:44:54 7.2 C 57 % -0.73 C
3823 30-03-2009 21:56:54 7 C 58 % -0.68 C
3824 30-03-2009 22:08:54 6.9 C 58 % -0.78 C
3825 30-03-2009 22:20:54 6.5 C 60 % -0.69 C
Sensor: Nr:Datum:Temp:Feuchte:Taupunkt:
Aussen-T/F 3826 30-03-2009 22:32:54 6.3 C 61 % -0.65 C
3827 30-03-2009 22:44:54 6.4 C 61 % -0.56 C
3828 30-03-2009 22:56:54 5.9 C 63 % -0.59 C
3829 30-03-2009 23:08:54 5.5 C 63 % -0.97 C
3830 30-03-2009 23:20:54 5.3 C 65 % -0.73 C
3831 30-03-2009 23:32:54 5.2 C 66 % -0.62 C
3832 30-03-2009 23:44:54 5.1 C 67 % -0.51 C
3833 30-03-2009 23:56:54 4.9 C 67 % -0.7 C
3834 31-03-2009 00:08:54 4.7 C 67 % -0.89 C
3835 31-03-2009 00:20:54 4.5 C 68 % -0.88 C
3836 31-03-2009 00:32:54 4.3 C 69 % -0.87 C
3837 31-03-2009 00:44:54 4 C 70 % -0.96 C
3838 31-03-2009 00:56:54 3.8 C 71 % -0.96 C
3839 31-03-2009 01:08:54 3.6 C 72 % -0.96 C
3840 31-03-2009 01:20:54 3.5 C 72 % -1.06 C
3841 31-03-2009 01:32:54 3.2 C 73 % -1.16 C
3842 31-03-2009 01:44:55 3.1 C 74 % -1.07 C
3843 31-03-2009 01:56:55 3 C 74 % -1.17 C
3844 31-03-2009 02:08:55 2.9 C 76 % -0.9 C
3845 31-03-2009 02:20:55 2.7 C 75 % -1.28 C
3846 31-03-2009 02:32:55 2.5 C 75 % -1.47 C
3847 31-03-2009 02:44:55 2.3 C 76 % -1.48 C
3848 31-03-2009 02:56:55 2.1 C 76 % -1.68 C
3849 31-03-2009 03:08:55 2.1 C 77 % -1.5 C
3850 31-03-2009 03:20:55 2 C 78 % -1.42 C
Sensor: Nr:Datum:Temp:Feuchte:Taupunkt:
Aussen-T/F 3851 31-03-2009 03:32:55 1.8 C 79 % -1.44 C
3852 31-03-2009 03:44:55 1.6 C 79 % -1.64 C
3853 31-03-2009 03:56:55 1.5 C 80 % -1.57 C
3854 31-03-2009 04:08:55 1.3 C 81 % -1.59 C
3855 31-03-2009 04:20:55 1.2 C 81 % -1.69 C
3856 31-03-2009 04:32:55 1 C 81 % -1.88 C
3857 31-03-2009 04:44:55 1 C 81 % -1.88 C
3858 31-03-2009 04:56:55 1 C 81 % -1.88 C
3859 31-03-2009 05:08:55 0.8 C 82 % -1.91 C
3860 31-03-2009 05:20:55 0.6 C 82 % -2.11 C
3861 31-03-2009 05:32:55 0.6 C 82 % -2.11 C
3862 31-03-2009 05:44:56 0.4 C 82 % -2.3 C
3863 31-03-2009 05:56:56 0.3 C 82 % -2.4 C
3864 31-03-2009 06:08:56 0.3 C 83 % -2.24 C
3865 31-03-2009 06:20:56 0.2 C 83 % -2.34 C
3866 31-03-2009 06:32:56 0 C 84 % -2.37 C
3867 31-03-2009 06:44:56 -0.2 C 83 % -2.73 C
3868 31-03-2009 06:56:56 -0.3 C 83 % -2.83 C
3869 31-03-2009 07:08:53 -0.3 C 84 % -2.67 C
3870 31-03-2009 07:20:54 -0.3 C 84 % -2.67 C
3871 31-03-2009 07:32:53 -0.5 C 84 % -2.86 C
3872 31-03-2009 07:44:53 -0.4 C 84 % -2.77 C
3873 31-03-2009 07:56:53 -0.3 C 84 % -2.67 C
3874 31-03-2009 08:08:53 -0.1 C 85 % -2.31 C
3875 31-03-2009 08:20:53 0 C 85 % -2.21 C
Sensor: Nr:Datum:Temp:Feuchte:Taupunkt:
Aussen-T/F 3876 31-03-2009 08:32:52 0.1 C 86 % -1.96 C
3877 31-03-2009 08:44:53 0.3 C 86 % -1.76 C
3878 31-03-2009 08:56:53 0.4 C 86 % -1.66 C
3879 31-03-2009 09:08:52 0.6 C 86 % -1.46 C
3880 31-03-2009 09:20:52 0.8 C 86 % -1.27 C
3881 31-03-2009 09:32:52 1.1 C 86 % -0.97 C
3882 31-03-2009 09:44:52 1.5 C 87 % -0.42 C
3883 31-03-2009 09:56:52 2.1 C 87 % 0.17 C
3884 31-03-2009 10:08:52 2.8 C 86 % 0.7 C
3885 31-03-2009 10:20:51 3.4 C 82 % 0.63 C
3886 31-03-2009 10:32:52 4.1 C 78 % 0.62 C
3887 31-03-2009 10:44:51 4.6 C 76 % 0.74 C
3888 31-03-2009 10:56:51 5.2 C 70 % 0.19 C
3889 31-03-2009 11:08:52 5.9 C 66 % 0.05 C
3890 31-03-2009 11:20:51 6.5 C 61 % -0.46 C
3891 31-03-2009 11:32:51 7.4 C 59 % -0.07 C
3892 31-03-2009 11:44:51 7.9 C 57 % -0.08 C
3893 31-03-2009 11:56:51 8.5 C 54 % -0.26 C
3894 31-03-2009 12:08:51 9.1 C 50 % -0.76 C
3895 31-03-2009 12:20:50 9.6 C 45 % -1.73 C
3896 31-03-2009 12: